Provisional Data: Yellow Breeches Creek near Lisburn, PA


Please select a monitoring station.
Please select start date.
Please select start date.

Toggle Unit: C/F Toggle Unit: C/F
Sample Time Temperature (C) Temperature (F) Specific Conductivity (mS/cm) pH   Turbidity (NTU+) DO (mg/L)
8/9/2021 12:00:00 AM 22.25 72.05 0.328 8.18 3.23 7.33
8/9/2021 12:15:00 AM 22.19 71.942 0.329 8.15 2.8 7.23
8/9/2021 12:30:00 AM 22.14 71.852 0.329 8.13 4.3 7.19
8/9/2021 12:45:00 AM 22.08 71.744 0.33 8.1 3.84 7.09
8/9/2021 1:00:00 AM 22.04 71.672 0.33 8.08 3.36 7.03
8/9/2021 1:15:00 AM 21.99 71.582 0.329 8.05 3.3 6.96
8/9/2021 1:30:00 AM 21.95 71.51 0.329 8.04 3.11 6.97
8/9/2021 1:45:00 AM 21.9 71.42 0.329 8.02 4.55 6.89
8/9/2021 2:00:00 AM 21.87 71.366 0.329 8 1.81 6.9
8/9/2021 2:15:00 AM 21.83 71.294 0.33 7.99 3.87 6.82
8/9/2021 2:30:00 AM 21.8 71.24 0.33 7.97 4.71 6.8
8/9/2021 2:45:00 AM 21.77 71.186 0.331 7.97 2.76 6.79
8/9/2021 3:00:00 AM 21.74 71.132 0.332 7.96 3.39 6.77
8/9/2021 3:15:00 AM 21.71 71.078 0.332 7.94 4.33 6.75
8/9/2021 3:30:00 AM 21.67 71.006 0.332 7.94 4.41 6.74
8/9/2021 3:45:00 AM 21.65 70.97 0.332 7.93 3.2 6.72
8/9/2021 4:00:00 AM 21.62 70.916 0.331 7.92 3.09 6.73
8/9/2021 4:15:00 AM 21.6 70.88 0.331 7.92 4.46 6.74
8/9/2021 4:30:00 AM 21.56 70.808 0.33 7.91 4.04 6.75
8/9/2021 4:45:00 AM 21.53 70.754 0.33 7.9 2.7 6.71
8/9/2021 5:00:00 AM 21.5 70.7 0.33 7.89 2.68 6.75
8/9/2021 5:15:00 AM 21.47 70.646 0.33 7.89 3.91 6.73
8/9/2021 5:30:00 AM 21.44 70.592 0.331 7.88 2.7 6.73
8/9/2021 5:45:00 AM 21.4 70.52 0.331 7.87 3.99 6.69
8/9/2021 6:00:00 AM 21.35 70.43 0.332 7.85 5.21 6.69
8/9/2021 6:15:00 AM 21.32 70.376 0.332 7.85 5.13 6.69
8/9/2021 6:30:00 AM 21.27 70.286 0.332 7.84 3.09 6.69
8/9/2021 6:45:00 AM 21.24 70.232 0.332 7.84 3582 6.71
8/9/2021 7:00:00 AM 21.21 70.17799 0.332 7.84 2.63 6.74
8/9/2021 7:15:00 AM 21.18 70.124 0.331 7.84 3118 6.8
8/9/2021 7:30:00 AM 21.14 70.052 0.332 7.83 2.67 6.82
8/9/2021 7:45:00 AM 21.13 70.034 0.331 7.84 2.42 6.92
8/9/2021 8:00:00 AM 21.11 69.998 0.331 7.84 1.91 6.94
8/9/2021 8:15:00 AM 21.1 69.98 0.331 7.83 4.53 6.96
8/9/2021 8:30:00 AM 21.11 69.998 0.332 7.83 2.31 7.05
8/9/2021 8:45:00 AM 21.11 69.998 0.332 7.84 13.86 7.18
8/9/2021 9:00:00 AM 21.13 70.034 0.333 7.84 2.4 7.24
8/9/2021 9:15:00 AM 21.18 70.124 0.333 7.86 2.85 7.55
8/9/2021 9:30:00 AM 21.26 70.268 0.333 7.87 2.02 7.73
8/9/2021 9:45:00 AM 21.4 70.52 0.333 7.89 1.32 7.86
8/9/2021 10:00:00 AM 21.52 70.736 0.332 7.93 2.01 8.19
8/9/2021 10:15:00 AM 21.6 70.88 0.332 7.96 1.68 8.46
8/9/2021 10:30:00 AM 21.71 71.078 0.332 7.99 2.2 8.66
8/9/2021 10:45:00 AM 21.8 71.24 0.332 8.02 1.59 8.88
8/9/2021 11:00:00 AM 21.86 71.348 0.332 8.05 1.14 9.08
8/9/2021 11:15:00 AM 21.96 71.528 0.332 8.08 3.61 9.21
8/9/2021 11:30:00 AM 22.06 71.708 0.332 8.11 1.58 9.42
8/9/2021 11:45:00 AM 22.17 71.906 0.333 8.14 1.25 9.56
8/9/2021 12:00:00 PM 22.27 72.086 0.333 8.18 1.29 9.79
8/9/2021 12:15:00 PM 22.36 72.248 0.333 8.2 1.24 9.89
8/9/2021 12:30:00 PM 22.48 72.464 0.333 8.23 0.99 10.03
8/9/2021 12:45:00 PM 22.59 72.662 0.333 8.29 1.49 10.36
8/9/2021 1:00:00 PM 22.7 72.86 0.332 8.31 2.59 10.45
8/9/2021 1:15:00 PM 22.82 73.076 0.332 8.34 0.86 10.6
8/9/2021 1:30:00 PM 22.95 73.31 0.331 8.38 1.32 10.76
8/9/2021 1:45:00 PM 23.07 73.526 0.33 8.41 1.17 10.86
8/9/2021 2:00:00 PM 23.17 73.706 0.33 8.43 1.62 10.86
8/9/2021 2:15:00 PM 23.29 73.922 0.33 8.46 1.27 10.98
8/9/2021 2:30:00 PM 23.38 74.084 0.329 8.48 2.12 11.01
8/9/2021 2:45:00 PM 23.48 74.264 0.329 8.5 1.2 10.99
8/9/2021 3:00:00 PM 23.57 74.426 0.329 8.53 1.97 11.09
8/9/2021 3:15:00 PM 23.7 74.66 0.329 8.54 0.93 11.03
8/9/2021 3:30:00 PM 23.82 74.876 0.329 8.56 1.21 11.2
8/9/2021 3:45:00 PM 23.91 75.038 0.328 8.58 1.1 11.1
8/9/2021 4:00:00 PM 23.97 75.146 0.328 8.58 2.54 11.12
8/9/2021 4:15:00 PM 24.05 75.29 0.327 8.6 11.93 10.97
8/9/2021 4:30:00 PM 24.1 75.38 0.326 8.6 1.2 11.06
8/9/2021 4:45:00 PM 24.15 75.47 0.325 8.62 2.02 11.01
8/9/2021 5:00:00 PM 24.23 75.614 0.325 8.62 1.11 10.97
8/9/2021 5:15:00 PM 24.29 75.722 0.324 8.63 1.33 10.97
8/9/2021 5:30:00 PM 24.37 75.866 0.323 8.64 1.6 10.91
8/9/2021 5:45:00 PM 24.41 75.938 0.323 8.65 1.26 10.82
8/9/2021 6:00:00 PM 24.44 75.992 0.323 8.65 0.89 10.74
8/9/2021 6:15:00 PM 24.43 75.974 0.323 8.65 1.48 10.59
8/9/2021 6:30:00 PM 24.41 75.938 0.323 8.64 1.2 10.46
8/9/2021 6:45:00 PM 24.36 75.848 0.322 8.64 2 10.31
8/9/2021 7:00:00 PM 24.3 75.74 0.322 8.62 3.88 10.11
8/9/2021 7:15:00 PM 24.22 75.596 0.322 8.62 1.91 9.96
8/9/2021 7:30:00 PM 24.15 75.47 0.322 8.6 10.59 9.74
8/9/2021 7:45:00 PM 24.07 75.326 0.322 8.58 2.11 9.57
8/9/2021 8:00:00 PM 24.01 75.218 0.321 8.57 1.77 9.39
8/9/2021 8:15:00 PM 23.93 75.074 0.322 8.55 2.17 9.19
8/9/2021 8:30:00 PM 23.87 74.966 0.323 8.52 2.74 8.92
8/9/2021 8:45:00 PM 23.8 74.84 0.322 8.5 1.79 8.77
8/9/2021 9:00:00 PM 23.73 74.714 0.322 8.47 1.6 8.57
8/9/2021 9:15:00 PM 23.67 74.606 0.323 8.45 2.01 8.39
8/9/2021 9:30:00 PM 23.6 74.48 0.323 8.43 1.27 8.29
8/9/2021 9:45:00 PM 23.53 74.354 0.324 8.39 2.49 8.11
8/9/2021 10:00:00 PM 23.47 74.246 0.323 8.38 2.02 8.03
8/9/2021 10:15:00 PM 23.4 74.12 0.324 8.35 1.87 7.89
8/9/2021 10:30:00 PM 23.35 74.03 0.324 8.33 3.06 7.73
8/9/2021 10:45:00 PM 23.29 73.922 0.324 8.3 1.39 7.59
8/9/2021 11:00:00 PM 23.24 73.832 0.325 8.27 1.95 7.48
8/9/2021 11:15:00 PM 23.19 73.742 0.326 8.24 3.01 7.36
8/9/2021 11:30:00 PM 23.15 73.67 0.327 8.21 2.31 7.3
8/9/2021 11:45:00 PM 23.11 73.598 0.328 8.18 3.57 7.2
8/10/2021 12:00:00 AM 23.07 73.526 0.329 8.16 2.42 7.12
8/10/2021 12:15:00 AM 23.02 73.436 0.331 8.12 1.71 6.99
8/10/2021 12:30:00 AM 22.99 73.382 0.331 8.1 2.76 6.95
8/10/2021 12:45:00 AM 22.96 73.328 0.332 8.08 2.65 6.87
8/10/2021 1:00:00 AM 22.92 73.256 0.332 8.06 2.44 6.84
8/10/2021 1:15:00 AM 22.89 73.202 0.332 8.04 1.91 6.76
8/10/2021 1:30:00 AM 22.86 73.148 0.331 8.03 1.62 6.76
8/10/2021 1:45:00 AM 22.82 73.076 0.331 8 3.99 6.66
8/10/2021 2:00:00 AM 22.79 73.022 0.331 7.99 2.44 6.62
8/10/2021 2:15:00 AM 22.77 72.986 0.332 7.98 3.76 6.62
8/10/2021 2:30:00 AM 22.74 72.932 0.333 7.96 1.68 6.58
8/10/2021 2:45:00 AM 22.72 72.896 0.334 7.95 2.86 6.57
8/10/2021 3:00:00 AM 22.68 72.824 0.335 7.93 2.1 6.5
8/10/2021 3:15:00 AM 22.66 72.788 0.335 7.92 2.5 6.52
8/10/2021 3:30:00 AM 22.64 72.752 0.336 7.91 4.3 6.5
8/10/2021 3:45:00 AM 22.62 72.716 0.336 7.91 3.34 6.5
8/10/2021 4:00:00 AM 22.59 72.662 0.336 7.91 3.1 6.53
8/10/2021 4:15:00 AM 22.57 72.626 0.335 7.89 4.72 6.47
8/10/2021 4:30:00 AM 22.55 72.59 0.335 7.89 2.94 6.5
8/10/2021 4:45:00 AM 22.53 72.554 0.334 7.88 2.01 6.47
8/10/2021 5:00:00 AM 22.5 72.5 0.334 7.87 2.98 6.47
8/10/2021 5:15:00 AM 22.49 72.482 0.335 7.87 3.4 6.49
8/10/2021 5:30:00 AM 22.47 72.446 0.335 7.86 3.39 6.44
8/10/2021 5:45:00 AM 22.44 72.392 0.336 7.86 4.07 6.46
8/10/2021 6:00:00 AM 22.42 72.356 0.336 7.83 9.6 6.42
8/10/2021 6:15:00 AM 22.39 72.302 0.337 7.83 22.12 6.43
8/10/2021 6:30:00 AM 22.37 72.266 0.337 7.83 4.66 6.48
8/10/2021 6:45:00 AM 22.34 72.212 0.337 7.83 5.12 6.5
8/10/2021 7:00:00 AM 22.32 72.176 0.336 7.81 11.85 6.43
8/10/2021 7:15:00 AM 22.29 72.122 0.336 7.81 14.43 6.46
8/10/2021 7:30:00 AM 22.27 72.086 0.336 7.82 3.7 6.56
8/10/2021 7:45:00 AM 22.26 72.068 0.335 7.81 2.4 6.58
8/10/2021 8:00:00 AM 22.25 72.05 0.335 7.82 3.8 6.61
8/10/2021 8:15:00 AM 22.23 72.014 0.335 7.81 11.21 6.65
8/10/2021 8:30:00 AM 22.24 72.032 0.336 7.82 2.37 6.77
8/10/2021 8:45:00 AM 22.26 72.068 0.336 7.82 2.51 6.9
8/10/2021 9:00:00 AM 22.28 72.104 0.337 7.84 2803 7.03
8/10/2021 9:15:00 AM 22.31 72.158 0.337 7.85 1.52 7.23
8/10/2021 9:30:00 AM 22.39 72.302 0.337 7.86 2.3 7.39
8/10/2021 9:45:00 AM 22.52 72.536 0.337 7.88 1.98 7.61
8/10/2021 10:00:00 AM 22.63 72.734 0.337 7.91 2.29 7.83
8/10/2021 10:15:00 AM 22.72 72.896 0.337 7.91 1.56 7.92
8/10/2021 10:30:00 AM 22.79 73.022 0.336 7.93 1.19 8.15
8/10/2021 10:45:00 AM 22.88 73.184 0.336 7.98 5.64 8.43
8/10/2021 11:00:00 AM 22.97 73.346 0.336 8.01 1.07 8.66
8/10/2021 11:15:00 AM 23.02 73.436 0.336 8.01 1.8 8.7
8/10/2021 11:30:00 AM 23.1 73.58 0.336 8.07 1.23 9.08
8/10/2021 11:45:00 AM 23.21 73.778 0.336 8.08 2.14 9.17
8/10/2021 12:00:00 PM 23.29 73.922 0.337 8.13 0.83 9.41
8/10/2021 12:15:00 PM 23.38 74.084 0.337 8.16 1.32 9.44
8/10/2021 12:30:00 PM 23.42 74.156 0.337 8.21 1.13 9.77
8/10/2021 12:45:00 PM 23.49 74.282 0.337 8.23 1.76 9.84
8/10/2021 1:00:00 PM 23.59 74.462 0.336 8.26 0.73 9.97
8/10/2021 1:15:00 PM 23.65 74.57 0.335 8.3 2.62 10.17
8/10/2021 1:30:00 PM 23.75 74.75 0.334 8.33 1.71 10.27
8/10/2021 1:45:00 PM 23.81 74.858 0.333 8.36 0.97 10.43
8/10/2021 2:00:00 PM 23.9 75.02 0.332 8.39 1.2 10.51
8/10/2021 2:15:00 PM 23.97 75.146 0.332 8.41 1 10.58
8/10/2021 2:30:00 PM 24.04 75.272 0.331 8.44 0.81 10.65
8/10/2021 2:45:00 PM 24.14 75.452 0.331 8.46 1.06 10.75
8/10/2021 3:00:00 PM 24.2 75.56 0.331 8.5 1.46 10.89
8/10/2021 3:15:00 PM 24.28 75.704 0.33 8.51 1.09 10.83
8/10/2021 3:30:00 PM 24.35 75.83 0.33 8.52 1.24 10.91
8/10/2021 3:45:00 PM 24.42 75.956 0.33 8.54 1.76 10.83
8/10/2021 4:00:00 PM 24.49 76.082 0.329 8.55 1.54 10.91
8/10/2021 4:15:00 PM 24.56 76.208 0.328 8.57 1.43 10.91
8/10/2021 4:30:00 PM 24.62 76.316 0.327 8.58 0.74 10.91
8/10/2021 4:45:00 PM 24.68 76.424 0.327 8.59 1.22 10.85
8/10/2021 5:00:00 PM 24.72 76.496 0.327 8.59 2.16 10.65
8/10/2021 5:15:00 PM 24.78 76.604 0.325 8.6 1.89 10.68
8/10/2021 5:30:00 PM 24.76 76.568 0.325 8.6 4.44 10.48
8/10/2021 5:45:00 PM 24.62 76.316 0.319 8.58 11.72 10.02
8/10/2021 6:00:00 PM 24.59 76.262 0.317 8.58 7.91 9.87
8/10/2021 6:15:00 PM 24.57 76.226 0.318 8.57 3.79 9.72
8/10/2021 6:30:00 PM 24.54 76.172 0.319 8.55 5.84 9.54
8/10/2021 6:45:00 PM 24.49 76.082 0.322 8.54 3.83 9.41
8/10/2021 7:00:00 PM 24.44 75.992 0.322 8.52 8.09 9.22
8/10/2021 7:15:00 PM 24.35 75.83 0.323 8.49 6.87 8.88
8/10/2021 7:30:00 PM 24.27 75.686 0.321 8.46 5.49 8.7
8/10/2021 7:45:00 PM 24.19 75.542 0.32 8.44 4.64 8.51
8/10/2021 8:00:00 PM 24.11 75.398 0.321 8.41 2.51 8.28
8/10/2021 8:15:00 PM 24.05 75.29 0.32 8.39 2.59 8.26
8/10/2021 8:30:00 PM 23.97 75.146 0.32 8.38 2.98 8.14
8/10/2021 8:45:00 PM 23.92 75.056 0.32 8.36 3.99 7.96
8/10/2021 9:00:00 PM 23.86 74.948 0.32 8.33 3.87 7.81
8/10/2021 9:15:00 PM 23.79 74.82201 0.32 8.3 2.75 7.67
8/10/2021 9:30:00 PM 23.71 74.67799 0.32 8.26 2.83 7.49
8/10/2021 9:45:00 PM 23.65 74.57 0.32 8.22 4.62 7.29
8/10/2021 10:00:00 PM 23.55 74.39 0.32 8.19 2.66 7.24
8/10/2021 10:15:00 PM 23.47 74.246 0.32 8.15 10.96 7.06
8/10/2021 10:30:00 PM 23.39 74.102 0.32 8.12 7.48 7.03
8/10/2021 10:45:00 PM 23.33 73.994 0.321 8.08 2.5 6.94
8/10/2021 11:00:00 PM 23.27 73.886 0.322 8.05 3.92 6.77
8/10/2021 11:15:00 PM 23.22 73.796 0.323 8.02 2.52 6.77
8/10/2021 11:30:00 PM 23.18 73.724 0.324 8 4.5 6.7
8/10/2021 11:45:00 PM 23.14 73.652 0.325 7.99 6.13 6.68
8/11/2021 12:00:00 AM 23.11 73.598 0.327 7.98 3.39 6.67
8/11/2021 12:15:00 AM 23.08 73.544 0.327 7.95 4.41 6.59
8/11/2021 12:30:00 AM 23.04 73.472 0.327 7.95 6.69 6.58
8/11/2021 12:45:00 AM 23 73.4 0.328 7.94 5.01 6.54
8/11/2021 1:00:00 AM 22.98 73.364 0.327 7.92 5.55 6.45
8/11/2021 1:15:00 AM 22.93 73.274 0.328 7.91 4.02 6.44
8/11/2021 1:30:00 AM 22.93 73.274 0.328 7.9 4.6 6.49
8/11/2021 1:45:00 AM 22.89 73.202 0.328 7.88 4.1 6.4
8/11/2021 2:00:00 AM 22.86 73.148 0.328 7.87 8.58 6.4
8/11/2021 2:15:00 AM 22.84 73.112 0.329 7.86 4.27 6.32
8/11/2021 2:30:00 AM 22.81 73.058 0.329 7.85 9.11 6.36
8/11/2021 2:45:00 AM 22.78 73.004 0.328 7.86 3.21 6.35
8/11/2021 3:00:00 AM 22.75 72.95 0.328 7.84 3.75 6.3
8/11/2021 3:15:00 AM 22.73 72.914 0.326 7.84 3.36 6.32
8/11/2021 3:30:00 AM 22.7 72.86 0.325 7.84 2.64 6.32
8/11/2021 3:45:00 AM 22.67 72.806 0.324 7.82 2.87 6.31
8/11/2021 4:00:00 AM 22.64 72.752 0.323 7.82 4.1 6.3
8/11/2021 4:15:00 AM 22.61 72.698 0.322 7.8 5.01 6.21
8/11/2021 4:30:00 AM 22.59 72.662 0.321 7.8 3.83 6.25
8/11/2021 4:45:00 AM 22.55 72.59 0.321 7.79 3.61 6.26
8/11/2021 5:00:00 AM 22.51 72.518 0.322 7.78 3.8 6.22
8/11/2021 5:15:00 AM 22.48 72.464 0.322 7.78 3.81 6.25
8/11/2021 5:30:00 AM 22.44 72.392 0.323 7.77 4.2 6.2
8/11/2021 5:45:00 AM 22.4 72.32 0.323 7.75 3.53 6.18
8/11/2021 6:00:00 AM 22.36 72.248 0.323 7.75 5.51 6.14
8/11/2021 6:15:00 AM 22.32 72.176 0.323 7.75 7.32 6.25
8/11/2021 6:30:00 AM 22.28 72.104 0.324 7.75 7.14 6.11
8/11/2021 6:45:00 AM 22.24 72.032 0.323 7.74 7.13 6.19
8/11/2021 7:00:00 AM 22.2 71.96 0.324 7.74 9.19 6.2
8/11/2021 7:15:00 AM 22.18 71.924 0.324 7.74 7.93 6.29
8/11/2021 7:30:00 AM 22.15 71.87 0.324 7.74 8.2 6.32
8/11/2021 7:45:00 AM 22.14 71.852 0.324 7.73 22.34 6.37
8/11/2021 8:00:00 AM 22.13 71.834 0.326 7.72 3.81 6.41
8/11/2021 8:15:00 AM 22.13 71.834 0.327 7.73 2.48 6.46
8/11/2021 8:30:00 AM 22.13 71.834 0.328 7.74 2.93 6.45
8/11/2021 8:45:00 AM 22.14 71.852 0.328 7.73 4.92 6.59
8/11/2021 9:00:00 AM 22.16 71.888 0.329 7.73 3.05 6.56
8/11/2021 9:15:00 AM 22.21 71.978 0.329 7.75 2.52 6.79
8/11/2021 9:30:00 AM 22.31 72.158 0.329 7.76 3.27 7.07
8/11/2021 9:45:00 AM 22.45 72.41 0.329 7.79 2.03 7.27
8/11/2021 10:00:00 AM 22.57 72.626 0.329 7.83 2.91 7.6
8/11/2021 10:15:00 AM 22.66 72.788 0.329 7.86 2.36 7.8
8/11/2021 10:30:00 AM 22.77 72.986 0.33 7.87 2.11 7.9
8/11/2021 10:45:00 AM 22.85 73.13 0.331 7.91 1.65 8.15
8/11/2021 11:00:00 AM 22.93 73.274 0.332 7.9 3.18 8.17
8/11/2021 11:15:00 AM 23.01 73.418 0.334 7.95 2.31 8.51
8/11/2021 11:30:00 AM 23.12 73.616 0.335 7.98 1.64 8.64
8/11/2021 11:45:00 AM 23.18 73.724 0.337 7.96 1.78 8.69
8/11/2021 12:00:00 PM 23.32 73.976 0.339 8.02 2.68 8.97
8/11/2021 12:15:00 PM 23.41 74.138 0.34 8.04 1.67 9.02
8/11/2021 12:30:00 PM 23.55 74.39 0.34 8.09 1.83 9.32
8/11/2021 12:45:00 PM 23.67 74.606 0.341 8.13 2.44 9.54
8/11/2021 1:00:00 PM 23.75 74.75 0.34 8.15 10.41 9.66
8/11/2021 1:15:00 PM 23.87 74.966 0.34 8.17 1.19 9.79
8/11/2021 1:30:00 PM 23.99 75.182 0.34 8.2 1.18 9.81
8/11/2021 1:45:00 PM 24.08 75.344 0.34 8.24 4.3 9.92
8/11/2021 2:00:00 PM 24.21 75.578 0.339 8.27 1.41 10.04
8/11/2021 2:15:00 PM 24.27 75.686 0.339 8.3 2.28 10.15
8/11/2021 2:30:00 PM 24.32 75.776 0.339 8.3 3.19 10
8/11/2021 2:45:00 PM 24.33 75.794 0.338 8.32 3.06 9.86
8/11/2021 3:00:00 PM 24.36 75.848 0.337 8.32 12.53 9.81
8/11/2021 3:15:00 PM 24.44 75.992 0.336 8.33 4.86 9.9
8/11/2021 3:30:00 PM 24.54 76.172 0.335 8.36 2.53 10.04
8/11/2021 3:45:00 PM 24.61 76.298 0.334 8.38 2.59 10.08
8/11/2021 4:00:00 PM 24.64 76.352 0.333 8.38 1.74 10.02
8/11/2021 4:15:00 PM 24.66 76.388 0.332 8.39 1.63 9.94
8/11/2021 4:30:00 PM 24.67 76.406 0.332 8.38 4.03 9.82
8/11/2021 4:45:00 PM 24.64 76.352 0.327 8.38 2.66 9.59
8/11/2021 5:00:00 PM 24.64 76.352 0.327 8.38 2.1 9.52
8/11/2021 5:15:00 PM 24.54 76.172 0.323 8.35 5.61 9.15
8/11/2021 5:30:00 PM 24.47 76.046 0.32 8.33 6.47 8.93
8/11/2021 5:45:00 PM 24.39 75.902 0.319 8.31 6.99 8.75
8/11/2021 6:00:00 PM 24.32 75.776 0.318 8.29 12.25 8.57
8/11/2021 6:15:00 PM 24.16 75.488 0.31 8.25 55.53 8.36
8/11/2021 6:30:00 PM 24 75.2 0.301 8.18 61.09 8.12
8/11/2021 6:45:00 PM 23.93 75.074 0.297 8.13 80.71 8.01
8/11/2021 7:00:00 PM 23.91 75.038 0.302 8.14 46.59 8.07
8/11/2021 7:15:00 PM 23.89 75.002 0.308 8.15 29.14 7.96
8/11/2021 7:30:00 PM 23.86 74.948 0.311 8.15 23.49 7.89
8/11/2021 7:45:00 PM 23.79 74.82201 0.309 8.11 29.59 7.66
8/11/2021 8:00:00 PM 23.68 74.624 0.302 8.05 43.04 7.46
8/11/2021 8:15:00 PM 23.6 74.48 0.295 8 59.17 7.33
8/11/2021 8:30:00 PM 23.54 74.372 0.29 7.96 51.45 7.22
8/11/2021 8:45:00 PM 23.49 74.282 0.288 7.94 55.36 7.15
8/11/2021 9:00:00 PM 23.44 74.192 0.29 7.93 49.4 7.06
8/11/2021 9:15:00 PM 23.39 74.102 0.293 7.92 41.64 7.05
8/11/2021 9:30:00 PM 23.33 73.994 0.295 7.91 34.47 6.93
8/11/2021 9:45:00 PM 23.28 73.904 0.298 7.91 32.93 6.97
8/11/2021 10:00:00 PM 23.23 73.814 0.302 7.92 34.65 6.96
8/11/2021 10:15:00 PM 23.19 73.742 0.304 7.91 25.68 6.86
8/11/2021 10:30:00 PM 23.15 73.67 0.307 7.92 31.8 6.92
8/11/2021 10:45:00 PM 23.12 73.616 0.309 7.93 14.47 6.9
8/11/2021 11:00:00 PM 23.08 73.544 0.31 7.93 19.74 6.92
8/11/2021 11:15:00 PM 23.05 73.49 0.311 7.93 18.11 6.89
8/11/2021 11:30:00 PM 23.03 73.454 0.312 7.94 17.94 6.9
8/11/2021 11:45:00 PM 23 73.4 0.312 7.93 10.85 6.86
8/12/2021 12:00:00 AM 22.96 73.328 0.313 7.92 9.11 6.82
8/12/2021 12:15:00 AM 22.93 73.274 0.314 7.91 15.43 6.79
8/12/2021 12:30:00 AM 22.89 73.202 0.314 7.91 8.15 6.76
8/12/2021 12:45:00 AM 22.85 73.13 0.314 7.9 15.78 6.79
8/12/2021 1:00:00 AM 22.81 73.058 0.313 7.89 13.4 6.74
8/12/2021 1:15:00 AM 22.76 72.968 0.312 7.89 7.19 6.68
8/12/2021 1:30:00 AM 22.72 72.896 0.311 7.87 6.33 6.61
8/12/2021 1:45:00 AM 22.69 72.842 0.309 7.86 5.6 6.63
8/12/2021 2:00:00 AM 22.66 72.788 0.307 7.86 7.84 6.64
8/12/2021 2:15:00 AM 22.63 72.734 0.306 7.85 12.72 6.62
8/12/2021 2:30:00 AM 22.59 72.662 0.306 7.84 6.78 6.59
8/12/2021 2:45:00 AM 22.56 72.608 0.306 7.83 7.29 6.58
8/12/2021 3:00:00 AM 22.52 72.536 0.306 7.81 8.7 6.49
8/12/2021 3:15:00 AM 22.49 72.482 0.306 7.81 9.93 6.54
8/12/2021 3:30:00 AM 22.46 72.42799 0.305 7.8 7.48 6.48
8/12/2021 3:45:00 AM 22.42 72.356 0.304 7.79 8.31 6.42
8/12/2021 4:00:00 AM 22.38 72.284 0.303 7.78 8.81 6.36
8/12/2021 4:15:00 AM 22.35 72.23 0.3 7.77 8.82 6.37
8/12/2021 4:30:00 AM 22.31 72.158 0.299 7.76 7.14 6.36
8/12/2021 4:45:00 AM 22.28 72.104 0.296 7.75 28.57 6.34
8/12/2021 5:00:00 AM 22.25 72.05 0.294 7.74 9.5 6.31
8/12/2021 5:15:00 AM 22.21 71.978 0.293 7.73 7.84 6.27
8/12/2021 5:30:00 AM 22.18 71.924 0.291 7.72 10.74 6.3
8/12/2021 5:45:00 AM 22.14 71.852 0.29 7.7 8.79 6.28
8/12/2021 6:00:00 AM 22.1 71.78 0.29 7.69 12.55 6.21
8/12/2021 6:15:00 AM 22.06 71.708 0.291 7.69 33.54 6.24
8/12/2021 6:30:00 AM 22.04 71.672 0.293 7.68 14.91 6.27
8/12/2021 6:45:00 AM 22.01 71.618 0.295 7.68 7.46 6.26
8/12/2021 7:00:00 AM 21.99 71.582 0.297 7.67 6.37 6.21
8/12/2021 7:15:00 AM 21.97 71.546 0.3 7.67 8.66 6.25
8/12/2021 7:30:00 AM 21.94 71.492 0.302 7.67 10.93 6.28
8/12/2021 7:45:00 AM 21.92 71.456 0.304 7.66 7.24 6.29
8/12/2021 8:00:00 AM 21.91 71.438 0.305 7.67 8.56 6.34
8/12/2021 8:15:00 AM 21.9 71.42 0.306 7.66 7.01 6.32
8/12/2021 8:30:00 AM 21.9 71.42 0.306 7.66 8.22 6.35
8/12/2021 8:45:00 AM 21.92 71.456 0.305 7.65 6.97 6.38
8/12/2021 9:00:00 AM 21.92 71.456 0.305 7.66 6.01 6.5
8/12/2021 9:15:00 AM 21.98 71.564 0.304 7.65 6.12 6.54
8/12/2021 9:30:00 AM 22.1 71.78 0.303 7.67 6.4 6.77
8/12/2021 9:45:00 AM 22.22 71.996 0.303 7.68 7.18 6.8
8/12/2021 10:00:00 AM 22.32 72.176 0.303 7.69 5.76 6.99
8/12/2021 10:15:00 AM 22.43 72.374 0.304 7.71 4.73 7.15
8/12/2021 10:30:00 AM 22.51 72.518 0.304 7.72 6.81 7.33
8/12/2021 10:45:00 AM 22.59 72.662 0.305 7.75 6.33 7.44
8/12/2021 11:00:00 AM 22.65 72.77 0.305 7.78 5.62 7.67
8/12/2021 11:15:00 AM 22.77 72.986 0.305 7.78 7.06 7.72
8/12/2021 11:30:00 AM 22.85 73.13 0.305 7.82 4.55 7.94
8/12/2021 11:45:00 AM 22.96 73.328 0.305 7.85 5.29 8.2
8/12/2021 12:00:00 PM 23.09 73.562 0.304 7.86 4.08 8.24
8/12/2021 12:15:00 PM 23.19 73.742 0.303 7.91 4.25 8.5
8/12/2021 12:30:00 PM 23.29 73.922 0.303 7.92 5.67 8.58
8/12/2021 12:45:00 PM 23.41 74.138 0.303 7.95 3.57 8.76
8/12/2021 1:00:00 PM 23.52 74.336 0.303 7.96 7.81 8.8
8/12/2021 1:15:00 PM 23.64 74.552 0.303 7.97 6.32 8.84
8/12/2021 1:30:00 PM 23.74 74.732 0.303 8.03 3.35 9.06
8/12/2021 1:45:00 PM 23.85 74.93 0.303 8.06 3.3 9.15
8/12/2021 2:00:00 PM 23.97 75.146 0.303 8.06 2.65 9.17
8/12/2021 2:15:00 PM 24.09 75.362 0.304 8.1 4.54 9.33
8/12/2021 2:30:00 PM 24.24 75.632 0.303 8.15 9.97 9.43
8/12/2021 2:45:00 PM 24.34 75.812 0.303 8.17 4.74 9.5
8/12/2021 3:00:00 PM 24.47 76.046 0.303 8.19 3.38 9.57
8/12/2021 3:15:00 PM 24.61 76.298 0.303 8.23 5.01 9.65
8/12/2021 3:30:00 PM 24.72 76.496 0.303 8.25 2.25 9.71
8/12/2021 3:45:00 PM 24.84 76.712 0.303 8.27 3.63 9.74
8/12/2021 4:00:00 PM 24.95 76.91 0.303 8.27 2.62 9.68
8/12/2021 4:15:00 PM 25.03 77.054 0.303 8.29 5.64 9.66
8/12/2021 4:30:00 PM 25.09 77.162 0.304 8.3 4.12 9.64
8/12/2021 4:45:00 PM 25.17 77.306 0.305 8.31 2.96 9.57
8/12/2021 5:00:00 PM 25.22 77.396 0.305 8.31 2.21 9.54
8/12/2021 5:15:00 PM 25.27 77.486 0.306 8.32 2.53 9.5
8/12/2021 5:30:00 PM 25.29 77.522 0.307 8.31 4.97 9.43
8/12/2021 5:45:00 PM 25.33 77.594 0.307 8.32 641.3 9.36
8/12/2021 6:00:00 PM 25.34 77.612 0.307 8.32 1.37 9.29
8/12/2021 6:15:00 PM 25.34 77.612 0.307 8.32 2.76 9.15
8/12/2021 6:30:00 PM 25.32 77.576 0.307 8.32 4.82 9.12
8/12/2021 6:45:00 PM 25.32 77.576 0.307 8.31 1.74 8.95
8/12/2021 7:00:00 PM 25.29 77.522 0.307 8.31 2.83 8.84
8/12/2021 7:15:00 PM 25.26 77.468 0.307 8.29 2.56 8.63
8/12/2021 7:30:00 PM 25.21 77.378 0.307 8.29 1.88 8.62
8/12/2021 7:45:00 PM 25.16 77.288 0.307 8.27 2.22 8.39
8/12/2021 8:00:00 PM 25.1 77.18 0.308 8.23 4.77 8.19
8/12/2021 8:15:00 PM 25.05 77.09 0.307 8.22 3.8 8.13
8/12/2021 8:30:00 PM 24.99 76.982 0.308 8.2 2.37 7.98
8/12/2021 8:45:00 PM 24.94 76.892 0.308 8.19 2.99 7.85
8/12/2021 9:00:00 PM 24.9 76.82 0.307 8.17 3.48 7.75
8/12/2021 9:15:00 PM 24.86 76.748 0.307 8.15 2.82 7.63
8/12/2021 9:30:00 PM 24.81 76.658 0.307 8.12 4.32 7.48
8/12/2021 9:45:00 PM 24.77 76.586 0.306 8.1 3.61 7.36
8/12/2021 10:00:00 PM 24.73 76.514 0.306 8.07 3.23 7.28
8/12/2021 10:15:00 PM 24.69 76.442 0.306 8.05 2.84 7.16
8/12/2021 10:30:00 PM 24.63 76.334 0.307 8.03 4.36 7.08
8/12/2021 10:45:00 PM 24.53 76.154 0.303 7.99 8.41 7
8/12/2021 11:00:00 PM 24.49 76.082 0.307 7.98 5.27 6.97
8/12/2021 11:15:00 PM 24.43 75.974 0.308 7.96 4.63 6.82
8/12/2021 11:30:00 PM 24.37 75.866 0.309 7.93 5.38 6.69
8/12/2021 11:45:00 PM 24.32 75.776 0.31 7.92 4.07 6.66
8/13/2021 12:00:00 AM 24.25 75.65 0.31 7.9 3.68 6.6
8/13/2021 12:15:00 AM 24.19 75.542 0.309 7.89 6.61 6.61
8/13/2021 12:30:00 AM 24.12 75.416 0.309 7.86 3.42 6.39
8/13/2021 12:45:00 AM 24.09 75.362 0.306 7.85 4.6 6.45
8/13/2021 1:00:00 AM 24.03 75.254 0.272 7.85 3.76 6.41
8/13/2021 1:15:00 AM 23.99 75.182 0.303 7.82 4.31 6.31
8/13/2021 1:30:00 AM 23.93 75.074 0.291 7.81 3.66 6.24
8/13/2021 1:45:00 AM 23.91 75.038 0.305 7.8 2.98 6.25
8/13/2021 2:00:00 AM 23.88 74.984 0.305 7.8 4.06 6.28
8/13/2021 2:15:00 AM 23.85 74.93 0.305 7.8 3.79 6.24
8/13/2021 2:30:00 AM 23.81 74.858 0.307 7.79 4.96 6.18
8/13/2021 2:45:00 AM 23.78 74.804 0.307 7.79 3.88 6.21
8/13/2021 3:00:00 AM 23.75 74.75 0.308 7.78 5.04 6.22
8/13/2021 3:15:00 AM 23.71 74.67799 0.308 7.78 2.86 6.21
8/13/2021 3:30:00 AM 23.68 74.624 0.307 7.77 4.18 6.17
8/13/2021 3:45:00 AM 23.61 74.498 0.304 7.77 4.43 6.16
8/13/2021 4:00:00 AM 23.61 74.498 0.306 7.77 3.81 6.24
8/13/2021 4:15:00 AM 23.56 74.408 0.305 7.77 4.08 6.18
8/13/2021 4:30:00 AM 23.54 74.372 0.306 7.76 4.12 6.18
8/13/2021 4:45:00 AM 23.49 74.282 0.306 7.75 4 6.13
8/13/2021 5:00:00 AM 23.45 74.21 0.307 7.76 5.76 6.23
8/13/2021 5:15:00 AM 23.4 74.12 0.309 7.75 5.68 6.16
8/13/2021 5:30:00 AM 23.34 74.012 0.309 7.75 5.1 6.16
8/13/2021 5:45:00 AM 23.31 73.958 0.31 7.74 6.64 6.2
8/13/2021 6:00:00 AM 23.24 73.832 0.31 7.74 12.46 6.05
8/13/2021 6:15:00 AM 23.19 73.742 0.31 7.74 6.19 6.13
8/13/2021 6:30:00 AM 23.14 73.652 0.309 7.73 4.36 6.19
8/13/2021 6:45:00 AM 23.08 73.544 0.309 7.7 10.51 6.06
8/13/2021 7:00:00 AM 23.04 73.472 0.307 7.74 5.24 6.23
8/13/2021 7:15:00 AM 22.99 73.382 0.307 7.72 4.68 6.11
8/13/2021 7:30:00 AM 22.95 73.31 0.307 7.71 5.78 6.2
8/13/2021 7:45:00 AM 22.91 73.238 0.307 7.71 1.68 6.2
8/13/2021 8:00:00 AM 22.89 73.202 0.307 7.69 5.61 6.22
8/13/2021 8:15:00 AM 22.86 73.148 0.308 7.7 6.38 6.29
8/13/2021 8:30:00 AM 22.85 73.13 0.309 7.7 3.32 6.37
8/13/2021 8:45:00 AM 22.84 73.112 0.309 7.7 3.99 6.39
8/13/2021 9:00:00 AM 22.85 73.13 0.309 7.7 4.7 6.54
8/13/2021 9:15:00 AM 22.9 73.22 0.309 7.7 3.09 6.65
8/13/2021 9:30:00 AM 23.01 73.418 0.308 7.72 5.29 6.8
8/13/2021 9:45:00 AM 23.15 73.67 0.308 7.73 16.44 7.07
8/13/2021 10:00:00 AM 23.24 73.832 0.307 7.76 17.67 7.28
8/13/2021 10:15:00 AM 23.36 74.048 0.307 7.79 1.78 7.43
8/13/2021 10:30:00 AM 23.42 74.156 0.307 7.78 1.94 7.43
8/13/2021 10:45:00 AM 23.49 74.282 0.308 7.8 4.85 7.66
8/13/2021 11:00:00 AM 23.58 74.444 0.309 7.86 3.35 8.01
8/13/2021 11:15:00 AM 23.64 74.552 0.31 7.87 3.01 8
8/13/2021 11:30:00 AM 23.7 74.66 0.311 7.9 2.09 8.22
8/13/2021 11:45:00 AM 23.79 74.82201 0.311 7.9 1.4 8.26
8/13/2021 12:00:00 PM 23.89 75.002 0.311 7.92 2.19 8.29
8/13/2021 12:15:00 PM 24 75.2 0.312 7.97 6.72 8.63
8/13/2021 12:30:00 PM 24.09 75.362 0.311 8.01 5.44 8.84
8/13/2021 12:45:00 PM 24.19 75.542 0.311 8.03 1.8 8.94
8/13/2021 1:00:00 PM 24.3 75.74 0.31 8.05 1.8 9.02
8/13/2021 1:15:00 PM 24.39 75.902 0.31 8.07 2.52 9.04
8/13/2021 1:30:00 PM 24.5 76.1 0.309 8.1 1.49 9.21
8/13/2021 1:45:00 PM 24.63 76.334 0.309 8.13 25.89 9.25
8/13/2021 2:00:00 PM 24.75 76.55 0.309 8.15 1.52 9.35
8/13/2021 2:15:00 PM 24.86 76.748 0.309 8.17 9.3 9.42
8/13/2021 2:30:00 PM 24.98 76.964 0.309 8.2 4.3 9.52
8/13/2021 2:45:00 PM 25.11 77.198 0.309 8.23 2.16 9.59
8/13/2021 3:00:00 PM 25.23 77.414 0.309 8.24 1.54 9.66
8/13/2021 3:15:00 PM 25.32 77.576 0.309 8.26 6.02 9.71
8/13/2021 3:30:00 PM 25.39 77.702 0.308 8.28 2.54 9.68
8/13/2021 3:45:00 PM 25.39 77.702 0.308 8.28 2.42 9.5
8/13/2021 4:00:00 PM 25.34 77.612 0.306 8.28 1.56 9.33
8/13/2021 4:15:00 PM 25.29 77.522 0.304 8.25 9.62 9.05
8/13/2021 4:30:00 PM 25.24 77.432 0.304 8.24 5.5 8.93
8/13/2021 4:45:00 PM 25.18 77.324 0.304 8.24 1.52 8.84
8/13/2021 5:00:00 PM 25.1 77.18 0.306 8.21 1.45 8.65
8/13/2021 5:15:00 PM 25.02 77.036 0.305 8.2 3.69 8.53
8/13/2021 5:30:00 PM 24.94 76.892 0.305 8.18 16.56 8.34
8/13/2021 5:45:00 PM 24.87 76.766 0.305 8.15 3.63 8.06
8/13/2021 6:00:00 PM 24.83 76.694 0.306 8.13 2.73 8.02
8/13/2021 6:15:00 PM 24.78 76.604 0.304 8.16 2.29 8.09
8/13/2021 6:30:00 PM 24.73 76.514 0.304 8.15 4.81 8.01
8/13/2021 6:45:00 PM 24.67 76.406 0.304 8.15 1.78 8.06
8/13/2021 7:00:00 PM 24.62 76.316 0.303 8.14 2.64 7.9
8/13/2021 7:15:00 PM 24.56 76.208 0.303 8.13 3.42 7.86
8/13/2021 7:30:00 PM 24.5 76.1 0.303 8.11 8.78 7.74
8/13/2021 7:45:00 PM 24.43 75.974 0.304 8.1 6.31 7.71
8/13/2021 8:00:00 PM 24.34 75.812 0.304 8.08 5.73 7.63
8/13/2021 8:15:00 PM 24.25 75.65 0.305 8.06 2.96 7.47
8/13/2021 8:30:00 PM 24.18 75.524 0.306 8.04 2.51 7.45
8/13/2021 8:45:00 PM 24.09 75.362 0.307 8.01 4.88 7.3
8/13/2021 9:00:00 PM 24.02 75.236 0.307 8 1.74 7.3
8/13/2021 9:15:00 PM 23.94 75.092 0.308 7.98 2 7.21
8/13/2021 9:30:00 PM 23.88 74.984 0.308 7.96 6.16 7.08
8/13/2021 9:45:00 PM 23.82 74.876 0.309 7.95 4.53 7.11
8/13/2021 10:00:00 PM 23.77 74.786 0.309 7.94 4.28 7.05
8/13/2021 10:15:00 PM 23.71 74.67799 0.31 7.92 2.63 6.93
8/13/2021 10:30:00 PM 23.68 74.624 0.311 7.92 2.99 6.96
8/13/2021 10:45:00 PM 23.65 74.57 0.312 7.91 3.22 6.94
8/13/2021 11:00:00 PM 23.61 74.498 0.314 7.9 3.89 6.9
8/13/2021 11:15:00 PM 23.58 74.444 0.311 7.9 3.49 6.87
8/13/2021 11:30:00 PM 23.56 74.408 0.318 7.89 1.74 6.84
8/13/2021 11:45:00 PM 23.53 74.354 0.32 7.88 3.85 6.75
8/14/2021 12:00:00 AM 23.5 74.3 0.321 7.87 4.08 6.73
8/14/2021 12:15:00 AM 23.47 74.246 0.321 7.86 5.87 6.67
8/14/2021 12:30:00 AM 23.44 74.192 0.322 7.84 3.97 6.62
8/14/2021 12:45:00 AM 23.41 74.138 0.322 7.84 5.57 6.59
8/14/2021 1:00:00 AM 23.38 74.084 0.322 7.83 3.54 6.57
8/14/2021 1:15:00 AM 23.35 74.03 0.322 7.82 4.38 6.55
8/14/2021 1:30:00 AM 23.31 73.958 0.322 7.8 4.24 6.47
8/14/2021 1:45:00 AM 23.29 73.922 0.321 7.8 4.01 6.49
8/14/2021 2:00:00 AM 23.26 73.868 0.324 7.8 3.82 6.47
8/14/2021 2:15:00 AM 23.21 73.778 0.324 7.78 5.09 6.42
8/14/2021 2:30:00 AM 23.18 73.724 0.326 7.78 2.47 6.47
8/14/2021 2:45:00 AM 23.14 73.652 0.327 7.78 4.86 6.43
8/14/2021 3:00:00 AM 23.1 73.58 0.318 7.78 6.61 6.43
8/14/2021 3:15:00 AM 23.06 73.508 0.328 7.77 6.46 6.39
8/14/2021 3:30:00 AM 23.02 73.436 0.328 7.77 4.5 6.43
8/14/2021 3:45:00 AM 22.98 73.364 0.329 7.77 3.31 6.42
8/14/2021 4:00:00 AM 22.94 73.292 0.328 7.76 2.61 6.43
8/14/2021 4:15:00 AM 22.89 73.202 0.327 7.74 3.75 6.28
8/14/2021 4:30:00 AM 22.87 73.166 0.327 7.76 4.52 6.43
8/14/2021 4:45:00 AM 22.82 73.076 0.326 7.74 2.17 6.32
8/14/2021 5:00:00 AM 22.79 73.022 0.326 7.75 5.93 6.44
8/14/2021 5:15:00 AM 22.77 72.986 0.324 7.75 3.28 6.44
8/14/2021 5:30:00 AM 22.74 72.932 0.324 7.74 2.6 6.43
8/14/2021 5:45:00 AM 22.7 72.86 0.316 7.75 3.75 6.44
8/14/2021 6:00:00 AM 22.66 72.788 0.315 7.74 3.94 6.41
8/14/2021 6:15:00 AM 22.64 72.752 0.322 7.74 5.31 6.47
8/14/2021 6:30:00 AM 22.61 72.698 0.321 7.74 3.84 6.47
8/14/2021 6:45:00 AM 22.56 72.608 0.322 7.73 4.54 6.45
8/14/2021 7:00:00 AM 22.53 72.554 0.322 7.74 2.3 6.49
8/14/2021 7:15:00 AM 22.49 72.482 0.323 7.73 12.32 6.49
8/14/2021 7:30:00 AM 22.45 72.41 0.323 7.73 2.94 6.5
8/14/2021 7:45:00 AM 22.43 72.374 0.323 7.73 8.15 6.47
8/14/2021 8:00:00 AM 22.43 72.374 0.323 7.73 4.19 6.63
8/14/2021 8:15:00 AM 22.41 72.338 0.323 7.73 3.11 6.6
8/14/2021 8:30:00 AM 22.41 72.338 0.324 7.73 2.79 6.55
8/14/2021 8:45:00 AM 22.41 72.338 0.324 7.74 1.49 6.84
8/14/2021 9:00:00 AM 22.42 72.356 0.324 7.73 2.64 6.79
8/14/2021 9:15:00 AM 22.42 72.356 0.324 7.75 4.15 7.05
8/14/2021 9:30:00 AM 22.45 72.41 0.323 7.76 2.23 7.15
8/14/2021 9:45:00 AM 22.51 72.518 0.324 7.77 3.36 7.33
8/14/2021 10:00:00 AM 22.55 72.59 0.287 7.79 4.64 7.48
8/14/2021 10:15:00 AM 22.7 72.86 0.325 7.81 2.52 7.73
8/14/2021 10:30:00 AM 22.67 72.806 0.325 7.83 2.43 7.8
8/14/2021 10:45:00 AM 22.61 72.698 0.295 7.85 17.28 7.85
8/14/2021 11:00:00 AM 22.6 72.68 0.326 7.86 6.36 7.83
8/14/2021 11:15:00 AM 22.58 72.644 0.326 7.87 7.08 7.91
8/14/2021 11:30:00 AM 22.61 72.698 0.326 7.88 2.25 8
8/14/2021 11:45:00 AM 22.66 72.788 0.326 7.89 3.36 8.07
8/14/2021 12:00:00 PM 22.68 72.824 0.326 7.93 2.07 8.39
8/14/2021 12:15:00 PM 22.68 72.824 0.326 7.93 3.68 8.36
8/14/2021 12:30:00 PM 22.68 72.824 0.326 7.95 0.58 8.42
8/14/2021 12:45:00 PM 22.69 72.842 0.326 7.96 2.73 8.52
8/14/2021 1:00:00 PM 22.7 72.86 0.327 7.98 1.93 8.6
8/14/2021 1:15:00 PM 22.7 72.86 0.327 7.99 1.36 8.59
8/14/2021 1:30:00 PM 22.74 72.932 0.326 8 2.16 8.6
8/14/2021 1:45:00 PM 22.81 73.058 0.326 8.04 1.41 8.87
8/14/2021 2:00:00 PM 22.83 73.094 0.326 8.05 3.9 8.9
8/14/2021 2:15:00 PM 22.84 73.112 0.326 8.07 2.21 9.05
8/14/2021 2:30:00 PM 22.88 73.184 0.326 8.1 2.27 9.15
8/14/2021 2:45:00 PM 22.91 73.238 0.326 8.1 4.44 9.08
8/14/2021 3:00:00 PM 22.96 73.328 0.326 8.14 2.67 9.27
8/14/2021 3:15:00 PM 22.98 73.364 0.327 8.15 2 9.25
8/14/2021 3:30:00 PM 23.01 73.418 0.326 8.15 4.95 9.22
8/14/2021 3:45:00 PM 23.03 73.454 0.325 8.1 4.25 9.05
8/14/2021 4:00:00 PM 23.09 73.562 0.326 8.13 1.63 9.36
8/14/2021 4:15:00 PM 23.11 73.598 0.325 8.18 1.4 9.36
8/14/2021 4:30:00 PM 23.17 73.706 0.325 8.16 2.02 9.42
8/14/2021 4:45:00 PM 23.21 73.778 0.326 8.2 22.71 9.45
8/14/2021 5:00:00 PM 23.25 73.85 0.327 8.21 1.43 9.47
8/14/2021 5:15:00 PM 23.29 73.922 0.323 8.2 1.93 9.38
8/14/2021 5:30:00 PM 23.31 73.958 0.332 8.19 3.1 9.31
8/14/2021 5:45:00 PM 23.33 73.994 0.335 8.22 2.04 9.26
8/14/2021 6:00:00 PM 23.36 74.048 0.337 8.2 1.67 9.17
8/14/2021 6:15:00 PM 23.39 74.102 0.337 8.22 1.68 9.21
8/14/2021 6:30:00 PM 23.41 74.138 0.348 8.2 2.17 9.06
8/14/2021 6:45:00 PM 23.39 74.102 0.35 8.2 2.25 8.89
8/14/2021 7:00:00 PM 23.37 74.066 0.352 8.19 17.55 8.79
8/14/2021 7:15:00 PM 23.32 73.976 0.352 8.18 4.29 8.8
8/14/2021 7:30:00 PM 23.27 73.886 0.352 8.2 39.97 8.56
8/14/2021 7:45:00 PM 23.22 73.796 0.351 8.18 138.9 7.82
8/14/2021 8:00:00 PM 23.17 73.706 0.348 8.18 1.99 8.25
8/14/2021 8:15:00 PM 23.12 73.616 0.346 8.17 2.19 8.34
8/14/2021 8:30:00 PM 23.07 73.526 0.344 8.15 3.3 8.2
8/14/2021 8:45:00 PM 23.04 73.472 0.327 8.15 3.53 8.12
8/14/2021 9:00:00 PM 23.01 73.418 0.338 8.13 4.57 8.02
8/14/2021 9:15:00 PM 22.97 73.346 0.338 8.11 2.6 7.85
8/14/2021 9:30:00 PM 22.95 73.31 0.334 8.11 4.13 7.82
8/14/2021 9:45:00 PM 22.91 73.238 0.332 8.1 2.43 7.72
8/14/2021 10:00:00 PM 22.87 73.166 0.331 8.08 2.7 7.65
8/14/2021 10:15:00 PM 22.84 73.112 0.329 8.07 2.97 7.61
8/14/2021 10:30:00 PM 22.79 73.022 0.328 8.05 3 7.55
8/14/2021 10:45:00 PM 22.75 72.95 0.328 8.03 2.92 7.45
8/14/2021 11:00:00 PM 22.7 72.86 0.328 8.01 13.65 7.39
8/14/2021 11:15:00 PM 22.65 72.77 0.328 7.99 16.4 7.26
8/14/2021 11:30:00 PM 22.6 72.68 0.328 7.97 4.59 7.2
8/14/2021 11:45:00 PM 22.54 72.57201 0.328 7.95 5.15 7.16
8/15/2021 12:00:00 AM 22.48 72.464 0.328 7.94 3.33 7.13
8/15/2021 12:15:00 AM 22.4 72.32 0.328 7.93 5.19 7.06
8/15/2021 12:30:00 AM 22.36 72.248 0.328 7.91 1.83 7.01
8/15/2021 12:45:00 AM 22.32 72.176 0.327 7.91 3.72 7.02
8/15/2021 1:00:00 AM 22.27 72.086 0.327 7.89 3.47 6.93
8/15/2021 1:15:00 AM 22.23 72.014 0.326 7.87 4.41 6.87
8/15/2021 1:30:00 AM 22.18 71.924 0.327 7.86 8.74 6.85
8/15/2021 1:45:00 AM 22.14 71.852 0.327 7.86 3.8 6.87
8/15/2021 2:00:00 AM 22.1 71.78 0.327 7.86 4.07 6.87
8/15/2021 2:15:00 AM 22.06 71.708 0.328 7.86 5.52 6.88
8/15/2021 2:30:00 AM 22.03 71.654 0.328 7.85 5.17 6.88
8/15/2021 2:45:00 AM 22 71.6 0.329 7.85 2.9 6.89
8/15/2021 3:00:00 AM 21.96 71.528 0.329 7.84 2.44 6.89
8/15/2021 3:15:00 AM 21.92 71.456 0.329 7.82 3.12 6.75
8/15/2021 3:30:00 AM 21.9 71.42 0.328 7.84 2.12 6.89
8/15/2021 3:45:00 AM 21.87 71.366 0.328 7.82 3.53 6.77
8/15/2021 4:00:00 AM 21.85 71.33 0.328 7.83 2.52 6.87
8/15/2021 4:15:00 AM 21.82 71.276 0.327 7.82 3.02 6.84
8/15/2021 4:30:00 AM 21.79 71.222 0.327 7.82 2.33 6.83
8/15/2021 4:45:00 AM 21.76 71.168 0.327 7.81 3.83 6.79
8/15/2021 5:00:00 AM 21.72 71.096 0.328 7.8 3.41 6.76
8/15/2021 5:15:00 AM 21.69 71.042 0.329 7.81 3.93 6.8
8/15/2021 5:30:00 AM 21.66 70.988 0.329 7.81 2.65 6.85
8/15/2021 5:45:00 AM 21.6 70.88 0.33 7.81 4.22 6.82
8/15/2021 6:00:00 AM 21.56 70.808 0.33 7.81 4.56 6.84
8/15/2021 6:15:00 AM 21.49 70.682 0.33 7.8 3.47 6.81
8/15/2021 6:30:00 AM 21.44 70.592 0.33 7.79 9.65 6.72
8/15/2021 6:45:00 AM 21.38 70.484 0.33 7.8 7.06 6.81
8/15/2021 7:00:00 AM 21.35 70.43 0.329 7.81 9.2 6.88
8/15/2021 7:15:00 AM 21.29 70.32201 0.329 7.81 3.45 6.93
8/15/2021 7:30:00 AM 21.26 70.268 0.329 7.81 3.13 6.91
8/15/2021 7:45:00 AM 21.22 70.196 0.33 7.81 4.74 6.88
8/15/2021 8:00:00 AM 21.18 70.124 0.33 7.81 11.79 6.99
8/15/2021 8:15:00 AM 21.18 70.124 0.331 7.81 3.53 7.02
8/15/2021 8:30:00 AM 21.16 70.088 0.331 7.8 5.87 7.08
8/15/2021 8:45:00 AM 21.13 70.034 0.333 7.8 6.43 7.12
8/15/2021 9:00:00 AM 21.13 70.034 0.333 7.81 2.06 7.2
8/15/2021 9:15:00 AM 21.13 70.034 0.334 7.81 3.11 7.28
8/15/2021 9:30:00 AM 21.1 69.98 0.334 7.82 4.31 7.34
8/15/2021 9:45:00 AM 21.1 69.98 0.333 7.81 15.04 7.33
8/15/2021 10:00:00 AM 21.1 69.98 0.333 7.85 1.75 7.61
8/15/2021 10:15:00 AM 21.12 70.016 0.333 7.84 3.91 7.61
8/15/2021 10:30:00 AM 21.13 70.034 0.329 7.85 2.29 7.8
8/15/2021 10:45:00 AM 21.14 70.052 0.327 7.88 3.12 8.03
8/15/2021 11:00:00 AM 21.15 70.07 0.324 7.86 221.4 7.99
8/15/2021 11:15:00 AM 21.24 70.232 0.334 7.93 1.16 8.42
8/15/2021 11:30:00 AM 21.3 70.34 0.336 7.95 1.98 8.6
8/15/2021 11:45:00 AM 21.32 70.376 0.335 7.98 1.23 8.76
8/15/2021 12:00:00 PM 21.39 70.502 0.336 8.02 1.49 8.98
8/15/2021 12:15:00 PM 21.45 70.61 0.336 8.04 1.48 9.1
8/15/2021 12:30:00 PM 21.52 70.736 0.335 8.07 1.22 9.26
8/15/2021 12:45:00 PM 21.62 70.916 0.335 8.08 2.33 9.41
8/15/2021 1:00:00 PM 21.68 71.024 0.334 8.12 2.32 9.54
8/15/2021 1:15:00 PM 21.75 71.15 0.334 8.15 0.99 9.68
8/15/2021 1:30:00 PM 21.85 71.33 0.334 8.18 1.98 9.82
8/15/2021 1:45:00 PM 21.95 71.51 0.333 8.21 0.93 9.94
8/15/2021 2:00:00 PM 22.04 71.672 0.327 8.22 1.28 10
8/15/2021 2:15:00 PM 22.13 71.834 0.334 8.25 1.77 10.1
8/15/2021 2:30:00 PM 22.2 71.96 0.334 8.26 1.54 10.1
8/15/2021 2:45:00 PM 22.28 72.104 0.334 8.29 0.72 10.22
8/15/2021 3:00:00 PM 22.36 72.248 0.333 8.31 6.13 10.25
8/15/2021 3:15:00 PM 22.46 72.42799 0.334 8.33 0.94 10.25
8/15/2021 3:30:00 PM 22.54 72.57201 0.333 8.33 1.03 10.19
8/15/2021 3:45:00 PM 22.61 72.698 0.333 8.36 1.62 10.28
8/15/2021 4:00:00 PM 22.7 72.86 0.333 8.38 1.69 10.33
8/15/2021 4:15:00 PM 22.76 72.968 0.332 8.39 0.92 10.27
8/15/2021 4:30:00 PM 22.8 73.04 0.331 8.4 1.88 10.28
8/15/2021 4:45:00 PM 22.83 73.094 0.331 8.4 1.09 10.14
8/15/2021 5:00:00 PM 22.88 73.184 0.331 8.41 2.24 10.13
8/15/2021 5:15:00 PM 22.9 73.22 0.33 8.41 1.43 10.13
8/15/2021 5:30:00 PM 22.9 73.22 0.32 8.38 1.61 10.01
8/15/2021 5:45:00 PM 22.94 73.292 0.33 8.38 2.23 10
8/15/2021 6:00:00 PM 22.95 73.31 0.33 8.39 2.13 9.9
8/15/2021 6:15:00 PM 22.94 73.292 0.33 8.38 1.58 9.79
8/15/2021 6:30:00 PM 22.9 73.22 0.327 8.36 3.34 9.61
8/15/2021 6:45:00 PM 22.86 73.148 0.327 8.35 1.35 9.5
8/15/2021 7:00:00 PM 22.81 73.058 0.329 8.35 1.37 9.42
8/15/2021 7:15:00 PM 22.74 72.932 0.329 8.35 1.89 9.29
8/15/2021 7:30:00 PM 22.67 72.806 0.328 8.35 4.11 9.15
8/15/2021 7:45:00 PM 22.59 72.662 0.328 8.34 1.46 9.03
8/15/2021 8:00:00 PM 22.51 72.518 0.328 8.33 3.03 8.88
8/15/2021 8:15:00 PM 22.43 72.374 0.328 8.31 6.69 8.71
8/15/2021 8:30:00 PM 22.37 72.266 0.328 8.32 1.71 8.61
8/15/2021 8:45:00 PM 22.32 72.176 0.328 8.31 4.68 8.52
8/15/2021 9:00:00 PM 22.25 72.05 0.329 8.28 1.63 8.38
8/15/2021 9:15:00 PM 22.19 71.942 0.329 8.28 1.71 8.32
8/15/2021 9:30:00 PM 22.14 71.852 0.329 8.25 3.14 8.19
8/15/2021 9:45:00 PM 22.08 71.744 0.328 8.23 2.95 8.11
8/15/2021 10:00:00 PM 22.03 71.654 0.329 8.21 4.62 7.97
8/15/2021 10:15:00 PM 21.98 71.564 0.328 8.19 2.23 7.88
8/15/2021 10:30:00 PM 21.94 71.492 0.328 8.18 2.48 7.84
8/15/2021 10:45:00 PM 21.89 71.402 0.328 8.15 5.9 7.76
8/15/2021 11:00:00 PM 21.84 71.312 0.313 8.13 2.75 7.69
8/15/2021 11:15:00 PM 21.8 71.24 0.33 8.1 3.7 7.57
8/15/2021 11:30:00 PM 21.75 71.15 0.33 8.09 2.54 7.49
8/15/2021 11:45:00 PM 21.72 71.096 0.331 8.07 1.81 7.49
8/16/2021 12:00:00 AM 21.67 71.006 0.331 8.05 3.49 7.37
8/16/2021 12:15:00 AM 21.64 70.952 0.332 8.02 3.41 7.29
8/16/2021 12:30:00 AM 21.6 70.88 0.331 8 3.75 7.21
8/16/2021 12:45:00 AM 21.58 70.844 0.331 8 5.34 7.25
8/16/2021 1:00:00 AM 21.54 70.772 0.33 7.99 2.65 7.21
8/16/2021 1:15:00 AM 21.51 70.718 0.331 7.97 3.23 7.12
8/16/2021 1:30:00 AM 21.5 70.7 0.33 7.96 3.05 7.13
8/16/2021 1:45:00 AM 21.47 70.646 0.33 7.95 3.44 7.13
8/16/2021 2:00:00 AM 21.46 70.628 0.33 7.95 7.89 7.11
8/16/2021 2:15:00 AM 21.44 70.592 0.331 7.93 2.9 7.05
8/16/2021 2:30:00 AM 21.42 70.556 0.332 7.92 2.88 6.99
8/16/2021 2:45:00 AM 21.41 70.538 0.332 7.9 6.43 6.97
8/16/2021 3:00:00 AM 21.38 70.484 0.333 7.92 2.45 7.02
8/16/2021 3:15:00 AM 21.38 70.484 0.332 7.92 4.09 6.99
8/16/2021 3:30:00 AM 21.37 70.466 0.332 7.91 6.8 7
8/16/2021 3:45:00 AM 21.35 70.43 0.331 7.9 4.46 6.98
8/16/2021 4:00:00 AM 21.34 70.412 0.331 7.9 4.77 6.97
8/16/2021 4:15:00 AM 21.31 70.358 0.33 7.89 6.49 6.96
8/16/2021 4:30:00 AM 21.3 70.34 0.329 7.89 3.84 6.96
8/16/2021 4:45:00 AM 21.28 70.304 0.329 7.89 4.82 6.91
8/16/2021 5:00:00 AM 21.26 70.268 0.329 7.89 4.52 6.98
8/16/2021 5:15:00 AM 21.23 70.214 0.33 7.89 4.17 6.88
8/16/2021 5:30:00 AM 21.21 70.17799 0.33 7.88 5.88 6.94
8/16/2021 5:45:00 AM 21.17 70.106 0.331 7.82 4.49 6.73
8/16/2021 6:00:00 AM 21.15 70.07 0.331 7.87 6.22 6.94
8/16/2021 6:15:00 AM 21.13 70.034 0.331 7.86 5.24 6.88
8/16/2021 6:30:00 AM 21.1 69.98 0.331 7.86 3.66 6.91
8/16/2021 6:45:00 AM 21.07 69.926 0.33 7.85 4.07 6.89
8/16/2021 7:00:00 AM 21.03 69.854 0.33 7.86 3.28 6.91
8/16/2021 7:15:00 AM 21.01 69.818 0.329 7.86 5.1 7.01
8/16/2021 7:30:00 AM 20.98 69.764 0.329 7.84 2.13 6.89
8/16/2021 7:45:00 AM 20.97 69.746 0.329 7.85 2.92 7.07
8/16/2021 8:00:00 AM 20.94 69.692 0.326 7.84 4.73 7.01
8/16/2021 8:15:00 AM 20.92 69.656 0.329 7.85 3.46 7.05
8/16/2021 8:30:00 AM 20.88 69.584 0.33 7.85 4.39 7.13
8/16/2021 8:45:00 AM 20.86 69.548 0.321 7.85 3.37 7.16
8/16/2021 9:00:00 AM 20.85 69.53 0.33 7.82 2.16 7.21
8/16/2021 9:15:00 AM 20.83 69.494 0.33 7.82 17.26 7.24
8/16/2021 9:30:00 AM 20.83 69.494 0.33 7.85 2.29 7.35
8/16/2021 9:45:00 AM 20.84 69.512 0.33 7.86 2.97 7.45
8/16/2021 10:00:00 AM 20.86 69.548 0.329 7.87 6.51 7.57
8/16/2021 10:15:00 AM 20.93 69.674 0.328 7.89 5.18 7.78
8/16/2021 10:30:00 AM 20.98 69.764 0.328 7.91 1.87 8.01
8/16/2021 10:45:00 AM 21.08 69.944 0.328 7.93 3.19 8.18
8/16/2021 11:00:00 AM 21.1 69.98 0.328 7.95 3.75 8.31
8/16/2021 11:15:00 AM 21.14 70.052 0.328 7.96 3.29 8.44
8/16/2021 11:30:00 AM 21.16 70.088 0.329 7.98 2.15 8.6
8/16/2021 11:45:00 AM 21.15 70.07 0.33 7.99 1.18 8.67
8/16/2021 12:00:00 PM 21.16 70.088 0.33 7.99 7.28 8.69
8/16/2021 12:15:00 PM 21.2 70.16 0.33 7.99 7.21 8.81
8/16/2021 12:30:00 PM 21.27 70.286 0.329 8.02 5.22 8.85
8/16/2021 12:45:00 PM 21.32 70.376 0.329 8.02 6.56 8.97
8/16/2021 1:00:00 PM 21.37 70.466 0.329 8.04 7.87 9.03
8/16/2021 1:15:00 PM 21.38 70.484 0.328 8.09 9 9.3
8/16/2021 1:30:00 PM 21.41 70.538 0.327 8.07 6.55 9.2
8/16/2021 1:45:00 PM 21.43 70.574 0.327 8.09 5.77 9.31
8/16/2021 2:00:00 PM 21.43 70.574 0.328 8.11 2.33 9.33
8/16/2021 2:15:00 PM 21.42 70.556 0.327 8.11 1.65 9.33
8/16/2021 2:30:00 PM 21.42 70.556 0.327 8.15 3.38 9.37
8/16/2021 2:45:00 PM 21.43 70.574 0.327 8.18 1.31 9.46
8/16/2021 3:00:00 PM 21.47 70.646 0.328 8.17 2.13 9.38
8/16/2021 3:15:00 PM 21.54 70.772 0.327 8.2 2.94 9.52
8/16/2021 3:30:00 PM 21.58 70.844 0.327 8.22 1.46 9.66
8/16/2021 3:45:00 PM 21.62 70.916 0.326 8.25 3.63 9.73
8/16/2021 4:00:00 PM 21.65 70.97 0.326 8.25 3.19 9.71
8/16/2021 4:15:00 PM 21.69 71.042 0.326 8.24 1.7 9.58
8/16/2021 4:30:00 PM 21.69 71.042 0.324 8.27 2.36 9.78
8/16/2021 4:45:00 PM 21.69 71.042 0.325 8.24 2.17 9.64
8/16/2021 5:00:00 PM 21.72 71.096 0.324 8.27 4.28 9.74
8/16/2021 5:15:00 PM 21.74 71.132 0.324 8.27 1.07 9.66
8/16/2021 5:30:00 PM 21.75 71.15 0.324 8.27 4.95 9.59
8/16/2021 5:45:00 PM 21.75 71.15 0.324 8.26 1.52 9.51
8/16/2021 6:00:00 PM 21.74 71.132 0.325 8.28 0.85 9.44
8/16/2021 6:15:00 PM 21.73 71.114 0.324 8.29 1.29 9.46
8/16/2021 6:30:00 PM 21.72 71.096 0.325 8.23 1.55 9.19
8/16/2021 6:45:00 PM 21.68 71.024 0.324 8.25 1.07 9.16
8/16/2021 7:00:00 PM 21.65 70.97 0.324 8.26 2.32 9.14
8/16/2021 7:15:00 PM 21.63 70.934 0.323 8.25 2.75 8.94
8/16/2021 7:30:00 PM 21.6 70.88 0.324 8.24 3.51 8.88
8/16/2021 7:45:00 PM 21.57 70.826 0.323 8.2 1.05 8.75
8/16/2021 8:00:00 PM 21.55 70.79 0.322 8.2 3582 8.69
8/16/2021 8:15:00 PM 21.53 70.754 0.323 8.2 1.11 8.53
8/16/2021 8:30:00 PM 21.5 70.7 0.323 8.2 1.12 8.53
8/16/2021 8:45:00 PM 21.48 70.664 0.322 8.19 2.71 8.44
8/16/2021 9:00:00 PM 21.46 70.628 0.322 8.17 2.01 8.36
8/16/2021 9:15:00 PM 21.44 70.592 0.322 8.16 4.68 8.28
8/16/2021 9:30:00 PM 21.42 70.556 0.322 8.15 4.48 8.17
8/16/2021 9:45:00 PM 21.4 70.52 0.323 8.11 2.8 7.97
8/16/2021 10:00:00 PM 21.36 70.448 0.323 8.1 2.56 7.98
8/16/2021 10:15:00 PM 21.35 70.43 0.323 8.08 1.81 7.84
8/16/2021 10:30:00 PM 21.32 70.376 0.323 8.06 3.36 7.75
8/16/2021 10:45:00 PM 21.29 70.32201 0.323 8.04 1.51 7.69
8/16/2021 11:00:00 PM 21.26 70.268 0.324 8.01 2.38 7.64
8/16/2021 11:15:00 PM 21.23 70.214 0.325 8.01 1.75 7.61
8/16/2021 11:30:00 PM 21.2 70.16 0.316 7.99 1.51 7.51
8/16/2021 11:45:00 PM 21.18 70.124 0.328 7.97 2.12 7.5
8/17/2021 12:00:00 AM 21.15 70.07 0.33 7.96 3.54 7.48
8/17/2021 12:15:00 AM 21.13 70.034 0.331 7.95 3.13 7.43
8/17/2021 12:30:00 AM 21.1 69.98 0.332 7.94 3.14 7.44
8/17/2021 12:45:00 AM 21.09 69.962 0.332 7.92 2.16 7.25
8/17/2021 1:00:00 AM 21.06 69.908 0.332 7.91 1.93 7.37
8/17/2021 1:15:00 AM 21.05 69.89 0.326 7.89 5.22 7.21
8/17/2021 1:30:00 AM 21.03 69.854 0.331 7.9 3.68 7.32
8/17/2021 1:45:00 AM 21.01 69.818 0.33 7.89 3.59 7.31
8/17/2021 2:00:00 AM 20.99 69.782 0.33 7.88 4.34 7.24
8/17/2021 2:15:00 AM 20.98 69.764 0.33 7.87 3.42 7.16
8/17/2021 2:30:00 AM 20.96 69.728 0.33 7.87 2.23 7.15
8/17/2021 2:45:00 AM 20.95 69.71 0.329 7.87 3.32 7.15
8/17/2021 3:00:00 AM 20.94 69.692 0.331 7.86 4.26 7.16
8/17/2021 3:15:00 AM 20.93 69.674 0.33 7.86 3.63 7.19
8/17/2021 3:30:00 AM 20.91 69.638 0.33 7.86 2.64 7.19
8/17/2021 3:45:00 AM 20.9 69.62 0.329 7.85 3.39 7.14
8/17/2021 4:00:00 AM 20.89 69.602 0.329 7.85 4.34 7.11
8/17/2021 4:15:00 AM 20.88 69.584 0.327 7.85 3.86 7.16
8/17/2021 4:30:00 AM 20.86 69.548 0.327 7.84 3.81 7.14
8/17/2021 4:45:00 AM 20.86 69.548 0.327 7.84 3.93 7.1
8/17/2021 5:00:00 AM 20.83 69.494 0.325 7.84 3.21 7.16
8/17/2021 5:15:00 AM 20.82 69.476 0.326 7.84 3.57 7.14
8/17/2021 5:30:00 AM 20.8 69.44 0.327 7.83 4.57 7.16
8/17/2021 5:45:00 AM 20.79 69.422 0.327 7.82 3.53 7.09
8/17/2021 6:00:00 AM 20.77 69.386 0.327 7.83 3.69 7.14
8/17/2021 6:15:00 AM 20.76 69.368 0.325 7.81 5.36 7.07
8/17/2021 6:30:00 AM 20.74 69.332 0.327 7.81 3.46 7.12
8/17/2021 6:45:00 AM 20.72 69.296 0.326 7.8 5.87 7.08
8/17/2021 7:00:00 AM 20.71 69.278 0.327 7.78 7.21 6.91
8/17/2021 7:15:00 AM 20.7 69.26 0.325 7.8 5.19 7.04
8/17/2021 7:30:00 AM 20.68 69.224 0.326 7.8 4.84 7.12
8/17/2021 7:45:00 AM 20.67 69.206 0.326 7.8 83.79 7.14
8/17/2021 8:00:00 AM 20.67 69.206 0.328 7.79 10.03 7.06
8/17/2021 8:15:00 AM 20.65 69.17 0.326 7.81 7.67 7.24
8/17/2021 8:30:00 AM 20.65 69.17 0.327 7.81 3.07 7.21
8/17/2021 8:45:00 AM 20.65 69.17 0.327 7.8 6.04 7.19
8/17/2021 9:00:00 AM 20.64 69.152 0.326 7.79 5.44 7.24
8/17/2021 9:15:00 AM 20.63 69.134 0.325 7.8 5.57 7.29
8/17/2021 9:30:00 AM 20.62 69.116 0.324 7.79 14.32 7.35
8/17/2021 9:45:00 AM 20.65 69.17 0.324 7.81 12.15 7.42
8/17/2021 10:00:00 AM 20.67 69.206 0.322 7.83 2.01 7.62
8/17/2021 10:15:00 AM 20.7 69.26 0.322 7.83 4.05 7.68
8/17/2021 10:30:00 AM 20.73 69.314 0.321 7.83 8.19 7.73
8/17/2021 10:45:00 AM 20.74 69.332 0.322 7.84 6.19 7.89
8/17/2021 11:00:00 AM 20.77 69.386 0.322 7.86 5.28 7.87
8/17/2021 11:15:00 AM 20.76 69.368 0.323 7.87 2.09 8.03
8/17/2021 11:30:00 AM 20.79 69.422 0.323 7.88 252.2 8.05
8/17/2021 11:45:00 AM 20.83 69.494 0.323 7.86 1.81 8.11
8/17/2021 12:00:00 PM 20.89 69.602 0.325 7.89 2.06 8.26
8/17/2021 12:15:00 PM 20.95 69.71 0.323 7.93 1.31 8.58
8/17/2021 12:30:00 PM 21.08 69.944 0.322 7.96 3.28 8.75
8/17/2021 12:45:00 PM 21.17 70.106 0.314 7.98 3.02 8.9
8/17/2021 1:00:00 PM 21.19 70.142 0.321 8 0.86 8.96
8/17/2021 1:15:00 PM 21.29 70.32201 0.321 8.02 4.53 9.08
8/17/2021 1:30:00 PM 21.36 70.448 0.321 8.06 1.4 9.32
8/17/2021 1:45:00 PM 21.41 70.538 0.321 8.06 1.43 9.22
8/17/2021 2:00:00 PM 21.5 70.7 0.321 8.1 0.88 9.48
8/17/2021 2:15:00 PM 21.59 70.862 0.321 8.13 4.79 9.64
8/17/2021 2:30:00 PM 21.73 71.114 0.321 8.13 3.31 9.59
8/17/2021 2:45:00 PM 21.78 71.204 0.321 8.18 1.27 9.79
8/17/2021 3:00:00 PM 21.86 71.348 0.321 8.19 5.46 9.81
8/17/2021 3:15:00 PM 21.86 71.348 0.321 8.22 0.77 9.85
8/17/2021 3:30:00 PM 21.88 71.384 0.32 8.22 0.64 9.85
8/17/2021 3:45:00 PM 21.9 71.42 0.321 8.23 4.23 9.82
8/17/2021 4:00:00 PM 21.97 71.546 0.322 8.21 1.05 9.68
8/17/2021 4:15:00 PM 22 71.6 0.322 8.24 1.85 9.74
8/17/2021 4:30:00 PM 22.01 71.618 0.323 8.26 2.87 9.86
8/17/2021 4:45:00 PM 22.03 71.654 0.324 8.26 3.41 9.75
8/17/2021 5:00:00 PM 22.06 71.708 0.325 8.27 3.67 9.73
8/17/2021 5:15:00 PM 22.1 71.78 0.326 8.27 0.75 9.67
8/17/2021 5:30:00 PM 22.12 71.816 0.327 8.29 0.6 9.75
8/17/2021 5:45:00 PM 22.16 71.888 0.327 8.3 0.65 9.65
8/17/2021 6:00:00 PM 22.18 71.924 0.327 8.31 3.43 9.64
8/17/2021 6:15:00 PM 22.22 71.996 0.328 8.31 0.91 9.61
8/17/2021 6:30:00 PM 22.24 72.032 0.328 8.31 0.9 9.5
8/17/2021 6:45:00 PM 22.25 72.05 0.328 8.3 0.97 9.39
8/17/2021 7:00:00 PM 22.24 72.032 0.327 8.29 2.3 9.18
8/17/2021 7:15:00 PM 22.24 72.032 0.327 8.28 1.19 9.09
8/17/2021 7:30:00 PM 22.22 71.996 0.327 8.26 1.53 8.94
8/17/2021 7:45:00 PM 22.19 71.942 0.326 8.25 1.34 8.88
8/17/2021 8:00:00 PM 22.17 71.906 0.326 8.23 1.76 8.71
8/17/2021 8:15:00 PM 22.12 71.816 0.312 8.21 1.93 8.62
8/17/2021 8:30:00 PM 22.09 71.762 0.325 8.2 3.34 8.49
8/17/2021 8:45:00 PM 22.05 71.69 0.324 8.19 2.45 8.44
8/17/2021 9:00:00 PM 22.02 71.636 0.324 8.16 3.91 8.31
8/17/2021 9:15:00 PM 21.98 71.564 0.324 8.14 2.42 8.21
8/17/2021 9:30:00 PM 21.94 71.492 0.323 8.13 2.23 8.19
8/17/2021 9:45:00 PM 21.92 71.456 0.322 8.11 2.82 8.08
8/17/2021 10:00:00 PM 21.89 71.402 0.32 8.1 3.98 8.04
8/17/2021 10:15:00 PM 21.87 71.366 0.32 8.08 1.76 7.92
8/17/2021 10:30:00 PM 21.85 71.33 0.32 8.06 3.41 7.82
8/17/2021 10:45:00 PM 21.82 71.276 0.321 8.03 2.7 7.64
8/17/2021 11:00:00 PM 21.79 71.222 0.322 8.03 5.97 7.68
8/17/2021 11:15:00 PM 21.77 71.186 0.322 8.02 4.37 7.65
8/17/2021 11:30:00 PM 21.76 71.168 0.323 8.01 3.18 7.58
8/17/2021 11:45:00 PM 21.73 71.114 0.323 7.98 2.09 7.5
8/18/2021 12:00:00 AM 21.71 71.078 0.323 7.96 6.12 7.41
8/18/2021 12:15:00 AM 21.69 71.042 0.323 7.95 3.67 7.41
8/18/2021 12:30:00 AM 21.67 71.006 0.323 7.94 2.86 7.39
8/18/2021 12:45:00 AM 21.65 70.97 0.323 7.92 2.85 7.35
8/18/2021 1:00:00 AM 21.63 70.934 0.322 7.91 3.79 7.26
8/18/2021 1:15:00 AM 21.6 70.88 0.322 7.9 2.46 7.23
8/18/2021 1:30:00 AM 21.59 70.862 0.322 7.88 3.04 7.12
8/18/2021 1:45:00 AM 21.56 70.808 0.322 7.88 4.52 7.22
8/18/2021 2:00:00 AM 21.55 70.79 0.323 7.88 4.45 7.16
8/18/2021 2:15:00 AM 21.53 70.754 0.324 7.87 3.68 7.22
8/18/2021 2:30:00 AM 21.51 70.718 0.324 7.86 4.97 7.15
8/18/2021 2:45:00 AM 21.5 70.7 0.325 7.86 4.91 7.18
8/18/2021 3:00:00 AM 21.49 70.682 0.325 7.86 5.9 7.17
8/18/2021 3:15:00 AM 21.47 70.646 0.325 7.86 6.3 7.12
8/18/2021 3:30:00 AM 21.45 70.61 0.325 7.86 6.64 7.16
8/18/2021 3:45:00 AM 21.43 70.574 0.324 7.85 4.81 7.12
8/18/2021 4:00:00 AM 21.42 70.556 0.324 7.85 3.36 7.08
8/18/2021 4:15:00 AM 21.41 70.538 0.324 7.83 4.99 7.02
8/18/2021 4:30:00 AM 21.39 70.502 0.324 7.84 4.41 7.04
8/18/2021 4:45:00 AM 21.38 70.484 0.324 7.83 3.23 7.03
8/18/2021 5:00:00 AM 21.38 70.484 0.324 7.83 3.44 7.04
8/18/2021 5:15:00 AM 21.37 70.466 0.324 7.83 4.49 7.08
8/18/2021 5:30:00 AM 21.37 70.466 0.322 7.83 5.41 7.09
8/18/2021 5:45:00 AM 21.36 70.448 0.322 7.83 4.41 7.11
8/18/2021 6:00:00 AM 21.34 70.412 0.322 7.83 4.06 7.08
8/18/2021 6:15:00 AM 21.32 70.376 0.322 7.82 5.05 7.05
8/18/2021 6:30:00 AM 21.29 70.32201 0.322 7.82 11.51 6.96
8/18/2021 6:45:00 AM 21.27 70.286 0.322 7.82 4.83 6.98
8/18/2021 7:00:00 AM 21.25 70.25 0.32 7.8 5.55 6.95
8/18/2021 7:15:00 AM 21.22 70.196 0.32 7.82 5.28 7.06
8/18/2021 7:30:00 AM 21.2 70.16 0.32 7.81 3.35 7.09
8/18/2021 7:45:00 AM 21.19 70.142 0.32 7.81 4.96 7.06
8/18/2021 8:00:00 AM 21.17 70.106 0.321 7.82 3.89 7.14
8/18/2021 8:15:00 AM 21.16 70.088 0.32 7.82 3.26 7.2
8/18/2021 8:30:00 AM 21.18 70.124 0.32 7.82 3.63 7.16
8/18/2021 8:45:00 AM 21.18 70.124 0.32 7.83 4.03 7.28
8/18/2021 9:00:00 AM 21.19 70.142 0.319 7.84 4.18 7.32
8/18/2021 9:15:00 AM 21.19 70.142 0.319 7.84 2.78 7.31
8/18/2021 9:30:00 AM 21.19 70.142 0.318 7.84 1.72 7.4
8/18/2021 9:45:00 AM 21.22 70.196 0.318 7.85 3.33 7.4
8/18/2021 10:00:00 AM 21.27 70.286 0.319 7.86 2.09 7.58
8/18/2021 10:15:00 AM 21.32 70.376 0.319 7.87 2.49 7.75
8/18/2021 10:30:00 AM 21.33 70.394 0.32 7.88 2.48 7.82
8/18/2021 10:45:00 AM 21.37 70.466 0.32 7.9 3.94 7.98
8/18/2021 11:00:00 AM 21.41 70.538 0.32 7.92 3.55 8.08
8/18/2021 11:15:00 AM 21.43 70.574 0.32 7.93 2.07 8.18
8/18/2021 11:30:00 AM 21.5 70.7 0.319 7.94 1.58 8.26
8/18/2021 11:45:00 AM 21.6 70.88 0.318 7.96 1.53 8.47
8/18/2021 12:00:00 PM 21.67 71.006 0.317 7.99 1.53 8.56
8/18/2021 12:15:00 PM 21.73 71.114 0.317 8.01 1.81 8.7
8/18/2021 12:30:00 PM 21.76 71.168 0.317 8.01 254.4 8.61
8/18/2021 12:45:00 PM 21.81 71.258 0.317 8.02 15.88 8.68
8/18/2021 1:00:00 PM 21.92 71.456 0.317 8.03 15.42 8.71
8/18/2021 1:15:00 PM 21.97 71.546 0.316 8.04 1.33 8.88
8/18/2021 1:30:00 PM 22.05 71.69 0.316 8.08 2.81 9.05
8/18/2021 1:45:00 PM 22.08 71.744 0.314 8.08 2 9.02
8/18/2021 2:00:00 PM 22.13 71.834 0.313 8.1 1.79 9.11
8/18/2021 2:15:00 PM 22.16 71.888 0.312 8.11 1.66 9.14
8/18/2021 2:30:00 PM 22.23 72.014 0.311 8.12 2.3 9.15
8/18/2021 2:45:00 PM 22.26 72.068 0.309 8.13 2.61 9.18
8/18/2021 3:00:00 PM 22.28 72.104 0.308 8.14 1.19 9.06
8/18/2021 3:15:00 PM 22.28 72.104 0.308 8.15 2.54 9.06
8/18/2021 3:30:00 PM 22.27 72.086 0.306 8.14 19.01 8.97
8/18/2021 3:45:00 PM 22.28 72.104 0.305 8.13 3.23 8.88
8/18/2021 4:00:00 PM 22.35 72.23 0.294 8.13 2.6 8.77
8/18/2021 4:15:00 PM 22.39 72.302 0.294 8.13 6.57 8.66
8/18/2021 4:30:00 PM 22.46 72.42799 0.293 8.11 11.56 8.61
8/18/2021 4:45:00 PM 22.48 72.464 0.292 8.1 13.33 8.53
8/18/2021 5:00:00 PM 22.47 72.446 0.291 8.1 25.3 8.55
8/18/2021 5:15:00 PM 22.47 72.446 0.29 8.1 36.15 8.53
8/18/2021 5:30:00 PM 22.49 72.482 0.289 8.08 18.79 8.39
8/18/2021 5:45:00 PM 22.53 72.554 0.283 8.03 30.27 8.17
8/18/2021 6:00:00 PM 22.55 72.59 0.276 7.99 54.41 8.02
8/18/2021 6:15:00 PM 22.55 72.59 0.273 7.96 71.98 7.92
8/18/2021 6:30:00 PM 22.54 72.57201 0.271 7.95 71 7.86
8/18/2021 6:45:00 PM 22.52 72.536 0.264 7.95 74.19 7.91
8/18/2021 7:00:00 PM 22.49 72.482 0.266 7.95 59.27 7.91
8/18/2021 7:15:00 PM 22.46 72.42799 0.266 7.95 76.51 7.9
8/18/2021 7:30:00 PM 22.43 72.374 0.267 7.93 110.1 7.83
8/18/2021 7:45:00 PM 22.45 72.41 0.258 7.88 86.89 7.61
8/18/2021 8:00:00 PM 22.52 72.536 0.234 7.8 213.9 7.37
8/18/2021 8:15:00 PM 22.56 72.608 0.218 7.76 296.4 7.32
8/18/2021 8:30:00 PM 22.54 72.57201 0.212 7.72 384.8 7.28
8/18/2021 8:45:00 PM 22.47 72.446 0.215 7.7 302 7.29
8/18/2021 9:00:00 PM 22.35 72.23 0.228 7.72 239.8 7.33
8/18/2021 9:15:00 PM 22.25 72.05 0.236 7.74 80.56 7.33
8/18/2021 9:30:00 PM 22.15 71.87 0.241 7.75 76.82 7.31
8/18/2021 9:45:00 PM 22.05 71.69 0.241 7.75 59.91 7.29
8/18/2021 10:00:00 PM 21.97 71.546 0.237 7.74 116 7.27
8/18/2021 10:15:00 PM 21.92 71.456 0.232 7.72 95.25 7.23
8/18/2021 10:30:00 PM 21.91 71.438 0.226 7.7 117.9 7.16
8/18/2021 10:45:00 PM 21.97 71.546 0.222 7.68 121.4 7.1
8/18/2021 11:00:00 PM 22.04 71.672 0.223 7.67 91.27 7.04
8/18/2021 11:15:00 PM 22.13 71.834 0.222 7.65 114 6.99
8/18/2021 11:30:00 PM 22.2 71.96 0.218 7.64 179.1 6.93
8/18/2021 11:45:00 PM 22.27 72.086 0.209 7.63 103.9 6.9
8/19/2021 12:00:00 AM 22.3 72.14 0.203 7.61 239.1 6.86
8/19/2021 12:15:00 AM 22.33 72.194 0.194 7.61 139.7 6.86
8/19/2021 12:30:00 AM 22.35 72.23 0.187 7.6 220.1 6.83
8/19/2021 12:45:00 AM 22.37 72.266 0.18 7.6 128 6.81
8/19/2021 1:00:00 AM 22.38 72.284 0.174 7.59 158.8 6.79
8/19/2021 1:15:00 AM 22.38 72.284 0.171 7.58 106.9 6.78
8/19/2021 1:30:00 AM 22.37 72.266 0.167 7.57 169.3 6.81
8/19/2021 1:45:00 AM 22.36 72.248 0.165 7.56 140.8 6.82
8/19/2021 2:00:00 AM 22.34 72.212 0.165 7.56 128.2 6.85
8/19/2021 2:15:00 AM 22.31 72.158 0.164 7.55 165.4 6.87
8/19/2021 2:30:00 AM 22.29 72.122 0.163 7.55 116.9 6.88
8/19/2021 2:45:00 AM 22.27 72.086 0.161 7.54 96.2 6.9
8/19/2021 3:00:00 AM 22.24 72.032 0.158 7.54 101.7 6.9
8/19/2021 3:15:00 AM 22.22 71.996 0.157 7.54 132.3 6.94
8/19/2021 3:30:00 AM 22.2 71.96 0.156 7.53 128.7 6.92
8/19/2021 3:45:00 AM 22.18 71.924 0.155 7.53 129 6.96
8/19/2021 4:00:00 AM 22.16 71.888 0.155 7.53 93.11 6.96
8/19/2021 4:15:00 AM 22.13 71.834 0.155 7.53 104.1 7.02
8/19/2021 4:30:00 AM 22.09 71.762 0.156 7.53 78.57 7
8/19/2021 4:45:00 AM 22.05 71.69 0.157 7.52 75.03 7.02
8/19/2021 5:00:00 AM 22.01 71.618 0.16 7.52 86.34 7.05
8/19/2021 5:15:00 AM 21.97 71.546 0.163 7.53 50.19 7.08
8/19/2021 5:30:00 AM 21.91 71.438 0.166 7.53 80.32 7.11
8/19/2021 5:45:00 AM 21.87 71.366 0.167 7.53 64.79 7.14
8/19/2021 6:00:00 AM 21.84 71.312 0.167 7.53 63.36 7.11
8/19/2021 6:15:00 AM 21.81 71.258 0.166 7.53 41.64 7.12
8/19/2021 6:30:00 AM 21.78 71.204 0.164 7.53 66.95 7.13
8/19/2021 6:45:00 AM 21.76 71.168 0.163 7.53 45.07 7.11
8/19/2021 7:00:00 AM 21.75 71.15 0.162 7.53 74.03 7.16
8/19/2021 7:15:00 AM 21.75 71.15 0.16 7.52 46.76 7.11
8/19/2021 7:30:00 AM 21.75 71.15 0.159 7.52 57.95 7.14
8/19/2021 7:45:00 AM 21.74 71.132 0.157 7.52 64.63 7.14
8/19/2021 8:00:00 AM 21.74 71.132 0.156 7.52 56.47 7.11
8/19/2021 8:15:00 AM 21.74 71.132 0.157 7.51 64.05 7.14
8/19/2021 8:30:00 AM 21.75 71.15 0.157 7.5 62.13 7.15
8/19/2021 8:45:00 AM 21.75 71.15 0.156 7.5 38.59 7.14
8/19/2021 9:00:00 AM 21.77 71.186 0.155 7.49 36.18 7.13
8/19/2021 9:15:00 AM 21.79 71.222 0.154 7.48 76.55 7.17
8/19/2021 9:30:00 AM 21.83 71.294 0.15 7.47 62.8 7.17
8/19/2021 9:45:00 AM 21.84 71.312 0.153 7.48 39.21 7.19
8/19/2021 10:00:00 AM 21.86 71.348 0.152 7.47 52.44 7.21
8/19/2021 10:15:00 AM 21.89 71.402 0.153 7.47 39.28 7.21
8/19/2021 10:30:00 AM 21.89 71.402 0.152 7.47 42.88 7.22
8/19/2021 10:45:00 AM 21.92 71.456 0.152 7.47 46.5 7.22
8/19/2021 11:00:00 AM 21.95 71.51 0.152 7.46 44.38 7.22
8/19/2021 11:15:00 AM 22 71.6 0.151 7.46 44.47 7.21
8/19/2021 11:30:00 AM 22.04 71.672 0.152 7.45 48.66 7.23
8/19/2021 11:45:00 AM 22.06 71.708 0.151 7.45 64.86 7.21
8/19/2021 12:00:00 PM 22.05 71.69 0.15 7.46 48.56 7.24
8/19/2021 12:15:00 PM 22.04 71.672 0.149 7.44 55.88 7.2
8/19/2021 12:30:00 PM 22.05 71.69 0.149 7.44 183.9 7.22
8/19/2021 12:45:00 PM 22.06 71.708 0.148 7.45 64.24 7.22
8/19/2021 1:00:00 PM 22.09 71.762 0.147 7.46 62.75 7.25
8/19/2021 1:15:00 PM 22.14 71.852 0.147 7.45 36.74 7.24
8/19/2021 1:30:00 PM 22.2 71.96 0.146 7.45 44.05 7.24
8/19/2021 1:45:00 PM 22.27 72.086 0.146 7.45 46.43 7.24
8/19/2021 2:00:00 PM 22.33 72.194 0.146 7.45 37.59 7.23
8/19/2021 2:15:00 PM 22.35 72.23 0.146 7.45 52.51 7.2
8/19/2021 2:30:00 PM 22.41 72.338 0.146 7.45 64.67 7.24
8/19/2021 2:45:00 PM 22.49 72.482 0.145 7.46 39.17 7.22
8/19/2021 3:00:00 PM 22.6 72.68 0.144 7.45 53.82 7.21
8/19/2021 3:15:00 PM 22.68 72.824 0.143 7.45 62.65 7.2
8/19/2021 3:30:00 PM 22.74 72.932 0.139 7.44 52.28 7.24
8/19/2021 3:45:00 PM 22.78 73.004 0.142 7.45 48.23 7.16
8/19/2021 4:00:00 PM 22.83 73.094 0.14 7.45 34.24 7.2
8/19/2021 4:15:00 PM 22.87 73.166 0.141 7.44 66.23 7.21
8/19/2021 4:30:00 PM 22.92 73.256 0.14 7.44 40.56 7.24
8/19/2021 4:45:00 PM 22.97 73.346 0.141 7.42 33.61 7.19
8/19/2021 5:00:00 PM 23.01 73.418 0.14 7.42 53.5 7.21
8/19/2021 5:15:00 PM 23.02 73.436 0.144 7.39 45.75 7.2
8/19/2021 5:30:00 PM 23.01 73.418 0.144 7.39 34.07 7.17
8/19/2021 5:45:00 PM 22.99 73.382 0.146 7.4 34.64 7.14
8/19/2021 6:00:00 PM 22.98 73.364 0.147 7.42 39.34 7.19
8/19/2021 6:15:00 PM 22.99 73.382 0.147 7.42 50.76 7.15
8/19/2021 6:30:00 PM 23.01 73.418 0.147 7.43 52.37 7.18
8/19/2021 6:45:00 PM 23.01 73.418 0.147 7.43 40.14 7.11
8/19/2021 7:00:00 PM 23.01 73.418 0.147 7.43 30.19 7.17
8/19/2021 7:15:00 PM 23 73.4 0.146 7.43 35.18 7.13
8/19/2021 7:30:00 PM 23 73.4 0.148 7.42 39.7 7.13
8/19/2021 7:45:00 PM 23 73.4 0.148 7.43 32.9 7.11
8/19/2021 8:00:00 PM 23 73.4 0.15 7.42 34.19 7.09
8/19/2021 8:15:00 PM 23 73.4 0.151 7.44 31.63 7.09
8/19/2021 8:30:00 PM 23 73.4 0.155 7.44 31.99 7.05
8/19/2021 8:45:00 PM 22.99 73.382 0.155 7.44 34.84 7.06
8/19/2021 9:00:00 PM 22.97 73.346 0.157 7.44 33.2 7.03
8/19/2021 9:15:00 PM 22.95 73.31 0.155 7.44 37.55 7.04
8/19/2021 9:30:00 PM 22.93 73.274 0.16 7.43 36.35 7.02
8/19/2021 9:45:00 PM 22.91 73.238 0.159 7.43 40.87 7.02
8/19/2021 10:00:00 PM 22.88 73.184 0.16 7.43 35.97 7.03
8/19/2021 10:15:00 PM 22.85 73.13 0.16 7.44 33.28 7.03
8/19/2021 10:30:00 PM 22.82 73.076 0.16 7.44 33.56 7
8/19/2021 10:45:00 PM 22.8 73.04 0.16 7.44 37.28 7.01
8/19/2021 11:00:00 PM 22.77 72.986 0.161 7.43 38.49 6.89
8/19/2021 11:15:00 PM 22.75 72.95 0.162 7.44 36.23 6.97
8/19/2021 11:30:00 PM 22.73 72.914 0.163 7.44 41.8 6.91
8/19/2021 11:45:00 PM 22.71 72.878 0.164 7.44 36.79 6.94
8/20/2021 12:00:00 AM 22.7 72.86 0.166 7.44 28.3 6.94
8/20/2021 12:15:00 AM 22.67 72.806 0.169 7.44 39.66 6.96
8/20/2021 12:30:00 AM 22.65 72.77 0.171 7.43 29.92 6.91
8/20/2021 12:45:00 AM 22.63 72.734 0.172 7.45 35.41 6.94
8/20/2021 1:00:00 AM 22.61 72.698 0.173 7.45 37.95 6.94
8/20/2021 1:15:00 AM 22.59 72.662 0.174 7.45 34.99 6.92
8/20/2021 1:30:00 AM 22.56 72.608 0.174 7.45 44.7 6.89
8/20/2021 1:45:00 AM 22.54 72.57201 0.174 7.45 35.09 6.95
8/20/2021 2:00:00 AM 22.52 72.536 0.175 7.45 35.08 6.87
8/20/2021 2:15:00 AM 22.49 72.482 0.176 7.46 32.53 6.96
8/20/2021 2:30:00 AM 22.47 72.446 0.177 7.45 33.55 6.89
8/20/2021 2:45:00 AM 22.45 72.41 0.177 7.45 40.79 6.92
8/20/2021 3:00:00 AM 22.42 72.356 0.179 7.46 40.5 6.92
8/20/2021 3:15:00 AM 22.4 72.32 0.18 7.46 27.75 6.93
8/20/2021 3:30:00 AM 22.37 72.266 0.182 7.45 24.94 6.9
8/20/2021 3:45:00 AM 22.35 72.23 0.185 7.46 24.94 6.91
8/20/2021 4:00:00 AM 22.32 72.176 0.187 7.46 33.41 6.85
8/20/2021 4:15:00 AM 22.3 72.14 0.188 7.46 31.32 6.73
8/20/2021 4:30:00 AM 22.27 72.086 0.189 7.47 26.72 6.93
8/20/2021 4:45:00 AM 22.24 72.032 0.19 7.47 35.34 6.98
8/20/2021 5:00:00 AM 22.22 71.996 0.189 7.47 35.91 6.93
8/20/2021 5:15:00 AM 22.19 71.942 0.19 7.47 28.06 6.94
8/20/2021 5:30:00 AM 22.17 71.906 0.19 7.47 25.14 6.95
8/20/2021 5:45:00 AM 22.14 71.852 0.191 7.47 28.36 6.96
8/20/2021 6:00:00 AM 22.12 71.816 0.19 7.47 30.08 6.95
8/20/2021 6:15:00 AM 22.1 71.78 0.183 7.47 30.71 6.95
8/20/2021 6:30:00 AM 22.07 71.726 0.193 7.47 84.9 6.92
8/20/2021 6:45:00 AM 22.05 71.69 0.194 7.48 31.65 6.89
8/20/2021 7:00:00 AM 22.02 71.636 0.197 7.48 30.38 6.92
8/20/2021 7:15:00 AM 22 71.6 0.199 7.48 25.74 6.96
8/20/2021 7:30:00 AM 21.98 71.564 0.202 7.49 36.91 7
8/20/2021 7:45:00 AM 21.96 71.528 0.204 7.45 23.4 7
8/20/2021 8:00:00 AM 21.94 71.492 0.205 7.47 27.26 7.02
8/20/2021 8:15:00 AM 21.92 71.456 0.205 7.48 25.91 7.04
8/20/2021 8:30:00 AM 21.91 71.438 0.205 7.49 30.25 7.07
8/20/2021 8:45:00 AM 21.9 71.42 0.205 7.49 20.88 7.04
8/20/2021 9:00:00 AM 21.88 71.384 0.205 7.49 23 7
8/20/2021 9:15:00 AM 21.87 71.366 0.204 7.49 23.44 7.06
8/20/2021 9:30:00 AM 21.87 71.366 0.205 7.5 21.65 7.09
8/20/2021 9:45:00 AM 21.86 71.348 0.205 7.5 23.72 7.13
8/20/2021 10:00:00 AM 21.86 71.348 0.206 7.5 20.93 7.13
8/20/2021 10:15:00 AM 21.86 71.348 0.207 7.5 29.27 7.16
8/20/2021 10:30:00 AM 21.86 71.348 0.208 7.5 21.89 7.19
8/20/2021 10:45:00 AM 21.87 71.366 0.21 7.5 22.49 7.22
8/20/2021 11:00:00 AM 21.88 71.384 0.212 7.47 18.43 7.22
8/20/2021 11:15:00 AM 21.89 71.402 0.214 7.49 32.45 7.31
8/20/2021 11:30:00 AM 21.91 71.438 0.214 7.49 16.78 7.3
8/20/2021 11:45:00 AM 21.92 71.456 0.215 7.47 17.11 7.3
8/20/2021 12:00:00 PM 21.94 71.492 0.215 7.52 14.9 7.39
8/20/2021 12:15:00 PM 21.96 71.528 0.216 7.55 16.37 7.45
8/20/2021 12:30:00 PM 21.99 71.582 0.216 7.55 26.8 7.52
8/20/2021 12:45:00 PM 22.03 71.654 0.216 7.56 20.38 7.52
8/20/2021 1:00:00 PM 22.07 71.726 0.216 7.57 19.68 7.58
8/20/2021 1:15:00 PM 22.11 71.798 0.217 7.58 18.15 7.64
8/20/2021 1:30:00 PM 22.15 71.87 0.217 7.58 15.94 7.69
8/20/2021 1:45:00 PM 22.19 71.942 0.218 7.6 16.07 7.74
8/20/2021 2:00:00 PM 22.23 72.014 0.22 7.56 15.87 7.75
8/20/2021 2:15:00 PM 22.29 72.122 0.221 7.55 14.96 7.82
8/20/2021 2:30:00 PM 22.38 72.284 0.222 7.56 14.8 7.89
8/20/2021 2:45:00 PM 22.44 72.392 0.223 7.59 17.2 7.93
8/20/2021 3:00:00 PM 22.48 72.464 0.224 7.64 17.53 7.93
8/20/2021 3:15:00 PM 22.54 72.57201 0.225 7.68 13.08 7.94
8/20/2021 3:30:00 PM 22.61 72.698 0.225 7.7 17.69 7.94
8/20/2021 3:45:00 PM 22.71 72.878 0.225 7.71 28.72 7.99
8/20/2021 4:00:00 PM 22.78 73.004 0.226 7.72 18.3 8.03
8/20/2021 4:15:00 PM 22.86 73.148 0.226 7.73 16.72 8.02
8/20/2021 4:30:00 PM 22.93 73.274 0.226 7.74 17.15 8.1
8/20/2021 4:45:00 PM 22.98 73.364 0.227 7.74 14.7 8.09
8/20/2021 5:00:00 PM 23.03 73.454 0.228 7.74 21.02 8.08
8/20/2021 5:15:00 PM 23.08 73.544 0.229 7.75 15.71 8.08
8/20/2021 5:30:00 PM 23.11 73.598 0.231 7.75 20.29 8.04
8/20/2021 5:45:00 PM 23.13 73.634 0.232 7.77 15.65 8.07
8/20/2021 6:00:00 PM 23.14 73.652 0.233 7.77 12.95 8.03
8/20/2021 6:15:00 PM 23.13 73.634 0.234 7.78 16.19 8.02
8/20/2021 6:30:00 PM 23.12 73.616 0.234 7.78 16.54 7.99
8/20/2021 6:45:00 PM 23.1 73.58 0.235 7.77 15.33 7.97
8/20/2021 7:00:00 PM 23.05 73.49 0.235 7.77 13.66 7.92
8/20/2021 7:15:00 PM 23 73.4 0.236 7.77 14.47 7.9
8/20/2021 7:30:00 PM 22.94 73.292 0.236 7.77 15.11 7.86
8/20/2021 7:45:00 PM 22.89 73.202 0.238 7.74 13.6 7.77
8/20/2021 8:00:00 PM 22.83 73.094 0.239 7.74 15.14 7.75
8/20/2021 8:15:00 PM 22.79 73.022 0.241 7.75 17.2 7.73
8/20/2021 8:30:00 PM 22.75 72.95 0.243 7.74 15.42 7.7
8/20/2021 8:45:00 PM 22.71 72.878 0.246 7.74 16.06 7.63
8/20/2021 9:00:00 PM 22.67 72.806 0.248 7.74 15.43 7.62
8/20/2021 9:15:00 PM 22.64 72.752 0.249 7.74 19.13 7.57
8/20/2021 9:30:00 PM 22.6 72.68 0.251 7.73 22.58 7.54
8/20/2021 9:45:00 PM 22.57 72.626 0.251 7.73 14.92 7.51
8/20/2021 10:00:00 PM 22.53 72.554 0.25 7.73 16 7.48
8/20/2021 10:15:00 PM 22.48 72.464 0.251 7.72 15.97 7.44
8/20/2021 10:30:00 PM 22.44 72.392 0.251 7.72 15.15 7.37
8/20/2021 10:45:00 PM 22.4 72.32 0.251 7.72 17.02 7.38
8/20/2021 11:00:00 PM 22.36 72.248 0.251 7.71 13.99 7.34
8/20/2021 11:15:00 PM 22.31 72.158 0.253 7.71 17.86 7.32
8/20/2021 11:30:00 PM 22.27 72.086 0.255 7.7 15.18 7.31
8/20/2021 11:45:00 PM 22.23 72.014 0.257 7.7 16.43 7.25
8/21/2021 12:00:00 AM 22.19 71.942 0.259 7.7 20.67 7.26
8/21/2021 12:15:00 AM 22.16 71.888 0.26 7.69 15.83 7.22
8/21/2021 12:30:00 AM 22.13 71.834 0.261 7.69 16.2 7.23
8/21/2021 12:45:00 AM 22.1 71.78 0.261 7.68 15.97 7.18
8/21/2021 1:00:00 AM 22.07 71.726 0.262 7.69 22.85 7.23
8/21/2021 1:15:00 AM 22.05 71.69 0.261 7.69 14.61 7.2
8/21/2021 1:30:00 AM 22.02 71.636 0.261 7.68 15.03 7.22
8/21/2021 1:45:00 AM 21.99 71.582 0.261 7.68 14.97 7.19
8/21/2021 2:00:00 AM 21.96 71.528 0.26 7.68 16.71 7.18
8/21/2021 2:15:00 AM 21.93 71.474 0.261 7.68 14.8 7.18
8/21/2021 2:30:00 AM 21.9 71.42 0.263 7.68 9.18 7.16
8/21/2021 2:45:00 AM 21.87 71.366 0.265 7.68 11.29 7.14
8/21/2021 3:00:00 AM 21.84 71.312 0.267 7.68 15.67 7.15
8/21/2021 3:15:00 AM 21.81 71.258 0.268 7.67 13.8 7.11
8/21/2021 3:30:00 AM 21.78 71.204 0.268 7.67 15.06 7.17
8/21/2021 3:45:00 AM 21.74 71.132 0.269 7.67 18.06 7.17
8/21/2021 4:00:00 AM 21.71 71.078 0.269 7.67 12.71 7.17
8/21/2021 4:15:00 AM 21.67 71.006 0.269 7.67 15.92 7.12
8/21/2021 4:30:00 AM 21.63 70.934 0.269 7.67 38.06 7.15
8/21/2021 4:45:00 AM 21.59 70.862 0.268 7.67 16.28 7.16
8/21/2021 5:00:00 AM 21.55 70.79 0.268 7.67 16.27 7.17
8/21/2021 5:15:00 AM 21.5 70.7 0.269 7.67 17.06 7.17
8/21/2021 5:30:00 AM 21.46 70.628 0.27 7.67 13.2 7.16
8/21/2021 5:45:00 AM 21.41 70.538 0.271 7.67 15.39 7.15
8/21/2021 6:00:00 AM 21.36 70.448 0.273 7.67 14.37 7.14
8/21/2021 6:15:00 AM 21.31 70.358 0.274 7.66 13.99 7.14
8/21/2021 6:30:00 AM 21.27 70.286 0.275 7.66 20.61 7.08
8/21/2021 6:45:00 AM 21.22 70.196 0.276 7.66 16.45 7.19
8/21/2021 7:00:00 AM 21.17 70.106 0.276 7.66 11.66 7.15
8/21/2021 7:15:00 AM 21.13 70.034 0.276 7.66 15.39 7.23
8/21/2021 7:30:00 AM 21.09 69.962 0.276 7.66 18.26 7.23
8/21/2021 7:45:00 AM 21.05 69.89 0.275 7.67 16.99 7.25
8/21/2021 8:00:00 AM 21.03 69.854 0.275 7.66 11.32 7.23
8/21/2021 8:15:00 AM 21 69.8 0.275 7.66 26.25 7.26
8/21/2021 8:30:00 AM 20.99 69.782 0.276 7.67 13.49 7.21
8/21/2021 8:45:00 AM 20.99 69.782 0.277 7.67 17.67 7.37
8/21/2021 9:00:00 AM 21 69.8 0.279 7.67 11.05 7.38
8/21/2021 9:15:00 AM 21.07 69.926 0.28 7.68 9.66 7.46
8/21/2021 9:30:00 AM 21.19 70.142 0.281 7.68 11.35 7.51
8/21/2021 9:45:00 AM 21.29 70.32201 0.281 7.7 13.88 7.59
8/21/2021 10:00:00 AM 21.35 70.43 0.281 7.71 11.19 7.66
8/21/2021 10:15:00 AM 21.47 70.646 0.282 7.72 11.94 7.75
8/21/2021 10:30:00 AM 21.5 70.7 0.281 7.73 11.91 7.74
8/21/2021 10:45:00 AM 21.56 70.808 0.281 7.74 10.69 7.86
8/21/2021 11:00:00 AM 21.63 70.934 0.28 7.76 10.22 7.94
8/21/2021 11:15:00 AM 21.7 71.06 0.28 7.77 12.6 7.98
8/21/2021 11:30:00 AM 21.78 71.204 0.281 7.78 14.18 8.03
8/21/2021 11:45:00 AM 21.86 71.348 0.281 7.79 12.81 8.07
8/21/2021 12:00:00 PM 21.96 71.528 0.282 7.8 12.98 8.09
8/21/2021 12:15:00 PM 21.98 71.564 0.283 7.81 12.39 8.08
8/21/2021 12:30:00 PM 22.1 71.78 0.283 7.83 13.1 8.21
8/21/2021 12:45:00 PM 22.16 71.888 0.284 7.84 12.82 8.22
8/21/2021 1:00:00 PM 22.29 72.122 0.284 7.85 345.8 7.85
8/21/2021 1:15:00 PM 22.39 72.302 0.284 7.86 54.85 7.01
8/21/2021 1:30:00 PM 22.56 72.608 0.285 7.87 13.39 7.74
8/21/2021 1:45:00 PM 22.66 72.788 0.284 7.87 11.04 8.36
8/21/2021 2:00:00 PM 22.75 72.95 0.284 7.89 12.15 8.42
8/21/2021 2:15:00 PM 22.78 73.004 0.284 7.9 13.2 8.49
8/21/2021 2:30:00 PM 22.85 73.13 0.284 7.91 15.53 8.39
8/21/2021 2:45:00 PM 22.9 73.22 0.284 7.92 10.86 8.51
8/21/2021 3:00:00 PM 22.95 73.31 0.284 7.93 9.85 8.44
8/21/2021 3:15:00 PM 22.98 73.364 0.285 7.95 12.22 8.44
8/21/2021 3:30:00 PM 23.02 73.436 0.286 7.95 10.19 8.47
8/21/2021 3:45:00 PM 23.06 73.508 0.286 7.95 10.77 8.44
8/21/2021 4:00:00 PM 23.11 73.598 0.286 7.94 10.86 8.44
8/21/2021 4:15:00 PM 23.15 73.67 0.286 7.95 13.9 8.47
8/21/2021 4:30:00 PM 23.21 73.778 0.286 7.98 11.26 8.46
8/21/2021 4:45:00 PM 23.28 73.904 0.286 7.98 12.24 8.48
8/21/2021 5:00:00 PM 23.33 73.994 0.286 7.98 11.99 8.46
8/21/2021 5:15:00 PM 23.38 74.084 0.286 7.98 13.32 8.51
8/21/2021 5:30:00 PM 23.44 74.192 0.286 7.98 13.29 8.38
8/21/2021 5:45:00 PM 23.48 74.264 0.286 7.97 14.34 8.45
8/21/2021 6:00:00 PM 23.51 74.318 0.286 7.97 14.78 8.43
8/21/2021 6:15:00 PM 23.51 74.318 0.287 7.98 10.27 8.45
8/21/2021 6:30:00 PM 23.51 74.318 0.287 8.01 13.18 8.32
8/21/2021 6:45:00 PM 23.5 74.3 0.288 8 15.48 8.27
8/21/2021 7:00:00 PM 23.49 74.282 0.288 8.01 11.13 8.24
8/21/2021 7:15:00 PM 23.47 74.246 0.287 8 15.51 8.22
8/21/2021 7:30:00 PM 23.45 74.21 0.288 7.99 11.16 8.09
8/21/2021 7:45:00 PM 23.42 74.156 0.289 7.99 12.73 8.04
8/21/2021 8:00:00 PM 23.39 74.102 0.288 7.99 12.28 7.93
8/21/2021 8:15:00 PM 23.36 74.048 0.289 7.98 11.98 7.95
8/21/2021 8:30:00 PM 23.32 73.976 0.262 7.98 11.18 7.9
8/21/2021 8:45:00 PM 23.29 73.922 0.289 7.97 32.86 7.85
8/21/2021 9:00:00 PM 23.25 73.85 0.29 7.95 13 7.76
8/21/2021 9:15:00 PM 23.22 73.796 0.291 7.94 14.37 7.73
8/21/2021 9:30:00 PM 23.18 73.724 0.293 7.93 10.76 7.67
8/21/2021 9:45:00 PM 23.14 73.652 0.293 7.91 16.49 7.57
8/21/2021 10:00:00 PM 23.1 73.58 0.294 7.9 14.53 7.57
8/21/2021 10:15:00 PM 23.06 73.508 0.295 7.9 12.48 7.49
8/21/2021 10:30:00 PM 23.01 73.418 0.294 7.89 13.38 7.48
8/21/2021 10:45:00 PM 22.97 73.346 0.294 7.87 11.13 7.43
8/21/2021 11:00:00 PM 22.93 73.274 0.294 7.87 10.22 7.37
8/21/2021 11:15:00 PM 22.9 73.22 0.294 7.87 11.75 7.33
8/21/2021 11:30:00 PM 22.86 73.148 0.293 7.86 9.89 7.31
8/21/2021 11:45:00 PM 22.82 73.076 0.294 7.85 14.76 7.28
8/22/2021 12:00:00 AM 22.79 73.022 0.294 7.85 12.18 7.23
8/22/2021 12:15:00 AM 22.76 72.968 0.295 7.85 13.21 7.23
8/22/2021 12:30:00 AM 22.73 72.914 0.297 7.84 11.98 7.19
8/22/2021 12:45:00 AM 22.71 72.878 0.297 7.83 12.41 7.18
8/22/2021 1:00:00 AM 22.68 72.824 0.298 7.82 19.33 7.17
8/22/2021 1:15:00 AM 22.67 72.806 0.299 7.82 13.67 7.17
8/22/2021 1:30:00 AM 22.64 72.752 0.299 7.82 13.94 7.16
8/22/2021 1:45:00 AM 22.62 72.716 0.298 7.82 54.72 7.1
8/22/2021 2:00:00 AM 22.6 72.68 0.298 7.82 13.13 7.12
8/22/2021 2:15:00 AM 22.58 72.644 0.297 7.82 9.86 7.12
8/22/2021 2:30:00 AM 22.55 72.59 0.297 7.81 10.25 7.1
8/22/2021 2:45:00 AM 22.53 72.554 0.297 7.81 9.77 7.11
8/22/2021 3:00:00 AM 22.5 72.5 0.297 7.81 10.41 7.09
8/22/2021 3:15:00 AM 22.47 72.446 0.298 7.8 10.56 7.1
8/22/2021 3:30:00 AM 22.43 72.374 0.299 7.79 15.69 7.09
8/22/2021 3:45:00 AM 22.4 72.32 0.3 7.79 12.12 7.08
8/22/2021 4:00:00 AM 22.36 72.248 0.301 7.79 13.32 7.1
8/22/2021 4:15:00 AM 22.33 72.194 0.301 7.79 21.63 7.09
8/22/2021 4:30:00 AM 22.29 72.122 0.301 7.79 15.92 7.1
8/22/2021 4:45:00 AM 22.25 72.05 0.301 7.78 12.29 7.1
8/22/2021 5:00:00 AM 22.21 71.978 0.301 7.78 11.08 7.07
8/22/2021 5:15:00 AM 22.16 71.888 0.3 7.77 1352 7.08
8/22/2021 5:30:00 AM 22.12 71.816 0.3 7.77 11.08 7.06
8/22/2021 5:45:00 AM 22.08 71.744 0.3 7.77 17.35 7.06
8/22/2021 6:00:00 AM 22.04 71.672 0.3 7.76 14.44 7.06
8/22/2021 6:15:00 AM 22.01 71.618 0.301 7.76 11.43 7.1
8/22/2021 6:30:00 AM 21.97 71.546 0.277 7.76 16.11 7.12
8/22/2021 6:45:00 AM 21.94 71.492 0.302 7.75 28.86 7.04
8/22/2021 7:00:00 AM 21.9 71.42 0.303 7.75 9.36 7.11
8/22/2021 7:15:00 AM 21.87 71.366 0.303 7.75 15.8 7.07
8/22/2021 7:30:00 AM 21.84 71.312 0.303 7.74 26.56 7.03
8/22/2021 7:45:00 AM 21.82 71.276 0.303 7.74 7.96 7.14
8/22/2021 8:00:00 AM 21.79 71.222 0.302 7.75 8.83 7.11
8/22/2021 8:15:00 AM 21.76 71.168 0.302 7.74 6.51 7.15
8/22/2021 8:30:00 AM 21.74 71.132 0.3 7.74 22.36 7.14
8/22/2021 8:45:00 AM 21.72 71.096 0.3 7.74 21.42 7.11
8/22/2021 9:00:00 AM 21.69 71.042 0.3 7.74 7.84 7.18
8/22/2021 9:15:00 AM 21.67 71.006 0.3 7.74 14.99 7.13
8/22/2021 9:30:00 AM 21.65 70.97 0.301 7.74 55.99 7.18
8/22/2021 9:45:00 AM 21.64 70.952 0.301 7.74 4.85 7.22
8/22/2021 10:00:00 AM 21.62 70.916 0.302 7.74 7.54 7.27
8/22/2021 10:15:00 AM 21.62 70.916 0.302 7.74 10.32 7.26
8/22/2021 10:30:00 AM 21.6 70.88 0.302 7.74 69.91 7.23
8/22/2021 10:45:00 AM 21.59 70.862 0.301 7.75 84.83 6.93
8/22/2021 11:00:00 AM 21.59 70.862 0.301 7.75 12.61 7.37
8/22/2021 11:15:00 AM 21.58 70.844 0.3 7.76 12.76 7.42
8/22/2021 11:30:00 AM 21.57 70.826 0.299 7.77 12.82 7.48
8/22/2021 11:45:00 AM 21.56 70.808 0.298 7.77 5.16 7.6
8/22/2021 12:00:00 PM 21.55 70.79 0.298 7.78 8.55 7.64
8/22/2021 12:15:00 PM 21.54 70.772 0.298 7.78 10.62 7.59
8/22/2021 12:30:00 PM 21.53 70.754 0.298 7.79 13.15 7.58
8/22/2021 12:45:00 PM 21.52 70.736 0.299 7.79 7.2 7.72
8/22/2021 1:00:00 PM 21.52 70.736 0.299 7.8 5.84 7.66
8/22/2021 1:15:00 PM 21.52 70.736 0.299 7.81 8.16 7.84
8/22/2021 1:30:00 PM 21.52 70.736 0.299 7.81 5.15 7.84
8/22/2021 1:45:00 PM 21.53 70.754 0.297 7.81 23.87 7.68
8/22/2021 2:00:00 PM 21.51 70.718 0.29 7.81 5.82 7.79
8/22/2021 2:15:00 PM 21.5 70.7 0.295 7.82 9.86 7.9
8/22/2021 2:30:00 PM 21.5 70.7 0.295 7.82 5.46 7.9
8/22/2021 2:45:00 PM 21.51 70.718 0.295 7.83 83.16 7.88
8/22/2021 3:00:00 PM 21.5 70.7 0.294 7.83 11.63 7.82
8/22/2021 3:15:00 PM 21.49 70.682 0.294 7.84 23.22 7.92
8/22/2021 3:30:00 PM 21.48 70.664 0.291 7.84 20.29 7.86
8/22/2021 3:45:00 PM 21.51 70.718 0.29 7.83 28.42 7.85
8/22/2021 4:00:00 PM 21.53 70.754 0.29 7.84 20.64 7.94
8/22/2021 4:15:00 PM 21.56 70.808 0.291 7.85 13.02 8.02
8/22/2021 4:30:00 PM 21.57 70.826 0.292 7.86 12.18 8.06
8/22/2021 4:45:00 PM 21.58 70.844 0.293 7.87 12.55 8.03
8/22/2021 5:00:00 PM 21.58 70.844 0.294 7.88 10.56 8.11
8/22/2021 5:15:00 PM 21.57 70.826 0.294 7.88 11.1 8.07
8/22/2021 5:30:00 PM 21.55 70.79 0.294 7.88 15.25 8.1
8/22/2021 5:45:00 PM 21.55 70.79 0.292 7.88 14.69 8.09
8/22/2021 6:00:00 PM 21.55 70.79 0.291 7.88 15.17 8.16
8/22/2021 6:15:00 PM 21.55 70.79 0.292 7.88 12.68 8.1
8/22/2021 6:30:00 PM 21.54 70.772 0.292 7.89 9.98 8.11
8/22/2021 6:45:00 PM 21.54 70.772 0.292 7.89 11.99 8.1
8/22/2021 7:00:00 PM 21.53 70.754 0.293 7.89 9.89 8.11
8/22/2021 7:15:00 PM 21.52 70.736 0.293 7.9 20.58 8.06
8/22/2021 7:30:00 PM 21.51 70.718 0.293 7.89 13.56 8.06
8/22/2021 7:45:00 PM 21.49 70.682 0.294 7.9 10.6 8.05
8/22/2021 8:00:00 PM 21.47 70.646 0.294 7.9 9.79 8.04
8/22/2021 8:15:00 PM 21.45 70.61 0.294 7.89 6.98 7.99
8/22/2021 8:30:00 PM 21.43 70.574 0.294 7.89 8.93 8.02
8/22/2021 8:45:00 PM 21.41 70.538 0.28 7.89 8.2 7.96
8/22/2021 9:00:00 PM 21.38 70.484 0.296 7.88 6.81 7.9
8/22/2021 9:15:00 PM 21.36 70.448 0.297 7.88 7.2 7.87
8/22/2021 9:30:00 PM 21.33 70.394 0.298 7.87 10.04 7.83
8/22/2021 9:45:00 PM 21.31 70.358 0.299 7.86 8.2 7.81
8/22/2021 10:00:00 PM 21.28 70.304 0.3 7.86 11.84 7.79
8/22/2021 10:15:00 PM 21.25 70.25 0.301 7.86 8.04 7.76
8/22/2021 10:30:00 PM 21.22 70.196 0.301 7.85 7.55 7.73
8/22/2021 10:45:00 PM 21.2 70.16 0.302 7.85 11.38 7.7
8/22/2021 11:00:00 PM 21.16 70.088 0.301 7.85 10.24 7.68
8/22/2021 11:15:00 PM 21.14 70.052 0.301 7.85 8.77 7.67
8/22/2021 11:30:00 PM 21.11 69.998 0.301 7.84 10.07 7.65
8/22/2021 11:45:00 PM 21.09 69.962 0.286 7.84 8.8 7.59
8/23/2021 12:00:00 AM 21.06 69.908 0.302 7.83 8.94 7.58
8/23/2021 12:15:00 AM 21.04 69.872 0.303 7.83 9.84 7.57
8/23/2021 12:30:00 AM 21.01 69.818 0.305 7.83 17.19 7.57
8/23/2021 12:45:00 AM 20.99 69.782 0.306 7.82 7.27 7.56
8/23/2021 1:00:00 AM 20.97 69.746 0.307 7.82 10.87 7.54
8/23/2021 1:15:00 AM 20.95 69.71 0.308 7.82 8.29 7.55
8/23/2021 1:30:00 AM 20.93 69.674 0.308 7.82 13.37 7.54
8/23/2021 1:45:00 AM 20.9 69.62 0.308 7.82 9.74 7.55
8/23/2021 2:00:00 AM 20.88 69.584 0.308 7.82 6.16 7.54
8/23/2021 2:15:00 AM 20.85 69.53 0.308 7.82 8.87 7.57
8/23/2021 2:30:00 AM 20.83 69.494 0.306 7.82 8.41 7.55
8/23/2021 2:45:00 AM 20.81 69.458 0.307 7.82 9.86 7.56
8/23/2021 3:00:00 AM 20.78 69.404 0.308 7.82 12.26 7.55
8/23/2021 3:15:00 AM 20.76 69.368 0.308 7.82 11.07 7.56
8/23/2021 3:30:00 AM 20.74 69.332 0.309 7.82 7.42 7.54
8/23/2021 3:45:00 AM 20.71 69.278 0.31 7.81 10.41 7.54
8/23/2021 4:00:00 AM 20.69 69.242 0.311 7.81 11.95 7.53
8/23/2021 4:15:00 AM 20.67 69.206 0.311 7.81 7.75 7.53
8/23/2021 4:30:00 AM 20.65 69.17 0.311 7.81 13.03 7.56
8/23/2021 4:45:00 AM 20.63 69.134 0.311 7.8 8 7.52
8/23/2021 5:00:00 AM 20.6 69.08 0.306 7.8 7.07 7.51
8/23/2021 5:15:00 AM 20.58 69.044 0.31 7.81 8.51 7.57
8/23/2021 5:30:00 AM 20.55 68.99 0.309 7.8 8.47 7.55
8/23/2021 5:45:00 AM 20.53 68.954 0.306 7.8 22.4 7.53
8/23/2021 6:00:00 AM 20.5 68.9 0.309 7.79 18.71 7.51
8/23/2021 6:15:00 AM 20.47 68.846 0.31 7.8 11.01 7.54
8/23/2021 6:30:00 AM 20.45 68.81 0.311 7.8 9.11 7.53
8/23/2021 6:45:00 AM 20.42 68.756 0.312 7.79 14.9 7.54
8/23/2021 7:00:00 AM 20.4 68.72 0.312 7.79 13.5 7.43
8/23/2021 7:15:00 AM 20.37 68.666 0.313 7.79 51.57 7.47
8/23/2021 7:30:00 AM 20.35 68.63 0.313 7.79 10.96 7.58
8/23/2021 7:45:00 AM 20.33 68.594 0.313 7.79 8.23 7.46
8/23/2021 8:00:00 AM 20.32 68.576 0.313 7.8 10.62 7.59
8/23/2021 8:15:00 AM 20.3 68.54 0.313 7.8 14.94 7.53
8/23/2021 8:30:00 AM 20.31 68.558 0.313 7.8 8.47 7.44
8/23/2021 8:45:00 AM 20.3 68.54 0.312 7.8 16.34 7.5
8/23/2021 9:00:00 AM 20.33 68.594 0.313 7.79 10.01 7.6
8/23/2021 9:15:00 AM 20.39 68.702 0.313 7.79 9.05 7.77
8/23/2021 9:30:00 AM 20.51 68.918 0.314 7.82 9.51 7.86
8/23/2021 9:45:00 AM 20.61 69.098 0.315 7.83 5.39 7.93
8/23/2021 10:00:00 AM 20.7 69.26 0.316 7.84 10.44 8.02
8/23/2021 10:15:00 AM 20.82 69.476 0.317 7.84 8.55 8.01
8/23/2021 10:30:00 AM 20.85 69.53 0.317 7.86 181 8.13
8/23/2021 10:45:00 AM 20.92 69.656 0.317 7.87 192.7 8.08
8/23/2021 11:00:00 AM 20.99 69.782 0.316 7.89 185.8 8.27
8/23/2021 11:15:00 AM 21.08 69.944 0.316 7.9 164.2 8.29
8/23/2021 11:30:00 AM 21.18 70.124 0.315 7.9 130.7 8.29
8/23/2021 11:45:00 AM 21.27 70.286 0.315 7.91 306.3 8.35
8/23/2021 12:00:00 PM 21.37 70.466 0.315 7.93 89.49 8.42
8/23/2021 12:15:00 PM 21.48 70.664 0.315 7.94 101.6 8.45
8/23/2021 12:30:00 PM 21.61 70.898 0.315 7.96 80.72 8.58
8/23/2021 12:45:00 PM 21.69 71.042 0.315 7.97 93.39 8.57
8/23/2021 1:00:00 PM 21.79 71.222 0.315 7.99 71.32 8.67
8/23/2021 1:15:00 PM 21.91 71.438 0.315 7.98 60.42 8.55
8/23/2021 1:30:00 PM 22.04 71.672 0.315 8 52.33 8.72
8/23/2021 1:45:00 PM 22.16 71.888 0.315 8.02 62.79 8.76
8/23/2021 2:00:00 PM 22.29 72.122 0.314 8.03 60.95 8.84
8/23/2021 2:15:00 PM 22.39 72.302 0.314 8.03 43.53 8.78
8/23/2021 2:30:00 PM 22.5 72.5 0.313 8.05 53.77 8.83
8/23/2021 2:45:00 PM 22.63 72.734 0.312 8.07 52.92 8.82
8/23/2021 3:00:00 PM 22.75 72.95 0.312 8.07 53.35 8.84
8/23/2021 3:15:00 PM 22.86 73.148 0.308 8.07 82.52 8.87
8/23/2021 3:30:00 PM 22.97 73.346 0.311 8.08 113.5 8.92
8/23/2021 3:45:00 PM 23.06 73.508 0.312 8.09 62.11 8.9
8/23/2021 4:00:00 PM 23.16 73.688 0.308 8.09 45.99 8.89
8/23/2021 4:15:00 PM 23.23 73.814 0.312 8.11 57.28 8.87
8/23/2021 4:30:00 PM 23.29 73.922 0.312 8.12 41.18 8.84
8/23/2021 4:45:00 PM 23.35 74.03 0.312 8.12 48.58 8.84
8/23/2021 5:00:00 PM 23.4 74.12 0.311 8.13 2118 8.84
8/23/2021 5:15:00 PM 23.43 74.174 0.311 8.12 55 8.75
8/23/2021 5:30:00 PM 23.46 74.228 0.31 8.13 36.6 8.72
8/23/2021 5:45:00 PM 23.49 74.282 0.31 8.12 43.08 8.73
8/23/2021 6:00:00 PM 23.5 74.3 0.31 8.13 43.8 8.61
8/23/2021 6:15:00 PM 23.5 74.3 0.31 8.12 37.46 8.63
8/23/2021 6:30:00 PM 23.49 74.282 0.31 8.12 38.6 8.56
8/23/2021 6:45:00 PM 23.47 74.246 0.31 8.13 911.3 8.47
8/23/2021 7:00:00 PM 23.44 74.192 0.31 8.14 3339 8.49
8/23/2021 7:15:00 PM 23.4 74.12 0.311 8.13 86.42 8.36
8/23/2021 7:30:00 PM 23.36 74.048 0.312 8.12 49.22 8.31
8/23/2021 7:45:00 PM 23.32 73.976 0.311 8.13 42.69 8.24
8/23/2021 8:00:00 PM 23.27 73.886 0.311 8.1 67.43 8.16
8/23/2021 8:15:00 PM 23.22 73.796 0.31 8.1 40.64 8.13
8/23/2021 8:30:00 PM 23.17 73.706 0.31 8.09 19.7 8.06
8/23/2021 8:45:00 PM 23.13 73.634 0.31 8.08 16.7 7.97
8/23/2021 9:00:00 PM 23.08 73.544 0.31 8.07 16.16 7.87
8/23/2021 9:15:00 PM 23.03 73.454 0.31 8.06 19.64 7.82
8/23/2021 9:30:00 PM 22.98 73.364 0.31 8.05 14.28 7.77
8/23/2021 9:45:00 PM 22.93 73.274 0.311 8.03 16.29 7.74
8/23/2021 10:00:00 PM 22.89 73.202 0.312 8.02 15.06 7.69
8/23/2021 10:15:00 PM 22.84 73.112 0.314 8.01 11.28 7.62
8/23/2021 10:30:00 PM 22.79 73.022 0.315 7.99 10.75 7.54
8/23/2021 10:45:00 PM 22.75 72.95 0.316 7.98 20.32 7.49
8/23/2021 11:00:00 PM 22.71 72.878 0.316 7.97 18.04 7.46
8/23/2021 11:15:00 PM 22.68 72.824 0.316 7.96 15.59 7.43
8/23/2021 11:30:00 PM 22.64 72.752 0.316 7.95 15.23 7.35
8/23/2021 11:45:00 PM 22.6 72.68 0.315 7.94 25.49 7.36
8/24/2021 12:00:00 AM 22.58 72.644 0.314 7.94 26.83 7.31
8/24/2021 12:15:00 AM 22.55 72.59 0.313 7.93 30.47 7.29
8/24/2021 12:30:00 AM 22.52 72.536 0.312 7.92 46.17 7.28
8/24/2021 12:45:00 AM 22.49 72.482 0.312 7.91 47.32 7.26
8/24/2021 1:00:00 AM 22.47 72.446 0.313 7.9 35.89 7.2
8/24/2021 1:15:00 AM 22.45 72.41 0.314 7.9 31.07 7.2
8/24/2021 1:30:00 AM 22.42 72.356 0.315 7.89 33.7 7.15
8/24/2021 1:45:00 AM 22.39 72.302 0.316 7.88 50.89 7.13
8/24/2021 2:00:00 AM 22.37 72.266 0.316 7.87 39.76 7.16
8/24/2021 2:15:00 AM 22.35 72.23 0.316 7.87 21.12 7.15
8/24/2021 2:30:00 AM 22.32 72.176 0.316 7.87 27.19 7.16
8/24/2021 2:45:00 AM 22.3 72.14 0.316 7.87 24.89 7.16
8/24/2021 3:00:00 AM 22.26 72.068 0.315 7.86 43.77 7.13
8/24/2021 3:15:00 AM 22.23 72.014 0.314 7.86 40.69 7.14
8/24/2021 3:30:00 AM 22.2 71.96 0.314 7.86 21.48 7.14
8/24/2021 3:45:00 AM 22.16 71.888 0.314 7.85 21.5 7.11
8/24/2021 4:00:00 AM 22.12 71.816 0.314 7.85 22.41 7.12
8/24/2021 4:15:00 AM 22.08 71.744 0.314 7.85 25.92 7.14
8/24/2021 4:30:00 AM 22.03 71.654 0.315 7.85 29.64 7.14
8/24/2021 4:45:00 AM 21.98 71.564 0.315 7.84 26.6 7.13
8/24/2021 5:00:00 AM 21.93 71.474 0.316 7.84 40.16 7.12
8/24/2021 5:15:00 AM 21.89 71.402 0.316 7.83 45 7.12
8/24/2021 5:30:00 AM 21.84 71.312 0.315 7.83 48.59 7.16
8/24/2021 5:45:00 AM 21.78 71.204 0.315 7.82 57.46 7.14
8/24/2021 6:00:00 AM 21.73 71.114 0.315 7.82 52.43 7.16
8/24/2021 6:15:00 AM 21.68 71.024 0.314 7.82 47.84 7.09
8/24/2021 6:30:00 AM 21.62 70.916 0.314 7.81 57.7 7.13
8/24/2021 6:45:00 AM 21.57 70.826 0.314 7.81 32.15 7.22
8/24/2021 7:00:00 AM 21.52 70.736 0.314 7.81 28.51 7.19
8/24/2021 7:15:00 AM 21.48 70.664 0.315 7.81 28.43 7.25
8/24/2021 7:30:00 AM 21.44 70.592 0.316 7.81 41.08 7.28
8/24/2021 7:45:00 AM 21.4 70.52 0.316 7.81 33.28 7.28
8/24/2021 8:00:00 AM 21.37 70.466 0.317 7.8 144.5 7.29
8/24/2021 8:15:00 AM 21.35 70.43 0.317 7.81 17.33 7.35
8/24/2021 8:30:00 AM 21.34 70.412 0.317 7.81 18.18 7.38
8/24/2021 8:45:00 AM 21.34 70.412 0.317 7.8 26.61 7.35
8/24/2021 9:00:00 AM 21.34 70.412 0.316 7.8 19.85 7.41
8/24/2021 9:15:00 AM 21.41 70.538 0.315 7.81 19.82 7.5
8/24/2021 9:30:00 AM 21.53 70.754 0.315 7.81 22.06 7.46
8/24/2021 9:45:00 AM 21.63 70.934 0.315 7.82 11.71 7.66
8/24/2021 10:00:00 AM 21.68 71.024 0.314 7.84 13.55 7.8
8/24/2021 10:15:00 AM 21.76 71.168 0.314 7.85 13.13 7.83
8/24/2021 10:30:00 AM 21.81 71.258 0.315 7.86 12.66 7.85
8/24/2021 10:45:00 AM 21.88 71.384 0.316 7.87 13.61 8.01
8/24/2021 11:00:00 AM 21.95 71.51 0.316 7.88 13.65 7.92
8/24/2021 11:15:00 AM 22.01 71.618 0.316 7.89 13.81 8.12
8/24/2021 11:30:00 AM 22.09 71.762 0.316 7.9 11.7 8.11
8/24/2021 11:45:00 AM 22.16 71.888 0.315 7.92 12.56 8.38
8/24/2021 12:00:00 PM 22.26 72.068 0.314 7.93 58.25 8.33
8/24/2021 12:15:00 PM 22.34 72.212 0.313 7.94 13.73 8.42
8/24/2021 12:30:00 PM 22.43 72.374 0.312 7.96 17.57 8.53
8/24/2021 12:45:00 PM 22.53 72.554 0.311 7.98 15.96 8.53
8/24/2021 1:00:00 PM 22.63 72.734 0.311 8 17.62 8.63
8/24/2021 1:15:00 PM 22.72 72.896 0.311 7.95 134.2 8.33
8/24/2021 1:30:00 PM 22.8 73.04 0.311 7.98 89.04 8.7
8/24/2021 1:45:00 PM 22.93 73.274 0.311 8.02 82.06 8.83
8/24/2021 2:00:00 PM 23.03 73.454 0.311 8.04 57.49 8.79
8/24/2021 2:15:00 PM 23.14 73.652 0.31 8.06 97.04 8.83
8/24/2021 2:30:00 PM 23.24 73.832 0.311 8.06 16.61 8.83
8/24/2021 2:45:00 PM 23.34 74.012 0.31 8.09 15.56 8.92
8/24/2021 3:00:00 PM 23.44 74.192 0.309 8.11 17.72 8.92
8/24/2021 3:15:00 PM 23.53 74.354 0.309 8.11 18.12 8.87
8/24/2021 3:30:00 PM 23.62 74.516 0.308 8.12 21.61 8.89
8/24/2021 3:45:00 PM 23.69 74.642 0.307 8.14 19.63 8.94
8/24/2021 4:00:00 PM 23.76 74.768 0.307 8.14 21.27 8.86
8/24/2021 4:15:00 PM 23.84 74.912 0.306 8.15 19.42 8.96
8/24/2021 4:30:00 PM 23.91 75.038 0.305 8.16 18.79 8.85
8/24/2021 4:45:00 PM 23.97 75.146 0.304 8.16 15.42 8.84
8/24/2021 5:00:00 PM 24.01 75.218 0.304 8.17 12.84 8.88
8/24/2021 5:15:00 PM 24.05 75.29 0.304 8.17 21.27 8.82
8/24/2021 5:30:00 PM 24.07 75.326 0.303 8.18 15.39 8.81
8/24/2021 5:45:00 PM 24.09 75.362 0.303 8.18 18.77 8.77
8/24/2021 6:00:00 PM 24.1 75.38 0.303 8.18 18.93 8.73
8/24/2021 6:15:00 PM 24.1 75.38 0.303 8.18 21.64 8.7
8/24/2021 6:30:00 PM 24.09 75.362 0.303 8.18 29.5 8.64
8/24/2021 6:45:00 PM 24.07 75.326 0.303 8.18 31.63 8.59
8/24/2021 7:00:00 PM 24.03 75.254 0.304 8.17 38.13 8.46
8/24/2021 7:15:00 PM 24 75.2 0.304 8.16 11.99 8.42
8/24/2021 7:30:00 PM 23.96 75.128 0.304 8.15 12.01 8.32
8/24/2021 7:45:00 PM 23.92 75.056 0.304 8.15 20.09 8.26
8/24/2021 8:00:00 PM 23.87 74.966 0.304 8.13 17.33 8.13
8/24/2021 8:15:00 PM 23.82 74.876 0.305 8.12 10.01 8
8/24/2021 8:30:00 PM 23.77 74.786 0.305 8.11 12.61 7.86
8/24/2021 8:45:00 PM 23.73 74.714 0.304 8.1 11.16 7.87
8/24/2021 9:00:00 PM 23.69 74.642 0.305 8.09 11.6 7.79
8/24/2021 9:15:00 PM 23.64 74.552 0.305 8.08 12.19 7.74
8/24/2021 9:30:00 PM 23.59 74.462 0.306 8.07 11.87 7.66
8/24/2021 9:45:00 PM 23.53 74.354 0.308 8.05 11.51 7.58
8/24/2021 10:00:00 PM 23.47 74.246 0.311 8.04 11.37 7.51
8/24/2021 10:15:00 PM 23.43 74.174 0.313 8.02 11.57 7.49
8/24/2021 10:30:00 PM 23.38 74.084 0.315 8.01 11.74 7.44
8/24/2021 10:45:00 PM 23.32 73.976 0.317 7.99 12.69 7.4
8/24/2021 11:00:00 PM 23.27 73.886 0.318 7.98 11.22 7.33
8/24/2021 11:15:00 PM 23.22 73.796 0.318 7.97 14.08 7.33
8/24/2021 11:30:00 PM 23.17 73.706 0.318 7.95 15.94 7.31
8/24/2021 11:45:00 PM 23.13 73.634 0.317 7.94 13.86 7.23
8/25/2021 12:00:00 AM 23.08 73.544 0.317 7.94 13.3 7.2
8/25/2021 12:15:00 AM 23.04 73.472 0.316 7.93 12.23 7.2
8/25/2021 12:30:00 AM 23 73.4 0.316 7.92 22.67 7.18
8/25/2021 12:45:00 AM 22.96 73.328 0.317 7.92 11.65 7.1
8/25/2021 1:00:00 AM 22.93 73.274 0.318 7.91 16.08 7.11
8/25/2021 1:15:00 AM 22.89 73.202 0.319 7.91 10.25 7.11
8/25/2021 1:30:00 AM 22.86 73.148 0.321 7.9 13.9 7.07
8/25/2021 1:45:00 AM 22.83 73.094 0.322 7.89 11.71 7.07
8/25/2021 2:00:00 AM 22.79 73.022 0.322 7.89 15.22 7.08
8/25/2021 2:15:00 AM 22.76 72.968 0.322 7.89 9.93 7.07
8/25/2021 2:30:00 AM 22.72 72.896 0.322 7.89 11.08 7.04
8/25/2021 2:45:00 AM 22.68 72.824 0.321 7.88 8.54 7.02
8/25/2021 3:00:00 AM 22.66 72.788 0.32 7.88 10.93 7.04
8/25/2021 3:15:00 AM 22.62 72.716 0.319 7.88 9.63 7.05
8/25/2021 3:30:00 AM 22.59 72.662 0.319 7.87 9.42 7.06
8/25/2021 3:45:00 AM 22.54 72.57201 0.319 7.87 15.02 7.01
8/25/2021 4:00:00 AM 22.5 72.5 0.32 7.86 16.54 7.02
8/25/2021 4:15:00 AM 22.45 72.41 0.321 7.84 15.8 6.93
8/25/2021 4:30:00 AM 22.41 72.338 0.322 7.84 12.7 6.96
8/25/2021 4:45:00 AM 22.36 72.248 0.312 7.84 13.46 7
8/25/2021 5:00:00 AM 22.31 72.158 0.323 7.83 13.24 6.96
8/25/2021 5:15:00 AM 22.27 72.086 0.323 7.84 16.24 6.72
8/25/2021 5:30:00 AM 22.21 71.978 0.323 7.83 13.33 7.02
8/25/2021 5:45:00 AM 22.16 71.888 0.322 7.84 17.14 7.03
8/25/2021 6:00:00 AM 22.11 71.798 0.321 7.84 13.42 7.03
8/25/2021 6:15:00 AM 22.05 71.69 0.321 7.83 19.15 7.05
8/25/2021 6:30:00 AM 22 71.6 0.321 7.83 13.11 7.1
8/25/2021 6:45:00 AM 21.94 71.492 0.322 7.82 15.82 7.03
8/25/2021 7:00:00 AM 21.89 71.402 0.323 7.82 12.54 7.09
8/25/2021 7:15:00 AM 21.84 71.312 0.324 7.82 14.94 7.13
8/25/2021 7:30:00 AM 21.8 71.24 0.325 7.82 13.61 7.16
8/25/2021 7:45:00 AM 21.76 71.168 0.326 7.81 13.01 7.08
8/25/2021 8:00:00 AM 21.73 71.114 0.326 7.8 12.21 7.15
8/25/2021 8:15:00 AM 21.71 71.078 0.326 7.8 12.91 7.21
8/25/2021 8:30:00 AM 21.69 71.042 0.326 7.8 11.17 7.28
8/25/2021 8:45:00 AM 21.69 71.042 0.325 7.8 12.52 7.32
8/25/2021 9:00:00 AM 21.69 71.042 0.325 7.78 11.33 7.51
8/25/2021 9:15:00 AM 21.76 71.168 0.339 7.6 7.52 7.89
8/25/2021 9:30:00 AM 21.87 71.366 0.339 7.82 6.46 7.94
8/25/2021 9:45:00 AM 21.96 71.528 0.339 7.86 3.96 8.05
8/25/2021 10:00:00 AM 22.05 71.69 0.34 7.91 9.26 8.09
8/25/2021 10:15:00 AM 22.1 71.78 0.342 7.93 5.52 8.21
8/25/2021 10:30:00 AM 22.16 71.888 0.343 7.93 7.1 8.31
8/25/2021 10:45:00 AM 22.25 72.05 0.344 7.95 4.19 8.35
8/25/2021 11:00:00 AM 22.3 72.14 0.344 7.95 5.14 8.46
8/25/2021 11:15:00 AM 22.37 72.266 0.344 7.97 4.82 8.58
8/25/2021 11:30:00 AM 22.44 72.392 0.343 7.99 4.62 8.66
8/25/2021 11:45:00 AM 22.54 72.57201 0.342 8.01 6.11 8.73
8/25/2021 12:00:00 PM 22.64 72.752 0.341 8.02 8.62 8.81
8/25/2021 12:15:00 PM 22.73 72.914 0.341 8.04 5.67 8.83
8/25/2021 12:30:00 PM 22.82 73.076 0.339 8.06 4.45 8.95
8/25/2021 12:45:00 PM 22.91 73.238 0.295 8.09 9.2 8.97
8/25/2021 1:00:00 PM 23.03 73.454 0.284 8.11 7.58 9.09
8/25/2021 1:15:00 PM 23.13 73.634 0.315 8.11 5.07 9.11
8/25/2021 1:30:00 PM 23.23 73.814 0.311 8.13 10.05 9.14
8/25/2021 1:45:00 PM 23.33 73.994 0.313 8.13 6.08 9.19
8/25/2021 2:00:00 PM 23.43 74.174 0.339 8.17 4.09 9.27
8/25/2021 2:15:00 PM 23.53 74.354 0.339 8.18 5.92 9.3
8/25/2021 2:30:00 PM 23.64 74.552 0.324 8.19 5.07 9.34
8/25/2021 2:45:00 PM 23.76 74.768 0.325 8.22 7.74 9.35
8/25/2021 3:00:00 PM 23.87 74.966 0.326 8.23 5.24 9.39
8/25/2021 3:15:00 PM 23.96 75.128 0.325 8.25 3.16 9.38
8/25/2021 3:30:00 PM 24.05 75.29 0.333 8.26 4.14 9.41
8/25/2021 3:45:00 PM 24.13 75.434 0.332 8.27 5.94 9.4
8/25/2021 4:00:00 PM 24.21 75.578 0.331 8.28 5.27 9.38
8/25/2021 4:15:00 PM 24.29 75.722 0.331 8.29 5.81 9.39
8/25/2021 4:30:00 PM 24.37 75.866 0.331 8.32 3.79 9.4
8/25/2021 4:45:00 PM 24.43 75.974 0.331 8.32 5.99 9.36
8/25/2021 5:00:00 PM 24.47 76.046 0.331 8.33 5.86 9.38
8/25/2021 5:15:00 PM 24.49 76.082 0.33 8.33 4.09 9.32
8/25/2021 5:30:00 PM 24.51 76.118 0.329 8.33 4.5 9.27
8/25/2021 5:45:00 PM 24.52 76.136 0.329 8.34 4.15 9.24
8/25/2021 6:00:00 PM 24.52 76.136 0.329 8.33 3.97 9.16
8/25/2021 6:15:00 PM 24.51 76.118 0.328 8.33 4.62 9.1
8/25/2021 6:30:00 PM 24.48 76.064 0.329 8.33 5.89 9
8/25/2021 6:45:00 PM 24.45 76.01 0.328 8.32 5.06 8.95
8/25/2021 7:00:00 PM 24.42 75.956 0.329 8.32 4.45 8.9
8/25/2021 7:15:00 PM 24.39 75.902 0.329 8.32 4.3 8.8
8/25/2021 7:30:00 PM 24.35 75.83 0.329 8.3 3.46 8.72
8/25/2021 7:45:00 PM 24.3 75.74 0.328 8.29 5.33 8.61
8/25/2021 8:00:00 PM 24.25 75.65 0.315 8.28 4.47 8.55
8/25/2021 8:15:00 PM 24.21 75.578 0.33 8.28 7.74 8.45
8/25/2021 8:30:00 PM 24.16 75.488 0.33 8.25 7.16 8.33
8/25/2021 8:45:00 PM 24.12 75.416 0.329 8.24 7.33 8.26
8/25/2021 9:00:00 PM 24.08 75.344 0.33 8.23 12.72 8.17
8/25/2021 9:15:00 PM 24.04 75.272 0.33 8.22 6.17 8.08
8/25/2021 9:30:00 PM 24.01 75.218 0.33 8.21 5.95 8.02
8/25/2021 9:45:00 PM 23.96 75.128 0.331 8.19 7.84 7.95
8/25/2021 10:00:00 PM 23.91 75.038 0.319 8.17 3.89 7.86
8/25/2021 10:15:00 PM 23.88 74.984 0.335 8.15 6.15 7.8
8/25/2021 10:30:00 PM 23.84 74.912 0.33 8.15 6.26 7.77
8/25/2021 10:45:00 PM 23.79 74.82201 0.338 8.13 5.31 7.68
8/25/2021 11:00:00 PM 23.75 74.75 0.339 8.11 6.31 7.63
8/25/2021 11:15:00 PM 23.71 74.67799 0.339 8.1 5.9 7.59
8/25/2021 11:30:00 PM 23.67 74.606 0.339 8.09 6.69 7.54
8/25/2021 11:45:00 PM 23.62 74.516 0.339 8.09 5.68 7.48
8/26/2021 12:00:00 AM 23.58 74.444 0.338 8.07 5.67 7.44
8/26/2021 12:15:00 AM 23.54 74.372 0.337 8.07 4.22 7.43
8/26/2021 12:30:00 AM 23.49 74.282 0.336 8.06 6.74 7.36
8/26/2021 12:45:00 AM 23.47 74.246 0.336 8.05 8.93 7.37
8/26/2021 1:00:00 AM 23.43 74.174 0.336 8.04 7.77 7.32
8/26/2021 1:15:00 AM 23.4 74.12 0.337 8.04 8.39 7.32
8/26/2021 1:30:00 AM 23.37 74.066 0.338 8.04 4.62 7.3
8/26/2021 1:45:00 AM 23.34 74.012 0.339 8.03 6.79 7.29
8/26/2021 2:00:00 AM 23.29 73.922 0.339 8.02 7.28 7.27
8/26/2021 2:15:00 AM 23.27 73.886 0.34 8.02 7.78 7.26
8/26/2021 2:30:00 AM 23.25 73.85 0.339 8.03 5.14 7.25
8/26/2021 2:45:00 AM 23.22 73.796 0.338 8.02 8.01 7.23
8/26/2021 3:00:00 AM 23.19 73.742 0.337 8.01 10.02 7.23
8/26/2021 3:15:00 AM 23.16 73.688 0.336 8.01 7.88 7.24
8/26/2021 3:30:00 AM 23.12 73.616 0.336 8.01 9.3 7.24
8/26/2021 3:45:00 AM 23.08 73.544 0.335 8.02 7.52 7.25
8/26/2021 4:00:00 AM 23.04 73.472 0.335 8.02 6.28 7.24
8/26/2021 4:15:00 AM 22.99 73.382 0.336 8.01 8.09 7.25
8/26/2021 4:30:00 AM 22.93 73.274 0.336 8.01 7.27 7.24
8/26/2021 4:45:00 AM 22.89 73.202 0.337 8 7.43 7.24
8/26/2021 5:00:00 AM 22.84 73.112 0.337 8 8.68 7.24
8/26/2021 5:15:00 AM 22.79 73.022 0.337 7.99 7.97 7.25
8/26/2021 5:30:00 AM 22.73 72.914 0.336 7.99 8.17 7.25
8/26/2021 5:45:00 AM 22.67 72.806 0.336 7.98 7.89 7.28
8/26/2021 6:00:00 AM 22.62 72.716 0.335 7.97 9.03 7.26
8/26/2021 6:15:00 AM 22.56 72.608 0.335 7.98 8.96 7.29
8/26/2021 6:30:00 AM 22.5 72.5 0.335 7.98 8.96 7.3
8/26/2021 6:45:00 AM 22.44 72.392 0.335 7.97 7.91 7.31
8/26/2021 7:00:00 AM 22.38 72.284 0.335 7.96 11 7.33
8/26/2021 7:15:00 AM 22.33 72.194 0.336 7.96 8.47 7.34
8/26/2021 7:30:00 AM 22.29 72.122 0.337 7.96 9.45 7.37
8/26/2021 7:45:00 AM 22.24 72.032 0.337 7.96 6.29 7.4
8/26/2021 8:00:00 AM 22.21 71.978 0.338 7.96 7.94 7.43
8/26/2021 8:15:00 AM 22.18 71.924 0.339 7.95 11.29 7.45
8/26/2021 8:30:00 AM 22.16 71.888 0.339 7.96 6.77 7.49
8/26/2021 8:45:00 AM 22.16 71.888 0.339 7.96 8.51 7.56
8/26/2021 9:00:00 AM 22.16 71.888 0.338 7.96 4.5 7.61
8/26/2021 9:15:00 AM 22.23 72.014 0.338 7.96 4.35 7.7
8/26/2021 9:30:00 AM 22.35 72.23 0.338 7.96 5.25 7.8
8/26/2021 9:45:00 AM 22.43 72.374 0.338 7.97 6.22 7.93
8/26/2021 10:00:00 AM 22.5 72.5 0.339 7.98 3.69 7.97
8/26/2021 10:15:00 AM 22.59 72.662 0.34 7.97 3.34 8.04
8/26/2021 10:30:00 AM 22.64 72.752 0.34 7.99 2.53 8.22
8/26/2021 10:45:00 AM 22.66 72.788 0.341 8 4.87 8.3
8/26/2021 11:00:00 AM 22.72 72.896 0.342 8.02 4.81 8.45
8/26/2021 11:15:00 AM 22.78 73.004 0.342 8.03 4.15 8.47
8/26/2021 11:30:00 AM 22.85 73.13 0.342 8.06 4.68 8.62
8/26/2021 11:45:00 AM 22.91 73.238 0.342 8.07 1.58 8.63
8/26/2021 12:00:00 PM 22.99 73.382 0.341 8.08 3.5 8.79
8/26/2021 12:15:00 PM 23.08 73.544 0.341 8.1 4.7 8.86
8/26/2021 12:30:00 PM 23.17 73.706 0.34 8.11 4.75 8.9
8/26/2021 12:45:00 PM 23.26 73.868 0.339 8.14 5.92 9.03
8/26/2021 1:00:00 PM 23.37 74.066 0.339 8.17 5.09 9.14
8/26/2021 1:15:00 PM 23.45 74.21 0.339 8.19 3.75 9.14
8/26/2021 1:30:00 PM 23.55 74.39 0.339 8.2 3.95 9.17
8/26/2021 1:45:00 PM 23.65 74.57 0.34 8.22 5.14 9.27
8/26/2021 2:00:00 PM 23.76 74.768 0.34 8.23 3.39 9.32
8/26/2021 2:15:00 PM 23.87 74.966 0.339 8.26 3.19 9.36
8/26/2021 2:30:00 PM 23.97 75.146 0.339 8.27 3.83 9.39
8/26/2021 2:45:00 PM 24.08 75.344 0.338 8.28 3.59 9.39
8/26/2021 3:00:00 PM 24.17 75.506 0.337 8.3 6.07 9.42
8/26/2021 3:15:00 PM 24.26 75.668 0.336 8.31 5.86 9.45
8/26/2021 3:30:00 PM 24.35 75.83 0.336 8.33 4.02 9.45
8/26/2021 3:45:00 PM 24.44 75.992 0.335 8.33 4.54 9.46
8/26/2021 4:00:00 PM 24.51 76.118 0.334 8.35 3.46 9.44
8/26/2021 4:15:00 PM 24.58 76.244 0.333 8.36 5.13 9.44
8/26/2021 4:30:00 PM 24.64 76.352 0.333 8.37 4.71 9.42
8/26/2021 4:45:00 PM 24.69 76.442 0.333 8.38 4.1 9.39
8/26/2021 5:00:00 PM 24.73 76.514 0.333 8.38 6.33 9.35
8/26/2021 5:15:00 PM 24.76 76.568 0.333 8.38 4.87 9.31
8/26/2021 5:30:00 PM 24.79 76.622 0.332 8.39 4.91 9.29
8/26/2021 5:45:00 PM 24.8 76.64 0.332 8.39 3.89 9.21
8/26/2021 6:00:00 PM 24.8 76.64 0.331 8.39 4.89 9.16
8/26/2021 6:15:00 PM 24.79 76.622 0.331 8.38 4.92 9.1
8/26/2021 6:30:00 PM 24.77 76.586 0.331 8.39 4.83 9.01
8/26/2021 6:45:00 PM 24.74 76.532 0.33 8.39 4.5 8.97
8/26/2021 7:00:00 PM 24.71 76.478 0.331 8.37 4.16 8.87
8/26/2021 7:15:00 PM 24.66 76.388 0.33 8.37 4.71 8.82
8/26/2021 7:30:00 PM 24.62 76.316 0.331 8.37 5.68 8.72
8/26/2021 7:45:00 PM 24.56 76.208 0.331 8.35 4.43 8.62
8/26/2021 8:00:00 PM 24.51 76.118 0.332 8.33 6.27 8.5
8/26/2021 8:15:00 PM 24.46 76.028 0.332 8.33 3.12 8.4
8/26/2021 8:30:00 PM 24.4 75.92 0.332 8.31 4.73 8.32
8/26/2021 8:45:00 PM 24.36 75.848 0.332 8.3 6.23 8.25
8/26/2021 9:00:00 PM 24.3 75.74 0.332 8.28 6.8 8.16
8/26/2021 9:15:00 PM 24.25 75.65 0.331 8.27 6.01 8.07
8/26/2021 9:30:00 PM 24.19 75.542 0.331 8.26 3.09 8
8/26/2021 9:45:00 PM 24.14 75.452 0.332 8.23 5.44 7.93
8/26/2021 10:00:00 PM 24.09 75.362 0.333 8.24 3.5 7.86
8/26/2021 10:15:00 PM 24.03 75.254 0.334 8.21 6.4 7.8
8/26/2021 10:30:00 PM 23.98 75.164 0.335 8.19 8.77 7.73
8/26/2021 10:45:00 PM 23.92 75.056 0.336 8.17 6.92 7.67
8/26/2021 11:00:00 PM 23.87 74.966 0.337 8.16 7.6 7.6
8/26/2021 11:15:00 PM 23.82 74.876 0.337 8.14 5.61 7.56
8/26/2021 11:30:00 PM 23.77 74.786 0.337 8.13 8.27 7.48
8/26/2021 11:45:00 PM 23.73 74.714 0.337 8.12 6.18 7.44
8/27/2021 12:00:00 AM 23.69 74.642 0.336 8.11 6.68 7.43
8/27/2021 12:15:00 AM 23.65 74.57 0.336 8.1 6.08 7.39
8/27/2021 12:30:00 AM 23.61 74.498 0.335 8.09 7.68 7.37
8/27/2021 12:45:00 AM 23.57 74.426 0.335 8.08 7.06 7.34
8/27/2021 1:00:00 AM 23.54 74.372 0.335 8.08 6.52 7.31
8/27/2021 1:15:00 AM 23.51 74.318 0.328 8.06 6.02 7.3
8/27/2021 1:30:00 AM 23.48 74.264 0.336 8.06 11.6 7.28
8/27/2021 1:45:00 AM 23.45 74.21 0.337 8.06 6.48 7.26
8/27/2021 2:00:00 AM 23.42 74.156 0.337 8.05 10.42 7.26
8/27/2021 2:15:00 AM 23.39 74.102 0.337 8.05 9.92 7.21
8/27/2021 2:30:00 AM 23.36 74.048 0.337 8.04 7.97 7.23
8/27/2021 2:45:00 AM 23.33 73.994 0.337 8.04 8.45 7.21
8/27/2021 3:00:00 AM 23.3 73.94 0.337 8.05 2.91 7.19
8/27/2021 3:15:00 AM 23.27 73.886 0.336 8.04 8.4 7.22
8/27/2021 3:30:00 AM 23.24 73.832 0.335 8.03 6.16 7.2
8/27/2021 3:45:00 AM 23.21 73.778 0.335 8.02 6.99 7.21
8/27/2021 4:00:00 AM 23.17 73.706 0.336 8.02 8.11 7.21
8/27/2021 4:15:00 AM 23.14 73.652 0.336 8.02 7.64 7.18
8/27/2021 4:30:00 AM 23.11 73.598 0.337 8.02 8.5 7.19
8/27/2021 4:45:00 AM 23.08 73.544 0.338 8.01 7.38 7.2
8/27/2021 5:00:00 AM 23.04 73.472 0.338 8.02 3.58 7.2
8/27/2021 5:15:00 AM 23.01 73.418 0.339 8 9.52 7.19
8/27/2021 5:30:00 AM 22.97 73.346 0.339 7.99 8.01 7.18
8/27/2021 5:45:00 AM 22.94 73.292 0.338 7.99 8.83 7.19
8/27/2021 6:00:00 AM 22.89 73.202 0.338 7.99 5.83 7.19
8/27/2021 6:15:00 AM 22.85 73.13 0.338 7.99 10.31 7.2
8/27/2021 6:30:00 AM 22.81 73.058 0.338 7.97 10.64 7.2
8/27/2021 6:45:00 AM 22.77 72.986 0.338 7.96 9.49 7.2
8/27/2021 7:00:00 AM 22.73 72.914 0.338 7.96 8.73 7.21
8/27/2021 7:15:00 AM 22.69 72.842 0.339 7.96 9.19 7.23
8/27/2021 7:30:00 AM 22.66 72.788 0.34 7.96 9.36 7.27
8/27/2021 7:45:00 AM 22.64 72.752 0.341 7.95 7.83 7.3
8/27/2021 8:00:00 AM 22.62 72.716 0.342 7.95 8.05 7.35
8/27/2021 8:15:00 AM 22.61 72.698 0.342 7.95 5.66 7.42
8/27/2021 8:30:00 AM 22.6 72.68 0.342 7.96 4.93 7.49
8/27/2021 8:45:00 AM 22.59 72.662 0.342 7.96 6.43 7.46
8/27/2021 9:00:00 AM 22.57 72.626 0.342 7.95 4.56 7.59
8/27/2021 9:15:00 AM 22.55 72.59 0.341 7.96 3.88 7.62
8/27/2021 9:30:00 AM 22.52 72.536 0.341 7.96 5.75 7.67
8/27/2021 9:45:00 AM 22.52 72.536 0.34 7.96 5.69 7.71
8/27/2021 10:00:00 AM 22.53 72.554 0.341 7.97 2.83 7.78
8/27/2021 10:15:00 AM 22.56 72.608 0.341 7.97 4.79 7.89
8/27/2021 10:30:00 AM 22.59 72.662 0.343 7.98 4.07 7.95
8/27/2021 10:45:00 AM 22.62 72.716 0.343 7.99 6.7 8.1
8/27/2021 11:00:00 AM 22.68 72.824 0.343 7.98 4.48 8.16
8/27/2021 11:15:00 AM 22.7 72.86 0.344 8.01 3.89 8.32
8/27/2021 11:30:00 AM 22.74 72.932 0.345 8.03 3.72 8.49
8/27/2021 11:45:00 AM 22.81 73.058 0.344 8.04 3.09 8.49
8/27/2021 12:00:00 PM 22.85 73.13 0.343 8.07 4.7 8.7
8/27/2021 12:15:00 PM 22.94 73.292 0.343 8.09 3.03 8.84
8/27/2021 12:30:00 PM 23.05 73.49 0.342 8.11 5.33 8.92
8/27/2021 12:45:00 PM 23.14 73.652 0.34 8.13 4.7 9.05
8/27/2021 1:00:00 PM 23.24 73.832 0.34 8.14 3.92 9.05
8/27/2021 1:15:00 PM 23.31 73.958 0.34 8.16 3.81 9.18
8/27/2021 1:30:00 PM 23.38 74.084 0.339 8.17 3.74 9.2
8/27/2021 1:45:00 PM 23.49 74.282 0.339 8.2 4.18 9.25
8/27/2021 2:00:00 PM 23.59 74.462 0.34 8.22 3.42 9.34
8/27/2021 2:15:00 PM 23.72 74.696 0.339 8.24 3.67 9.43
8/27/2021 2:30:00 PM 23.84 74.912 0.338 8.27 3.88 9.5
8/27/2021 2:45:00 PM 23.95 75.11 0.338 8.29 4.82 9.59
8/27/2021 3:00:00 PM 24.01 75.218 0.337 8.3 3.71 9.62
8/27/2021 3:15:00 PM 24.05 75.29 0.336 8.32 5.22 9.64
8/27/2021 3:30:00 PM 24.05 75.29 0.335 8.33 3.82 9.58
8/27/2021 3:45:00 PM 24.05 75.29 0.334 8.34 3.22 9.52
8/27/2021 4:00:00 PM 24.07 75.326 0.334 8.33 4.85 9.42
8/27/2021 4:15:00 PM 24.08 75.344 0.333 8.34 3.47 9.38
8/27/2021 4:30:00 PM 24.07 75.326 0.334 8.34 1.94 9.27
8/27/2021 4:45:00 PM 24.06 75.308 0.332 8.33 7.94 9.26
8/27/2021 5:00:00 PM 24.01 75.218 0.332 8.35 3.24 9.29
8/27/2021 5:15:00 PM 23.96 75.128 0.332 8.33 5.2 9.14
8/27/2021 5:30:00 PM 23.93 75.074 0.332 8.32 3.75 9.02
8/27/2021 5:45:00 PM 23.92 75.056 0.332 8.32 4.26 8.95
8/27/2021 6:00:00 PM 23.91 75.038 0.331 8.32 2.89 8.86
8/27/2021 6:15:00 PM 23.87 74.966 0.33 8.32 3.39 8.93
8/27/2021 6:30:00 PM 23.83 74.894 0.33 8.33 2.66 8.86
8/27/2021 6:45:00 PM 23.79 74.82201 0.329 8.32 3.72 8.73
8/27/2021 7:00:00 PM 23.74 74.732 0.329 8.3 4.05 8.59
8/27/2021 7:15:00 PM 23.68 74.624 0.33 8.29 4.46 8.53
8/27/2021 7:30:00 PM 23.63 74.534 0.33 8.28 4.23 8.45
8/27/2021 7:45:00 PM 23.58 74.444 0.33 8.27 4.1 8.37
8/27/2021 8:00:00 PM 23.53 74.354 0.33 8.26 5.55 8.29
8/27/2021 8:15:00 PM 23.48 74.264 0.33 8.25 4.95 8.2
8/27/2021 8:30:00 PM 23.43 74.174 0.329 8.22 4.49 8.14
8/27/2021 8:45:00 PM 23.38 74.084 0.33 8.21 4.43 8.09
8/27/2021 9:00:00 PM 23.34 74.012 0.33 8.19 4.51 7.95
8/27/2021 9:15:00 PM 23.3 73.94 0.33 8.19 1.99 7.92
8/27/2021 9:30:00 PM 23.26 73.868 0.33 8.18 4.01 7.92
8/27/2021 9:45:00 PM 23.22 73.796 0.33 8.18 5.49 7.84
8/27/2021 10:00:00 PM 23.18 73.724 0.331 8.15 7.77 7.74
8/27/2021 10:15:00 PM 23.15 73.67 0.333 8.16 5.79 7.76
8/27/2021 10:30:00 PM 23.11 73.598 0.334 8.14 6.39 7.69
8/27/2021 10:45:00 PM 23.07 73.526 0.336 8.12 6.71 7.63
8/27/2021 11:00:00 PM 23.03 73.454 0.337 8.12 4.18 7.59
8/27/2021 11:15:00 PM 23.01 73.418 0.337 8.11 7.46 7.58
8/27/2021 11:30:00 PM 22.97 73.346 0.337 8.09 8.95 7.55
8/27/2021 11:45:00 PM 22.94 73.292 0.336 8.09 7.44 7.51
8/28/2021 12:00:00 AM 22.91 73.238 0.335 8.08 7.63 7.5
8/28/2021 12:15:00 AM 22.88 73.184 0.334 8.08 13.12 7.48
8/28/2021 12:30:00 AM 22.85 73.13 0.334 8.07 9.91 7.46
8/28/2021 12:45:00 AM 22.82 73.076 0.334 8.06 11.38 7.45
8/28/2021 1:00:00 AM 22.78 73.004 0.334 8.06 7.82 7.44
8/28/2021 1:15:00 AM 22.76 72.968 0.334 8.05 7.13 7.42
8/28/2021 1:30:00 AM 22.73 72.914 0.334 8.05 4 7.39
8/28/2021 1:45:00 AM 22.7 72.86 0.334 8.03 7.84 7.38
8/28/2021 2:00:00 AM 22.67 72.806 0.333 8.05 5.91 7.39
8/28/2021 2:15:00 AM 22.63 72.734 0.332 8.04 7.82 7.37
8/28/2021 2:30:00 AM 22.6 72.68 0.331 8.03 9.46 7.35
8/28/2021 2:45:00 AM 22.57 72.626 0.33 8.01 8.55 7.26
8/28/2021 3:00:00 AM 22.54 72.57201 0.33 8.01 9.26 7.34
8/28/2021 3:15:00 AM 22.51 72.518 0.329 8.01 6.59 7.35
8/28/2021 3:30:00 AM 22.47 72.446 0.328 8 8.91 7.34
8/28/2021 3:45:00 AM 22.44 72.392 0.327 7.98 7.17 7.33
8/28/2021 4:00:00 AM 22.41 72.338 0.327 7.98 11.27 7.3
8/28/2021 4:15:00 AM 22.37 72.266 0.326 7.97 7.81 7.28
8/28/2021 4:30:00 AM 22.35 72.23 0.325 7.97 5.9 7.24
8/28/2021 4:45:00 AM 22.31 72.158 0.324 7.96 5.04 7.22
8/28/2021 5:00:00 AM 22.29 72.122 0.322 7.94 8.19 7.23
8/28/2021 5:15:00 AM 22.26 72.068 0.321 7.94 11.69 7.21
8/28/2021 5:30:00 AM 22.23 72.014 0.32 7.92 10.58 7.19
8/28/2021 5:45:00 AM 22.19 71.942 0.321 7.92 7.83 7.18
8/28/2021 6:00:00 AM 22.15 71.87 0.32 7.91 4.65 7.19
8/28/2021 6:15:00 AM 22.11 71.798 0.319 7.91 10.32 7.23
8/28/2021 6:30:00 AM 22.06 71.708 0.32 7.9 12.05 7.19
8/28/2021 6:45:00 AM 22.03 71.654 0.32 7.9 9.78 7.23
8/28/2021 7:00:00 AM 21.98 71.564 0.321 7.91 8.44 7.16
8/28/2021 7:15:00 AM 21.95 71.51 0.323 7.9 11.33 7.25
8/28/2021 7:30:00 AM 21.91 71.438 0.325 7.9 11.29 7.33
8/28/2021 7:45:00 AM 21.9 71.42 0.326 7.9 7.92 7.32
8/28/2021 8:00:00 AM 21.86 71.348 0.327 7.9 8.49 7.42
8/28/2021 8:15:00 AM 21.86 71.348 0.327 7.91 12.58 7.49
8/28/2021 8:30:00 AM 21.84 71.312 0.328 7.91 7.76 7.52
8/28/2021 8:45:00 AM 21.84 71.312 0.328 7.91 5.08 7.51
8/28/2021 9:00:00 AM 21.82 71.276 0.328 7.9 11.55 7.67
8/28/2021 9:15:00 AM 21.88 71.384 0.328 7.91 7.33 7.74
8/28/2021 9:30:00 AM 21.88 71.384 0.328 7.93 3.81 7.83
8/28/2021 9:45:00 AM 21.85 71.33 0.328 7.94 9.33 7.92
8/28/2021 10:00:00 AM 21.86 71.348 0.329 7.94 7.86 8.01
8/28/2021 10:15:00 AM 21.85 71.33 0.33 7.95 7.03 8.06
8/28/2021 10:30:00 AM 21.86 71.348 0.332 7.96 6.9 8.15
8/28/2021 10:45:00 AM 21.89 71.402 0.333 7.96 6.63 8.18
8/28/2021 11:00:00 AM 21.9 71.42 0.334 7.98 5.66 8.3
8/28/2021 11:15:00 AM 21.92 71.456 0.334 7.99 9.7 8.4
8/28/2021 11:30:00 AM 21.96 71.528 0.335 8.01 5.91 8.52
8/28/2021 11:45:00 AM 22.04 71.672 0.334 8.03 5.67 8.62
8/28/2021 12:00:00 PM 22.16 71.888 0.334 8.04 5.06 8.77
8/28/2021 12:15:00 PM 22.17 71.906 0.334 8.07 3.2 8.84
8/28/2021 12:30:00 PM 22.13 71.834 0.334 8.08 4.16 8.93
8/28/2021 12:45:00 PM 22.17 71.906 0.335 8.09 5 8.99
8/28/2021 1:00:00 PM 22.21 71.978 0.335 8.12 9.26 9.04
8/28/2021 1:15:00 PM 22.23 72.014 0.336 8.12 5.15 9.11
8/28/2021 1:30:00 PM 22.25 72.05 0.336 8.14 12.76 9.09
8/28/2021 1:45:00 PM 22.34 72.212 0.336 8.16 8.98 9.21
8/28/2021 2:00:00 PM 22.41 72.338 0.336 8.18 4.15 9.24
8/28/2021 2:15:00 PM 22.46 72.42799 0.336 8.21 6.92 9.37
8/28/2021 2:30:00 PM 22.5 72.5 0.334 8.22 6.15 9.41
8/28/2021 2:45:00 PM 22.53 72.554 0.335 8.23 6.15 9.42
8/28/2021 3:00:00 PM 22.58 72.644 0.334 8.25 6.68 9.44
8/28/2021 3:15:00 PM 22.63 72.734 0.33 8.27 6.88 9.5
8/28/2021 3:30:00 PM 22.67 72.806 0.334 8.27 6.17 9.52
8/28/2021 3:45:00 PM 22.69 72.842 0.334 8.29 4.17 9.53
8/28/2021 4:00:00 PM 22.72 72.896 0.334 8.3 8.74 9.53
8/28/2021 4:15:00 PM 22.74 72.932 0.334 8.3 5.29 9.53
8/28/2021 4:30:00 PM 22.74 72.932 0.335 8.31 8.32 9.51
8/28/2021 4:45:00 PM 22.73 72.914 0.334 8.31 4.46 9.45
8/28/2021 5:00:00 PM 22.72 72.896 0.334 8.32 28.61 9.4
8/28/2021 5:15:00 PM 22.72 72.896 0.333 8.32 11.42 9.38
8/28/2021 5:30:00 PM 22.72 72.896 0.333 8.32 8.09 9.35
8/28/2021 5:45:00 PM 22.71 72.878 0.333 8.32 8.2 9.3
8/28/2021 6:00:00 PM 22.7 72.86 0.333 8.33 35.55 9.28
8/28/2021 6:15:00 PM 22.69 72.842 0.333 8.32 4.28 9.22
8/28/2021 6:30:00 PM 22.67 72.806 0.333 8.33 9.06 9.11
8/28/2021 6:45:00 PM 22.65 72.77 0.333 8.32 28.06 9.06
8/28/2021 7:00:00 PM 22.62 72.716 0.333 8.31 6.93 8.95
8/28/2021 7:15:00 PM 22.58 72.644 0.333 8.3 12.02 8.85
8/28/2021 7:30:00 PM 22.55 72.59 0.332 8.29 5.82 8.78
8/28/2021 7:45:00 PM 22.51 72.518 0.327 8.28 7.4 8.68
8/28/2021 8:00:00 PM 22.48 72.464 0.331 8.27 6.06 8.62
8/28/2021 8:15:00 PM 22.45 72.41 0.331 8.26 7.03 8.55
8/28/2021 8:30:00 PM 22.42 72.356 0.331 8.25 8 8.48
8/28/2021 8:45:00 PM 22.4 72.32 0.331 8.24 7.62 8.43
8/28/2021 9:00:00 PM 22.38 72.284 0.332 8.24 9.68 8.38
8/28/2021 9:15:00 PM 22.35 72.23 0.333 8.23 7.7 8.32
8/28/2021 9:30:00 PM 22.33 72.194 0.334 8.22 11.17 8.26
8/28/2021 9:45:00 PM 22.31 72.158 0.334 8.22 9.25 8.18
8/28/2021 10:00:00 PM 22.29 72.122 0.335 8.2 9.66 8.14
8/28/2021 10:15:00 PM 22.26 72.068 0.335 8.19 7.78 8.08
8/28/2021 10:30:00 PM 22.23 72.014 0.335 8.17 6.33 8.03
8/28/2021 10:45:00 PM 22.2 71.96 0.334 8.17 6.68 7.98
8/28/2021 11:00:00 PM 22.16 71.888 0.334 8.16 9.32 7.94
8/28/2021 11:15:00 PM 22.14 71.852 0.333 8.15 9.31 7.91
8/28/2021 11:30:00 PM 22.11 71.798 0.332 8.14 13.6 7.86
8/28/2021 11:45:00 PM 22.08 71.744 0.332 8.13 9.08 7.84
8/29/2021 12:00:00 AM 22.06 71.708 0.332 8.12 9.88 7.81
8/29/2021 12:15:00 AM 22.04 71.672 0.333 8.12 9.37 7.79
8/29/2021 12:30:00 AM 22.02 71.636 0.335 8.11 10.11 7.76
8/29/2021 12:45:00 AM 22 71.6 0.336 8.1 10.36 7.75
8/29/2021 1:00:00 AM 21.98 71.564 0.337 8.1 11.84 7.73
8/29/2021 1:15:00 AM 21.96 71.528 0.338 8.1 11.54 7.71
8/29/2021 1:30:00 AM 21.94 71.492 0.337 8.09 11.36 7.71
8/29/2021 1:45:00 AM 21.92 71.456 0.336 8.09 10.7 7.7
8/29/2021 2:00:00 AM 21.9 71.42 0.335 8.09 10.37 7.7
8/29/2021 2:15:00 AM 21.87 71.366 0.335 8.08 11.04 7.67
8/29/2021 2:30:00 AM 21.85 71.33 0.333 8.08 12.49 7.66
8/29/2021 2:45:00 AM 21.82 71.276 0.331 8.08 10.99 7.66
8/29/2021 3:00:00 AM 21.79 71.222 0.331 8.07 13.41 7.64
8/29/2021 3:15:00 AM 21.76 71.168 0.33 8.06 20.7 7.62
8/29/2021 3:30:00 AM 21.73 71.114 0.331 8.05 12.68 7.61
8/29/2021 3:45:00 AM 21.7 71.06 0.331 8.04 10.38 7.62
8/29/2021 4:00:00 AM 21.65 70.97 0.331 8.04 11.14 7.6
8/29/2021 4:15:00 AM 21.64 70.952 0.331 8.04 10.6 7.62
8/29/2021 4:30:00 AM 21.6 70.88 0.331 8.03 10.35 7.58
8/29/2021 4:45:00 AM 21.57 70.826 0.33 8.03 9.94 7.61
8/29/2021 5:00:00 AM 21.53 70.754 0.328 8.03 7.26 7.63
8/29/2021 5:15:00 AM 21.49 70.682 0.326 8.02 10.83 7.61
8/29/2021 5:30:00 AM 21.45 70.61 0.324 8.02 10.15 7.63
8/29/2021 5:45:00 AM 21.42 70.556 0.323 8.01 11.05 7.62
8/29/2021 6:00:00 AM 21.38 70.484 0.321 8 11.63 7.62
8/29/2021 6:15:00 AM 21.34 70.412 0.319 7.99 11.93 7.64
8/29/2021 6:30:00 AM 21.3 70.34 0.319 7.99 12.31 7.65
8/29/2021 6:45:00 AM 21.27 70.286 0.318 7.99 9.34 7.65
8/29/2021 7:00:00 AM 21.23 70.214 0.318 7.98 9.18 7.65
8/29/2021 7:15:00 AM 21.2 70.16 0.317 7.97 9.28 7.66
8/29/2021 7:30:00 AM 21.16 70.088 0.318 7.97 10.03 7.66
8/29/2021 7:45:00 AM 21.14 70.052 0.316 7.97 10.91 7.67
8/29/2021 8:00:00 AM 21.11 69.998 0.315 7.97 7.9 7.68
8/29/2021 8:15:00 AM 21.08 69.944 0.313 7.97 10.3 7.71
8/29/2021 8:30:00 AM 21.06 69.908 0.311 7.96 8.62 7.75
8/29/2021 8:45:00 AM 21.03 69.854 0.31 7.96 9.86 7.77
8/29/2021 9:00:00 AM 21.01 69.818 0.308 7.96 8.49 7.82
8/29/2021 9:15:00 AM 21 69.8 0.307 7.96 6 7.85
8/29/2021 9:30:00 AM 20.99 69.782 0.306 7.96 6.66 7.91
8/29/2021 9:45:00 AM 21 69.8 0.306 7.96 5.95 7.98
8/29/2021 10:00:00 AM 21.03 69.854 0.306 7.96 9.98 8.08
8/29/2021 10:15:00 AM 21.05 69.89 0.306 7.97 7.17 8.18
8/29/2021 10:30:00 AM 21.05 69.89 0.306 7.99 6.79 8.26
8/29/2021 10:45:00 AM 21.07 69.926 0.306 8 5.84 8.34
8/29/2021 11:00:00 AM 21.1 69.98 0.305 8 8.09 8.41
8/29/2021 11:15:00 AM 21.13 70.034 0.304 8 6.47 8.54
8/29/2021 11:30:00 AM 21.17 70.106 0.303 8.02 6.27 8.62
8/29/2021 11:45:00 AM 21.22 70.196 0.301 8.03 6.51 8.75
8/29/2021 12:00:00 PM 21.26 70.268 0.301 8.06 4.8 8.86
8/29/2021 12:15:00 PM 21.29 70.32201 0.299 8.06 5.69 8.97
8/29/2021 12:30:00 PM 21.35 70.43 0.299 8.08 5.52 9.05
8/29/2021 12:45:00 PM 21.43 70.574 0.298 8.1 4.87 9.17
8/29/2021 1:00:00 PM 21.51 70.718 0.298 8.12 5.23 9.28
8/29/2021 1:15:00 PM 21.58 70.844 0.299 8.15 5.44 9.39
8/29/2021 1:30:00 PM 21.65 70.97 0.299 8.16 5.67 9.43
8/29/2021 1:45:00 PM 21.7 71.06 0.299 8.18 5.24 9.54
8/29/2021 2:00:00 PM 21.75 71.15 0.299 8.19 4.47 9.58
8/29/2021 2:15:00 PM 21.79 71.222 0.299 8.22 3.56 9.66
8/29/2021 2:30:00 PM 21.83 71.294 0.298 8.23 12.2 9.64
8/29/2021 2:45:00 PM 21.86 71.348 0.298 8.24 7.54 9.65
8/29/2021 3:00:00 PM 21.92 71.456 0.298 8.25 6.58 9.65
8/29/2021 3:15:00 PM 21.96 71.528 0.297 8.26 5.48 9.68
8/29/2021 3:30:00 PM 22 71.6 0.296 8.28 6.5 9.71
8/29/2021 3:45:00 PM 22.03 71.654 0.296 8.3 6.45 9.75
8/29/2021 4:00:00 PM 22.05 71.69 0.297 8.3 9.5 9.69
8/29/2021 4:15:00 PM 22.08 71.744 0.297 8.31 5.53 9.69
8/29/2021 4:30:00 PM 22.1 71.78 0.297 8.31 6.47 9.68
8/29/2021 4:45:00 PM 22.12 71.816 0.298 8.33 10.3 9.68
8/29/2021 5:00:00 PM 22.13 71.834 0.299 8.33 6.52 9.6
8/29/2021 5:15:00 PM 22.13 71.834 0.299 8.34 7.35 9.59
8/29/2021 5:30:00 PM 22.12 71.816 0.299 8.33 6.08 9.5
8/29/2021 5:45:00 PM 22.12 71.816 0.299 8.33 5.9 9.44
8/29/2021 6:00:00 PM 22.11 71.798 0.299 8.32 6.65 9.4
8/29/2021 6:15:00 PM 22.1 71.78 0.299 8.33 6.07 9.36
8/29/2021 6:30:00 PM 22.09 71.762 0.299 8.32 5.84 9.3
8/29/2021 6:45:00 PM 22.07 71.726 0.299 8.31 5.62 9.21
8/29/2021 7:00:00 PM 22.05 71.69 0.3 8.31 6.09 9.16
8/29/2021 7:15:00 PM 22.03 71.654 0.3 8.3 6.75 9.07
8/29/2021 7:30:00 PM 22.01 71.618 0.301 8.28 5.43 8.97
8/29/2021 7:45:00 PM 21.98 71.564 0.301 8.28 7.49 8.9
8/29/2021 8:00:00 PM 21.96 71.528 0.302 8.26 8.03 8.82
8/29/2021 8:15:00 PM 21.94 71.492 0.303 8.25 7.21 8.75
8/29/2021 8:30:00 PM 21.91 71.438 0.303 8.23 7.93 8.66
8/29/2021 8:45:00 PM 21.88 71.384 0.303 8.21 6.14 8.57
8/29/2021 9:00:00 PM 21.86 71.348 0.303 8.2 6.91 8.48
8/29/2021 9:15:00 PM 21.83 71.294 0.303 8.18 6.44 8.42
8/29/2021 9:30:00 PM 21.81 71.258 0.304 8.16 7.53 8.34
8/29/2021 9:45:00 PM 21.77 71.186 0.305 8.15 5.71 8.28
8/29/2021 10:00:00 PM 21.74 71.132 0.306 8.13 7.72 8.23
8/29/2021 10:15:00 PM 21.72 71.096 0.307 8.12 8.48 8.17
8/29/2021 10:30:00 PM 21.7 71.06 0.308 8.1 5.32 8.1
8/29/2021 10:45:00 PM 21.67 71.006 0.31 8.09 8.27 8.08
8/29/2021 11:00:00 PM 21.65 70.97 0.311 8.08 8.22 8.04
8/29/2021 11:15:00 PM 21.62 70.916 0.312 8.06 8.63 7.98
8/29/2021 11:30:00 PM 21.6 70.88 0.312 8.05 8.97 7.9
8/29/2021 11:45:00 PM 21.58 70.844 0.312 8.04 8.62 7.91
8/30/2021 12:00:00 AM 21.56 70.808 0.312 8.04 6.39 7.87
8/30/2021 12:15:00 AM 21.54 70.772 0.311 8.03 8.49 7.87
8/30/2021 12:30:00 AM 21.52 70.736 0.311 8.02 8.61 7.82
8/30/2021 12:45:00 AM 21.5 70.7 0.312 8.02 6.19 7.79
8/30/2021 1:00:00 AM 21.48 70.664 0.313 8.02 8.76 7.77
8/30/2021 1:15:00 AM 21.46 70.628 0.314 8.01 8.2 7.77
8/30/2021 1:30:00 AM 21.44 70.592 0.316 8 10.5 7.74
8/30/2021 1:45:00 AM 21.42 70.556 0.318 8 8.79 7.74
8/30/2021 2:00:00 AM 21.41 70.538 0.319 8 9.71 7.69
8/30/2021 2:15:00 AM 21.39 70.502 0.32 7.99 10.62 7.71
8/30/2021 2:30:00 AM 21.37 70.466 0.32 7.99 8.64 7.67
8/30/2021 2:45:00 AM 21.35 70.43 0.319 7.99 8.64 7.68
8/30/2021 3:00:00 AM 21.33 70.394 0.32 7.98 7.33 7.66
8/30/2021 3:15:00 AM 21.31 70.358 0.32 7.97 9.18 7.65
8/30/2021 3:30:00 AM 21.29 70.32201 0.319 7.96 10.59 7.64
8/30/2021 3:45:00 AM 21.26 70.268 0.319 7.97 11.08 7.65
8/30/2021 4:00:00 AM 21.24 70.232 0.32 7.97 10.84 7.65
8/30/2021 4:15:00 AM 21.21 70.17799 0.321 7.97 10.37 7.65
8/30/2021 4:30:00 AM 21.19 70.142 0.323 7.95 8.78 7.61
8/30/2021 4:45:00 AM 21.16 70.088 0.324 7.95 9.52 7.63
8/30/2021 5:00:00 AM 21.14 70.052 0.305 7.95 11.51 7.61
8/30/2021 5:15:00 AM 21.12 70.016 0.326 7.95 9.31 7.55
8/30/2021 5:30:00 AM 21.1 69.98 0.326 7.94 10.53 7.59
8/30/2021 5:45:00 AM 21.08 69.944 0.328 7.94 8.89 7.59
8/30/2021 6:00:00 AM 21.05 69.89 0.326 7.94 9.75 7.63
8/30/2021 6:15:00 AM 21.03 69.854 0.325 7.94 14.6 7.62
8/30/2021 6:30:00 AM 21 69.8 0.325 7.94 11.58 7.62
8/30/2021 6:45:00 AM 20.97 69.746 0.325 7.93 11.53 7.63
8/30/2021 7:00:00 AM 20.94 69.692 0.326 7.93 9.78 7.63
8/30/2021 7:15:00 AM 20.92 69.656 0.327 7.93 9.84 7.61
8/30/2021 7:30:00 AM 20.9 69.62 0.328 7.92 10.4 7.68
8/30/2021 7:45:00 AM 20.89 69.602 0.329 7.91 10.95 7.63
8/30/2021 8:00:00 AM 20.88 69.584 0.33 7.91 9.43 7.67
8/30/2021 8:15:00 AM 20.86 69.548 0.331 7.92 10.39 7.73
8/30/2021 8:30:00 AM 20.86 69.548 0.331 7.92 10.31 7.79
8/30/2021 8:45:00 AM 20.85 69.53 0.331 7.93 8.29 7.86
8/30/2021 9:00:00 AM 20.88 69.584 0.332 7.93 7.01 7.9
8/30/2021 9:15:00 AM 20.89 69.602 0.331 7.94 8.73 8.04
8/30/2021 9:30:00 AM 20.99 69.782 0.33 7.94 8.52 8.13
8/30/2021 9:45:00 AM 21.12 70.016 0.33 7.94 8.75 8.2
8/30/2021 10:00:00 AM 21.19 70.142 0.331 7.96 5.95 8.28
8/30/2021 10:15:00 AM 21.16 70.088 0.333 7.97 6.47 8.34
8/30/2021 10:30:00 AM 21.28 70.304 0.334 7.98 8.51 8.52
8/30/2021 10:45:00 AM 21.4 70.52 0.336 8 7.23 8.6
8/30/2021 11:00:00 AM 21.49 70.682 0.336 8 8.53 8.69
8/30/2021 11:15:00 AM 21.5 70.7 0.337 8.03 7.42 8.77
8/30/2021 11:30:00 AM 21.48 70.664 0.337 8.02 6.73 8.87
8/30/2021 11:45:00 AM 21.56 70.808 0.337 8.05 8.39 9
8/30/2021 12:00:00 PM 21.64 70.952 0.338 8.05 7.36 9.05
8/30/2021 12:15:00 PM 21.74 71.132 0.334 8.1 7.81 9.28
8/30/2021 12:30:00 PM 21.8 71.24 0.334 8.11 7.15 9.28
8/30/2021 12:45:00 PM 21.88 71.384 0.333 8.13 8.79 9.34
8/30/2021 1:00:00 PM 21.98 71.564 0.332 8.16 6.6 9.45
8/30/2021 1:15:00 PM 22.08 71.744 0.331 8.19 6.39 9.59
8/30/2021 1:30:00 PM 22.16 71.888 0.332 8.21 6.24 9.63
8/30/2021 1:45:00 PM 22.25 72.05 0.332 8.22 6.28 9.64
8/30/2021 2:00:00 PM 22.33 72.194 0.331 8.24 7.13 9.66
8/30/2021 2:15:00 PM 22.41 72.338 0.331 8.26 7.44 9.74
8/30/2021 2:30:00 PM 22.51 72.518 0.331 8.27 6.85 9.7
8/30/2021 2:45:00 PM 22.63 72.734 0.329 8.29 7.42 9.79
8/30/2021 3:00:00 PM 22.73 72.914 0.329 8.3 6.23 9.8
8/30/2021 3:15:00 PM 22.85 73.13 0.327 8.33 7.78 9.86
8/30/2021 3:30:00 PM 22.92 73.256 0.326 8.35 7.31 9.86
8/30/2021 3:45:00 PM 22.99 73.382 0.326 8.37 8.21 9.81
8/30/2021 4:00:00 PM 23.07 73.526 0.325 8.37 6.26 9.84
8/30/2021 4:15:00 PM 23.15 73.67 0.324 8.38 5.26 9.77
8/30/2021 4:30:00 PM 23.17 73.706 0.324 8.39 6.19 9.76
8/30/2021 4:45:00 PM 23.17 73.706 0.324 8.39 6.2 9.63
8/30/2021 5:00:00 PM 23.15 73.67 0.323 8.4 5.33 9.55
8/30/2021 5:15:00 PM 23.14 73.652 0.323 8.4 6.84 9.43
8/30/2021 5:30:00 PM 23.12 73.616 0.323 8.39 6.68 9.38
8/30/2021 5:45:00 PM 23.11 73.598 0.322 8.38 7.51 9.3
8/30/2021 6:00:00 PM 23.06 73.508 0.321 8.39 8.1 9.26
8/30/2021 6:15:00 PM 23.02 73.436 0.322 8.38 6.79 9.16
8/30/2021 6:30:00 PM 22.98 73.364 0.32 8.37 7.53 9.05
8/30/2021 6:45:00 PM 22.94 73.292 0.32 8.37 4.89 9.01
8/30/2021 7:00:00 PM 22.9 73.22 0.32 8.37 5.44 8.92
8/30/2021 7:15:00 PM 22.87 73.166 0.32 8.36 5.98 8.85
8/30/2021 7:30:00 PM 22.83 73.094 0.32 8.35 7.25 8.77
8/30/2021 7:45:00 PM 22.79 73.022 0.321 8.33 7.39 8.69
8/30/2021 8:00:00 PM 22.75 72.95 0.323 8.33 6.98 8.64
8/30/2021 8:15:00 PM 22.7 72.86 0.321 8.31 6.98 8.52
8/30/2021 8:30:00 PM 22.65 72.77 0.321 8.31 7.59 8.43
8/30/2021 8:45:00 PM 22.6 72.68 0.32 8.29 8.23 8.36
8/30/2021 9:00:00 PM 22.55 72.59 0.32 8.27 7.95 8.25
8/30/2021 9:15:00 PM 22.49 72.482 0.32 8.25 7.28 8.17
8/30/2021 9:30:00 PM 22.44 72.392 0.319 8.23 8.38 8.11
8/30/2021 9:45:00 PM 22.38 72.284 0.319 8.22 8.87 8.04
8/30/2021 10:00:00 PM 22.34 72.212 0.32 8.21 9.03 8
8/30/2021 10:15:00 PM 22.3 72.14 0.321 8.19 8.49 7.98
8/30/2021 10:30:00 PM 22.27 72.086 0.322 8.18 8.7 7.93
8/30/2021 10:45:00 PM 22.24 72.032 0.324 8.17 7.61 7.87
8/30/2021 11:00:00 PM 22.21 71.978 0.325 8.15 12.29 7.83
8/30/2021 11:15:00 PM 22.18 71.924 0.325 8.14 8.79 7.78
8/30/2021 11:30:00 PM 22.16 71.888 0.325 8.13 9.33 7.72
8/30/2021 11:45:00 PM 22.14 71.852 0.308 8.12 9.82 7.69
8/31/2021 12:00:00 AM 22.11 71.798 0.307 8.11 10.22 7.64
8/31/2021 12:15:00 AM 22.09 71.762 0.316 8.1 9.71 7.61
8/31/2021 12:30:00 AM 22.06 71.708 0.32 8.1 9.26 7.58
8/31/2021 12:45:00 AM 22.05 71.69 0.318 8.08 10.51 7.55
8/31/2021 1:00:00 AM 22.03 71.654 0.318 8.07 10.75 7.51
8/31/2021 1:15:00 AM 22 71.6 0.32 8.07 9.66 7.5
8/31/2021 1:30:00 AM 21.99 71.582 0.319 8.06 10.44 7.47
8/31/2021 1:45:00 AM 21.97 71.546 0.321 8.06 10.82 7.45
8/31/2021 2:00:00 AM 21.95 71.51 0.32 8.05 15.7 7.44
8/31/2021 2:15:00 AM 21.93 71.474 0.319 8.05 12.07 7.43
8/31/2021 2:30:00 AM 21.91 71.438 0.318 8.04 12.06 7.44
8/31/2021 2:45:00 AM 21.88 71.384 0.304 8.04 11.44 7.42
8/31/2021 3:00:00 AM 21.85 71.33 0.317 8.03 11.57 7.4
8/31/2021 3:15:00 AM 21.82 71.276 0.309 8.03 10.81 7.39
8/31/2021 3:30:00 AM 21.79 71.222 0.306 8.02 11.23 7.4
8/31/2021 3:45:00 AM 21.76 71.168 0.315 8.02 10.8 7.38
8/31/2021 4:00:00 AM 21.72 71.096 0.311 8.01 15.4 7.38
8/31/2021 4:15:00 AM 21.69 71.042 0.307 8 12.1 7.39
8/31/2021 4:30:00 AM 21.65 70.97 0.318 8 18.53 7.39
8/31/2021 4:45:00 AM 21.62 70.916 0.32 8 12.29 7.39
8/31/2021 5:00:00 AM 21.58 70.844 0.323 7.99 11.17 7.4
8/31/2021 5:15:00 AM 21.54 70.772 0.304 7.98 11.94 7.4
8/31/2021 5:30:00 AM 21.5 70.7 0.324 7.98 21.66 7.35
8/31/2021 5:45:00 AM 21.45 70.61 0.316 7.97 13.34 7.41
8/31/2021 6:00:00 AM 21.41 70.538 0.315 7.96 14.34 7.41
8/31/2021 6:15:00 AM 21.36 70.448 0.314 7.96 8.92 7.43
8/31/2021 6:30:00 AM 21.33 70.394 0.317 7.96 11.8 7.43
8/31/2021 6:45:00 AM 21.28 70.304 0.312 7.95 14.23 7.45
8/31/2021 7:00:00 AM 21.23 70.214 0.31 7.95 13.08 7.46
8/31/2021 7:15:00 AM 21.2 70.16 0.311 7.95 11.83 7.45
8/31/2021 7:30:00 AM 21.16 70.088 0.312 7.94 10.99 7.46
8/31/2021 7:45:00 AM 21.14 70.052 0.325 7.94 11.04 7.5
8/31/2021 8:00:00 AM 21.11 69.998 0.32 7.94 8.55 7.47
8/31/2021 8:15:00 AM 21.1 69.98 0.317 7.93 10.02 7.53
8/31/2021 8:30:00 AM 21.1 69.98 0.315 7.93 11.48 7.65
8/31/2021 8:45:00 AM 21.1 69.98 0.316 7.94 9.95 7.75
8/31/2021 9:00:00 AM 21.1 69.98 0.314 7.95 10.59 7.86
8/31/2021 9:15:00 AM 21.11 69.998 0.315 7.95 10.65 7.95
8/31/2021 9:30:00 AM 21.14 70.052 0.318 7.96 11.23 8.02
8/31/2021 9:45:00 AM 21.15 70.07 0.316 7.96 9.4 8.09
8/31/2021 10:00:00 AM 21.16 70.088 0.319 7.98 9.95 8.25
8/31/2021 10:15:00 AM 21.2 70.16 0.319 7.98 8.73 8.34
8/31/2021 10:30:00 AM 21.22 70.196 0.32 7.99 10.3 8.44
8/31/2021 10:45:00 AM 21.23 70.214 0.321 8.01 9.95 8.57
8/31/2021 11:00:00 AM 21.24 70.232 0.323 8.02 9.5 8.63
8/31/2021 11:15:00 AM 21.25 70.25 0.324 8.03 8.43 8.71
8/31/2021 11:30:00 AM 21.26 70.268 0.325 8.05 12.83 8.78
8/31/2021 11:45:00 AM 21.28 70.304 0.321 8.05 10.77 8.86
8/31/2021 12:00:00 PM 21.29 70.32201 0.322 8.07 8.11 8.95
8/31/2021 12:15:00 PM 21.31 70.358 0.325 8.09 9.82 9.02
8/31/2021 12:30:00 PM 21.34 70.412 0.324 8.1 8.45 9.08
8/31/2021 12:45:00 PM 21.37 70.466 0.318 8.11 9.58 9.15
8/31/2021 1:00:00 PM 21.39 70.502 0.303 8.13 9.02 9.25
8/31/2021 1:15:00 PM 21.44 70.592 0.31 8.14 9.03 9.27
8/31/2021 1:30:00 PM 21.47 70.646 0.309 8.16 9.09 9.37
8/31/2021 1:45:00 PM 21.49 70.682 0.305 8.18 9.4 9.47
8/31/2021 2:00:00 PM 21.52 70.736 0.32 8.2 8.83 9.49
8/31/2021 2:15:00 PM 21.53 70.754 0.318 8.22 9.45 9.55
8/31/2021 2:30:00 PM 21.55 70.79 0.316 8.23 8.42 9.5
8/31/2021 2:45:00 PM 21.59 70.862 0.314 8.24 8.85 9.59
8/31/2021 3:00:00 PM 21.6 70.88 0.325 8.26 8.6 9.66
8/31/2021 3:15:00 PM 21.61 70.898 0.322 8.27 9.11 9.66
8/31/2021 3:30:00 PM 21.61 70.898 0.321 8.29 8.43 9.63
8/31/2021 3:45:00 PM 21.59 70.862 0.305 8.29 10.32 9.6
8/31/2021 4:00:00 PM 21.6 70.88 0.317 8.29 9.94 9.56
8/31/2021 4:15:00 PM 21.6 70.88 0.319 8.31 8.55 9.6
8/31/2021 4:30:00 PM 21.59 70.862 0.314 8.31 9.28 9.6
8/31/2021 4:45:00 PM 21.58 70.844 0.314 8.31 10.4 9.56
8/31/2021 5:00:00 PM 21.58 70.844 0.315 8.32 9.5 9.51
8/31/2021 5:15:00 PM 21.56 70.808 0.313 8.32 10.5 9.48
8/31/2021 5:30:00 PM 21.55 70.79 0.312 8.32 9.79 9.38
8/31/2021 5:45:00 PM 21.53 70.754 0.312 8.32 10.23 9.37
8/31/2021 6:00:00 PM 21.52 70.736 0.314 8.32 9.13 9.28
8/31/2021 6:15:00 PM 21.5 70.7 0.314 8.31 9.76 9.22
8/31/2021 6:30:00 PM 21.48 70.664 0.315 8.31 11.05 9.16
8/31/2021 6:45:00 PM 21.46 70.628 0.31 8.3 10.07 9.11
8/31/2021 7:00:00 PM 21.43 70.574 0.314 8.29 12.08 9.02
8/31/2021 7:15:00 PM 21.41 70.538 0.312 8.28 14.44 8.94
8/31/2021 7:30:00 PM 21.39 70.502 0.314 8.27 12.3 8.85
8/31/2021 7:45:00 PM 21.36 70.448 0.317 8.26 13.99 8.79
8/31/2021 8:00:00 PM 21.34 70.412 0.303 8.25 12.94 8.69
8/31/2021 8:15:00 PM 21.3 70.34 0.302 8.23 13.7 8.63
8/31/2021 8:30:00 PM 21.28 70.304 0.321 8.23 12.39 8.54
8/31/2021 8:45:00 PM 21.25 70.25 0.32 8.22 16.13 8.49
8/31/2021 9:00:00 PM 21.22 70.196 0.316 8.2 13.13 8.42
8/31/2021 9:15:00 PM 21.2 70.16 0.317 8.2 15.22 8.36
8/31/2021 9:30:00 PM 21.17 70.106 0.318 8.18 15.3 8.33
8/31/2021 9:45:00 PM 21.14 70.052 0.317 8.17 15.65 8.26
8/31/2021 10:00:00 PM 21.11 69.998 0.311 8.16 15.57 8.19
8/31/2021 10:15:00 PM 21.09 69.962 0.307 8.14 15.48 8.14
8/31/2021 10:30:00 PM 21.06 69.908 0.323 8.14 15.45 8.13
8/31/2021 10:45:00 PM 21.04 69.872 0.318 8.12 15.61 8.08
8/31/2021 11:00:00 PM 21.02 69.836 0.326 8.12 13.88 8
8/31/2021 11:15:00 PM 21 69.8 0.32 8.09 15.49 7.95
8/31/2021 11:30:00 PM 20.97 69.746 0.306 8.1 17.43 7.96
8/31/2021 11:45:00 PM 20.95 69.71 0.322 8.08 20.8 7.9
9/1/2021 12:00:00 AM 20.93 69.674 0.321 8.07 15.11 7.88
9/1/2021 12:15:00 AM 20.91 69.638 0.316 8.07 18.04 7.86
9/1/2021 12:30:00 AM 20.89 69.602 0.322 8.06 17.7 7.85
9/1/2021 12:45:00 AM 20.87 69.566 0.322 8.06 18.01 7.83
9/1/2021 1:00:00 AM 20.84 69.512 0.318 8.05 19.29 7.81
9/1/2021 1:15:00 AM 20.82 69.476 0.308 8.05 18.8 7.78
9/1/2021 1:30:00 AM 20.8 69.44 0.319 8.04 18.66 7.76
9/1/2021 1:45:00 AM 20.78 69.404 0.311 8.04 18.76 7.78
9/1/2021 2:00:00 AM 20.76 69.368 0.323 8.04 15.46 7.76
9/1/2021 2:15:00 AM 20.74 69.332 0.323 8.03 17.81 7.73
9/1/2021 2:30:00 AM 20.72 69.296 0.322 8.03 19.57 7.74
9/1/2021 2:45:00 AM 20.69 69.242 0.327 8.02 19.08 7.73
9/1/2021 3:00:00 AM 20.67 69.206 0.325 8.01 20.14 7.7
9/1/2021 3:15:00 AM 20.64 69.152 0.307 8.02 20.29 7.72
9/1/2021 3:30:00 AM 20.63 69.134 0.308 8 24.26 7.64
9/1/2021 3:45:00 AM 20.6 69.08 0.308 8 20.18 7.62
9/1/2021 4:00:00 AM 20.58 69.044 0.318 8 21.36 7.67
9/1/2021 4:15:00 AM 20.55 68.99 0.32 8 22.29 7.67
9/1/2021 4:30:00 AM 20.53 68.954 0.319 7.98 23.84 7.69
9/1/2021 4:45:00 AM 20.5 68.9 0.325 7.99 19.54 7.71
9/1/2021 5:00:00 AM 20.47 68.846 0.303 7.98 23.88 7.71
9/1/2021 5:15:00 AM 20.45 68.81 0.312 7.97 22.22 7.68
9/1/2021 5:30:00 AM 20.42 68.756 0.321 7.98 24.12 7.71
9/1/2021 5:45:00 AM 20.4 68.72 0.317 7.97 23.96 7.64
9/1/2021 6:00:00 AM 20.37 68.666 0.319 7.97 22.74 7.68
9/1/2021 6:15:00 AM 20.34 68.612 0.316 7.96 23.33 7.68
9/1/2021 6:30:00 AM 20.32 68.576 0.324 7.96 22.35 7.66
9/1/2021 6:45:00 AM 20.29 68.522 0.313 7.95 26.59 7.67
9/1/2021 7:00:00 AM 20.27 68.486 0.306 7.94 26.21 7.63
9/1/2021 7:15:00 AM 20.24 68.432 0.306 7.95 26.9 7.71
9/1/2021 7:30:00 AM 20.22 68.396 0.325 7.94 26.9 7.68
9/1/2021 7:45:00 AM 20.2 68.36 0.327 7.95 26.22 7.72
9/1/2021 8:00:00 AM 20.17 68.306 0.327 7.95 27.69 7.74
9/1/2021 8:15:00 AM 20.15 68.27 0.328 7.94 26.69 7.76
9/1/2021 8:30:00 AM 20.13 68.234 0.326 7.94 26.43 7.76
9/1/2021 8:45:00 AM 20.1 68.18 0.325 7.94 26.92 7.77
9/1/2021 9:00:00 AM 20.07 68.126 0.324 7.94 25.88 7.76
9/1/2021 9:15:00 AM 20.05 68.09 0.323 7.94 27.01 7.78
9/1/2021 9:30:00 AM 20.03 68.054 0.323 7.94 25.1 7.82
9/1/2021 9:45:00 AM 20 68 0.323 7.93 25.83 7.82
9/1/2021 10:00:00 AM 19.98 67.964 0.324 7.93 25.09 7.86
9/1/2021 10:15:00 AM 19.97 67.946 0.33 7.92 29.97 7.82
9/1/2021 10:30:00 AM 19.95 67.91 0.33 7.93 33.51 7.83
9/1/2021 10:45:00 AM 19.93 67.874 0.33 7.93 39.04 7.89
9/1/2021 11:00:00 AM 19.92 67.856 0.311 7.92 43.86 7.95
9/1/2021 11:15:00 AM 19.89 67.802 0.306 7.94 45.78 8.02
9/1/2021 11:30:00 AM 19.88 67.784 0.306 7.94 35.32 8
9/1/2021 11:45:00 AM 19.86 67.748 0.305 7.95 37.18 8.08
9/1/2021 12:00:00 PM 19.85 67.73 0.303 7.95 40.88 8.08
9/1/2021 12:15:00 PM 19.84 67.712 0.311 7.94 56.63 8.1
9/1/2021 12:30:00 PM 19.86 67.748 0.3 7.94 113.3 8.12
9/1/2021 12:45:00 PM 19.88 67.784 0.292 7.93 82.29 8.14
9/1/2021 1:00:00 PM 19.89 67.802 0.287 7.92 95.65 8.14
9/1/2021 1:15:00 PM 19.91 67.838 0.272 7.91 125 8.11
9/1/2021 1:30:00 PM 20 68 0.248 7.88 194.8 8.11
9/1/2021 1:45:00 PM 20.04 68.07201 0.236 7.84 152 8.07
9/1/2021 2:00:00 PM 20.08 68.144 0.22 7.8 307.5 8.06
9/1/2021 2:15:00 PM 20.14 68.252 0.21 7.77 262.2 8.09
9/1/2021 2:30:00 PM 20.18 68.324 0.199 7.75 320.3 8.03
9/1/2021 2:45:00 PM 20.2 68.36 0.189 7.71 285.9 7.97
9/1/2021 3:00:00 PM 20.16 68.288 0.187 7.68 2477 8.03
9/1/2021 3:15:00 PM 20.09 68.162 0.186 7.69 274.4 8.07
9/1/2021 3:30:00 PM 20.04 68.07201 0.189 7.71 335.9 8.1
9/1/2021 3:45:00 PM 20.04 68.07201 0.179 7.68 436.3 8.05
9/1/2021 4:00:00 PM 20.06 68.108 0.159 7.63 1279 7.99
9/1/2021 4:15:00 PM 20.08 68.144 0.144 7.58 816.7 7.94
9/1/2021 4:30:00 PM 20.1 68.18 0.135 7.52 809.6 7.92
9/1/2021 4:45:00 PM 20.14 68.252 0.132 7.52 849.5 7.93
9/1/2021 5:00:00 PM 20.12 68.216 0.126 7.53 780.5 7.93
9/1/2021 5:15:00 PM 20.1 68.18 0.121 7.51 653.1 7.87
9/1/2021 5:30:00 PM 20.1 68.18 0.118 7.49 483.2 7.8
9/1/2021 5:45:00 PM 20.09 68.162 0.116 7.46 387.7 7.76
9/1/2021 6:00:00 PM 20.08 68.144 0.114 7.45 361.6 7.74
9/1/2021 6:15:00 PM 20.05 68.09 0.102 7.43 298.3 7.74
9/1/2021 6:30:00 PM 20.03 68.054 0.111 7.41 264.2 7.72
9/1/2021 6:45:00 PM 20.01 68.018 0.109 7.41 247.4 7.7
9/1/2021 7:00:00 PM 19.98 67.964 0.108 7.4 248.8 7.68
9/1/2021 7:15:00 PM 19.95 67.91 0.107 7.37 231.1 7.67
9/1/2021 7:30:00 PM 19.92 67.856 0.106 7.37 231.1 7.64
9/1/2021 7:45:00 PM 19.88 67.784 0.105 7.36 229.9 7.64
9/1/2021 8:00:00 PM 19.84 67.712 0.104 7.35 209.9 7.63
9/1/2021 8:15:00 PM 19.8 67.64 0.102 7.33 215.9 7.6
9/1/2021 8:30:00 PM 19.77 67.586 0.101 7.33 227.5 7.58
9/1/2021 8:45:00 PM 19.74 67.532 0.102 7.31 220.7 7.58
9/1/2021 9:00:00 PM 19.72 67.496 0.102 7.29 210.1 7.56
9/1/2021 9:15:00 PM 19.71 67.478 0.103 7.28 209.1 7.57
9/1/2021 9:30:00 PM 19.68 67.424 0.104 7.28 175.6 7.57
9/1/2021 9:45:00 PM 19.66 67.388 0.104 7.27 171.5 7.59
9/1/2021 10:00:00 PM 19.64 67.352 0.098 7.27 155.1 7.61
9/1/2021 10:15:00 PM 19.62 67.316 0.1 7.28 144.7 7.62
9/1/2021 10:30:00 PM 19.6 67.28 0.105 7.27 135.8 7.62
9/1/2021 10:45:00 PM 19.58 67.244 0.109 7.28 128 7.62
9/1/2021 11:00:00 PM 19.55 67.19 0.113 7.27 123.2 7.63
9/1/2021 11:15:00 PM 19.53 67.154 0.115 7.2 112.4 7.63
9/1/2021 11:30:00 PM 19.5 67.1 0.116 7.21 103.9 7.63
9/1/2021 11:45:00 PM 19.48 67.064 0.117 7.22 106.9 7.64
9/2/2021 12:00:00 AM 19.45 67.01 0.118 7.23 93.01 7.63
9/2/2021 12:15:00 AM 19.42 66.956 0.119 7.23 87.93 7.63
9/2/2021 12:30:00 AM 19.4 66.92 0.114 7.23 82.45 7.63
9/2/2021 12:45:00 AM 19.37 66.866 0.12 7.23 79.5 7.63
9/2/2021 1:00:00 AM 19.35 66.83 0.121 7.22 76.81 7.63
9/2/2021 1:15:00 AM 19.32 66.776 0.122 7.23 78.19 7.63
9/2/2021 1:30:00 AM 19.3 66.74 0.122 7.22 75.99 7.62
9/2/2021 1:45:00 AM 19.28 66.704 0.123 7.23 74.35 7.61
9/2/2021 2:00:00 AM 19.25 66.65 0.124 7.22 74.94 7.62
9/2/2021 2:15:00 AM 19.23 66.614 0.125 7.23 76.11 7.62
9/2/2021 2:30:00 AM 19.2 66.56 0.126 7.22 79.8 7.62
9/2/2021 2:45:00 AM 19.18 66.524 0.126 7.21 77.83 7.62
9/2/2021 3:00:00 AM 19.15 66.47 0.126 7.22 79.81 7.61
9/2/2021 3:15:00 AM 19.12 66.416 0.126 7.21 82.19 7.61
9/2/2021 3:30:00 AM 19.09 66.362 0.126 7.21 81.48 7.62
9/2/2021 3:45:00 AM 19.07 66.326 0.127 7.21 85.34 7.61
9/2/2021 4:00:00 AM 19.04 66.272 0.126 7.2 86.79 7.62
9/2/2021 4:15:00 AM 19.01 66.218 0.127 7.2 86.45 7.62
9/2/2021 4:30:00 AM 18.99 66.182 0.127 7.21 99.88 7.63
9/2/2021 4:45:00 AM 18.95 66.11 0.127 7.19 95.63 7.65
9/2/2021 5:00:00 AM 18.92 66.056 0.126 7.19 90.87 7.67
9/2/2021 5:15:00 AM 18.88 65.984 0.125 7.2 97.64 7.69
9/2/2021 5:30:00 AM 18.85 65.93 0.124 7.19 97.19 7.7
9/2/2021 5:45:00 AM 18.82 65.876 0.123 7.19 90.66 7.72
9/2/2021 6:00:00 AM 18.78 65.804 0.122 7.19 95.06 7.73
9/2/2021 6:15:00 AM 18.75 65.75 0.121 7.19 95.24 7.74
9/2/2021 6:30:00 AM 18.72 65.696 0.121 7.19 89.67 7.75
9/2/2021 6:45:00 AM 18.68 65.624 0.121 7.18 84.52 7.77
9/2/2021 7:00:00 AM 18.65 65.57 0.122 7.17 83.86 7.78
9/2/2021 7:15:00 AM 18.61 65.498 0.12 7.18 84.14 7.8
9/2/2021 7:30:00 AM 18.58 65.444 0.119 7.19 86.97 7.8
9/2/2021 7:45:00 AM 18.54 65.372 0.118 7.17 82.11 7.82
9/2/2021 8:00:00 AM 18.51 65.318 0.117 7.17 86.02 7.83
9/2/2021 8:15:00 AM 18.49 65.282 0.117 7.19 82.39 7.83
9/2/2021 8:30:00 AM 18.47 65.246 0.117 7.17 81.95 7.84
9/2/2021 8:45:00 AM 18.46 65.228 0.116 7.19 84.02 7.85
9/2/2021 9:00:00 AM 18.45 65.21 0.117 7.18 77.46 7.85
9/2/2021 9:15:00 AM 18.45 65.21 0.117 7.17 79.64 7.86
9/2/2021 9:30:00 AM 18.45 65.21 0.116 7.18 76.28 7.86
9/2/2021 9:45:00 AM 18.45 65.21 0.115 7.17 75.38 7.88
9/2/2021 10:00:00 AM 18.45 65.21 0.114 7.16 77.14